<?xml version="1.0" encoding="UTF-8" standalone="no" ?>
<gpx xmlns="http://www.topografix.com/GPX/1/1" xmlns:xsi="http://www.w3.org/2001/XMLSchema-instance" xsi:schemaLocation="http://www.topografix.com/GPX/1/1 http://www.topografix.com/GPX/1/1/gpx.xsd" version="1.1" creator="VisuGPX - https://www.visugpx.com">
  <metadata>
    <name>Divonne-les-Bains Cyclisme</name>
    <desc><![CDATA[Col de la Faucille au départ de Gex]]></desc>
  </metadata>
  <trk>
    <name><![CDATA[Divonne-les-Bains Cyclisme]]></name>
    <trkseg>
      <trkpt lat="46.3343" lon="6.05994">
        <ele>613.59997558594</ele>
        <time>2019-10-05T13:14:17.000Z</time>
      </trkpt>
      <trkpt lat="46.33434" lon="6.05996">
        <ele>613.79998779297</ele>
        <time>2019-10-05T13:14:18.000Z</time>
      </trkpt>
      <trkpt lat="46.3344" lon="6.06001">
        <ele>614.20001220703</ele>
        <time>2019-10-05T13:14:20.000Z</time>
      </trkpt>
      <trkpt lat="46.33444" lon="6.06003">
        <ele>614.20001220703</ele>
        <time>2019-10-05T13:14:21.000Z</time>
      </trkpt>
      <trkpt lat="46.33451" lon="6.06009">
        <ele>614.59997558594</ele>
        <time>2019-10-05T13:14:23.000Z</time>
      </trkpt>
      <trkpt lat="46.33482" lon="6.06026">
        <ele>616.20001220703</ele>
        <time>2019-10-05T13:14:31.000Z</time>
      </trkpt>
      <trkpt lat="46.335" lon="6.06036">
        <ele>617.59997558594</ele>
        <time>2019-10-05T13:14:36.000Z</time>
      </trkpt>
      <trkpt lat="46.3351" lon="6.06044">
        <ele>618.40002441406</ele>
        <time>2019-10-05T13:14:39.000Z</time>
      </trkpt>
      <trkpt lat="46.3352" lon="6.06052">
        <ele>619.20001220703</ele>
        <time>2019-10-05T13:14:42.000Z</time>
      </trkpt>
      <trkpt lat="46.3353" lon="6.06065">
        <ele>619.59997558594</ele>
        <time>2019-10-05T13:14:46.000Z</time>
      </trkpt>
      <trkpt lat="46.33533" lon="6.06068">
        <ele>619.59997558594</ele>
        <time>2019-10-05T13:14:47.000Z</time>
      </trkpt>
      <trkpt lat="46.33536" lon="6.06075">
        <ele>619.40002441406</ele>
        <time>2019-10-05T13:14:49.000Z</time>
      </trkpt>
      <trkpt lat="46.3354" lon="6.06084">
        <ele>619.20001220703</ele>
        <time>2019-10-05T13:14:51.000Z</time>
      </trkpt>
      <trkpt lat="46.33545" lon="6.06097">
        <ele>618.59997558594</ele>
        <time>2019-10-05T13:14:54.000Z</time>
      </trkpt>
      <trkpt lat="46.33551" lon="6.06115">
        <ele>617.79998779297</ele>
        <time>2019-10-05T13:14:58.000Z</time>
      </trkpt>
      <trkpt lat="46.33557" lon="6.06132">
        <ele>617</ele>
        <time>2019-10-05T13:15:02.000Z</time>
      </trkpt>
      <trkpt lat="46.33561" lon="6.06141">
        <ele>616.59997558594</ele>
        <time>2019-10-05T13:15:04.000Z</time>
      </trkpt>
      <trkpt lat="46.33568" lon="6.06151">
        <ele>616.40002441406</ele>
        <time>2019-10-05T13:15:07.000Z</time>
      </trkpt>
      <trkpt lat="46.33574" lon="6.06154">
        <ele>616.40002441406</ele>
        <time>2019-10-05T13:15:09.000Z</time>
      </trkpt>
      <trkpt lat="46.33581" lon="6.06156">
        <ele>616.79998779297</ele>
        <time>2019-10-05T13:15:11.000Z</time>
      </trkpt>
      <trkpt lat="46.33593" lon="6.0615">
        <ele>618.40002441406</ele>
        <time>2019-10-05T13:15:15.000Z</time>
      </trkpt>
      <trkpt lat="46.33603" lon="6.06132">
        <ele>620.59997558594</ele>
        <time>2019-10-05T13:15:20.000Z</time>
      </trkpt>
      <trkpt lat="46.33602" lon="6.06112">
        <ele>622.20001220703</ele>
        <time>2019-10-05T13:15:24.000Z</time>
      </trkpt>
      <trkpt lat="46.33595" lon="6.06089">
        <ele>623.79998779297</ele>
        <time>2019-10-05T13:15:29.000Z</time>
      </trkpt>
      <trkpt lat="46.33593" lon="6.06085">
        <ele>624</ele>
        <time>2019-10-05T13:15:30.000Z</time>
      </trkpt>
      <trkpt lat="46.33589" lon="6.06072">
        <ele>625</ele>
        <time>2019-10-05T13:15:33.000Z</time>
      </trkpt>
      <trkpt lat="46.33585" lon="6.06059">
        <ele>625.79998779297</ele>
        <time>2019-10-05T13:15:36.000Z</time>
      </trkpt>
      <trkpt lat="46.33583" lon="6.0605">
        <ele>626.40002441406</ele>
        <time>2019-10-05T13:15:38.000Z</time>
      </trkpt>
      <trkpt lat="46.33574" lon="6.06022">
        <ele>628.40002441406</ele>
        <time>2019-10-05T13:15:45.000Z</time>
      </trkpt>
      <trkpt lat="46.33571" lon="6.06015">
        <ele>628.79998779297</ele>
        <time>2019-10-05T13:15:47.000Z</time>
      </trkpt>
      <trkpt lat="46.33567" lon="6.06002">
        <ele>629.79998779297</ele>
        <time>2019-10-05T13:15:50.000Z</time>
      </trkpt>
      <trkpt lat="46.33562" lon="6.05986">
        <ele>630.79998779297</ele>
        <time>2019-10-05T13:15:54.000Z</time>
      </trkpt>
      <trkpt lat="46.33559" lon="6.05975">
        <ele>631.40002441406</ele>
        <time>2019-10-05T13:15:57.000Z</time>
      </trkpt>
      <trkpt lat="46.33554" lon="6.05954">
        <ele>632.79998779297</ele>
        <time>2019-10-05T13:16:02.000Z</time>
      </trkpt>
      <trkpt lat="46.3355" lon="6.05943">
        <ele>633.59997558594</ele>
        <time>2019-10-05T13:16:05.000Z</time>
      </trkpt>
      <trkpt lat="46.33546" lon="6.05931">
        <ele>634.20001220703</ele>
        <time>2019-10-05T13:16:08.000Z</time>
      </trkpt>
      <trkpt lat="46.3354" lon="6.05911">
        <ele>635.59997558594</ele>
        <time>2019-10-05T13:16:13.000Z</time>
      </trkpt>
      <trkpt lat="46.33538" lon="6.05903">
        <ele>636.20001220703</ele>
        <time>2019-10-05T13:16:15.000Z</time>
      </trkpt>
      <trkpt lat="46.33534" lon="6.05892">
        <ele>636.79998779297</ele>
        <time>2019-10-05T13:16:18.000Z</time>
      </trkpt>
      <trkpt lat="46.33532" lon="6.05884">
        <ele>637</ele>
        <time>2019-10-05T13:16:20.000Z</time>
      </trkpt>
      <trkpt lat="46.33521" lon="6.0585">
        <ele>637.79998779297</ele>
        <time>2019-10-05T13:16:28.000Z</time>
      </trkpt>
      <trkpt lat="46.33519" lon="6.05842">
        <ele>637.79998779297</ele>
        <time>2019-10-05T13:16:30.000Z</time>
      </trkpt>
      <trkpt lat="46.33518" lon="6.05819">
        <ele>638.40002441406</ele>
        <time>2019-10-05T13:16:35.000Z</time>
      </trkpt>
      <trkpt lat="46.33518" lon="6.05815">
        <ele>638.40002441406</ele>
        <time>2019-10-05T13:16:36.000Z</time>
      </trkpt>
      <trkpt lat="46.33524" lon="6.058">
        <ele>639.59997558594</ele>
        <time>2019-10-05T13:16:40.000Z</time>
      </trkpt>
      <trkpt lat="46.3354" lon="6.05772">
        <ele>641.59997558594</ele>
        <time>2019-10-05T13:16:48.000Z</time>
      </trkpt>
      <trkpt lat="46.33542" lon="6.05768">
        <ele>641.59997558594</ele>
        <time>2019-10-05T13:16:49.000Z</time>
      </trkpt>
      <trkpt lat="46.33556" lon="6.05744">
        <ele>642.59997558594</ele>
        <time>2019-10-05T13:16:56.000Z</time>
      </trkpt>
      <trkpt lat="46.33561" lon="6.05738">
        <ele>642.79998779297</ele>
        <time>2019-10-05T13:16:58.000Z</time>
      </trkpt>
      <trkpt lat="46.33569" lon="6.05731">
        <ele>643</ele>
        <time>2019-10-05T13:17:01.000Z</time>
      </trkpt>
      <trkpt lat="46.33575" lon="6.05726">
        <ele>643.20001220703</ele>
        <time>2019-10-05T13:17:03.000Z</time>
      </trkpt>
      <trkpt lat="46.33577" lon="6.05724">
        <ele>643.40002441406</ele>
        <time>2019-10-05T13:17:04.000Z</time>
      </trkpt>
      <trkpt lat="46.33596" lon="6.05716">
        <ele>644.20001220703</ele>
        <time>2019-10-05T13:17:10.000Z</time>
      </trkpt>
      <trkpt lat="46.33616" lon="6.05705">
        <ele>645</ele>
        <time>2019-10-05T13:17:17.000Z</time>
      </trkpt>
      <trkpt lat="46.33622" lon="6.05701">
        <ele>645.20001220703</ele>
        <time>2019-10-05T13:17:19.000Z</time>
      </trkpt>
      <trkpt lat="46.33631" lon="6.05696">
        <ele>645.59997558594</ele>
        <time>2019-10-05T13:17:22.000Z</time>
      </trkpt>
      <trkpt lat="46.33639" lon="6.0569">
        <ele>646</ele>
        <time>2019-10-05T13:17:25.000Z</time>
      </trkpt>
      <trkpt lat="46.33642" lon="6.05688">
        <ele>646.20001220703</ele>
        <time>2019-10-05T13:17:26.000Z</time>
      </trkpt>
      <trkpt lat="46.33667" lon="6.05673">
        <ele>647.40002441406</ele>
        <time>2019-10-05T13:17:34.000Z</time>
      </trkpt>
      <trkpt lat="46.33682" lon="6.05662">
        <ele>648.20001220703</ele>
        <time>2019-10-05T13:17:39.000Z</time>
      </trkpt>
      <trkpt lat="46.33692" lon="6.05656">
        <ele>648.59997558594</ele>
        <time>2019-10-05T13:17:42.000Z</time>
      </trkpt>
      <trkpt lat="46.33702" lon="6.05651">
        <ele>649</ele>
        <time>2019-10-05T13:17:45.000Z</time>
      </trkpt>
      <trkpt lat="46.33722" lon="6.0565">
        <ele>649.59997558594</ele>
        <time>2019-10-05T13:17:51.000Z</time>
      </trkpt>
      <trkpt lat="46.33739" lon="6.05657">
        <ele>650.40002441406</ele>
        <time>2019-10-05T13:17:56.000Z</time>
      </trkpt>
      <trkpt lat="46.33745" lon="6.05661">
        <ele>651</ele>
        <time>2019-10-05T13:17:58.000Z</time>
      </trkpt>
      <trkpt lat="46.3376" lon="6.05676">
        <ele>652</ele>
        <time>2019-10-05T13:18:03.000Z</time>
      </trkpt>
      <trkpt lat="46.33762" lon="6.05679">
        <ele>652.20001220703</ele>
        <time>2019-10-05T13:18:04.000Z</time>
      </trkpt>
      <trkpt lat="46.33771" lon="6.05689">
        <ele>652.59997558594</ele>
        <time>2019-10-05T13:18:07.000Z</time>
      </trkpt>
      <trkpt lat="46.33784" lon="6.05706">
        <ele>653.59997558594</ele>
        <time>2019-10-05T13:18:12.000Z</time>
      </trkpt>
      <trkpt lat="46.33798" lon="6.05724">
        <ele>654.20001220703</ele>
        <time>2019-10-05T13:18:17.000Z</time>
      </trkpt>
      <trkpt lat="46.33806" lon="6.05734">
        <ele>654.59997558594</ele>
        <time>2019-10-05T13:18:20.000Z</time>
      </trkpt>
      <trkpt lat="46.33819" lon="6.05752">
        <ele>654.79998779297</ele>
        <time>2019-10-05T13:18:25.000Z</time>
      </trkpt>
      <trkpt lat="46.3383" lon="6.05764">
        <ele>654.59997558594</ele>
        <time>2019-10-05T13:18:29.000Z</time>
      </trkpt>
      <trkpt lat="46.33833" lon="6.05767">
        <ele>654.59997558594</ele>
        <time>2019-10-05T13:18:30.000Z</time>
      </trkpt>
      <trkpt lat="46.33851" lon="6.05781">
        <ele>655</ele>
        <time>2019-10-05T13:18:36.000Z</time>
      </trkpt>
      <trkpt lat="46.33877" lon="6.05802">
        <ele>655.20001220703</ele>
        <time>2019-10-05T13:18:44.000Z</time>
      </trkpt>
      <trkpt lat="46.3388" lon="6.05804">
        <ele>655.40002441406</ele>
        <time>2019-10-05T13:18:45.000Z</time>
      </trkpt>
      <trkpt lat="46.33891" lon="6.05808">
        <ele>655.59997558594</ele>
        <time>2019-10-05T13:18:48.000Z</time>
      </trkpt>
      <trkpt lat="46.33905" lon="6.0581">
        <ele>655.40002441406</ele>
        <time>2019-10-05T13:18:52.000Z</time>
      </trkpt>
      <trkpt lat="46.33913" lon="6.05809">
        <ele>655.20001220703</ele>
        <time>2019-10-05T13:18:54.000Z</time>
      </trkpt>
      <trkpt lat="46.33926" lon="6.05803">
        <ele>655.20001220703</ele>
        <time>2019-10-05T13:18:58.000Z</time>
      </trkpt>
      <trkpt lat="46.3393" lon="6.05801">
        <ele>655.20001220703</ele>
        <time>2019-10-05T13:18:59.000Z</time>
      </trkpt>
      <trkpt lat="46.33953" lon="6.0578">
        <ele>657</ele>
        <time>2019-10-05T13:19:06.000Z</time>
      </trkpt>
      <trkpt lat="46.33977" lon="6.05755">
        <ele>659</ele>
        <time>2019-10-05T13:19:14.000Z</time>
      </trkpt>
      <trkpt lat="46.3398" lon="6.05752">
        <ele>659.40002441406</ele>
        <time>2019-10-05T13:19:15.000Z</time>
      </trkpt>
      <trkpt lat="46.34003" lon="6.05731">
        <ele>661.40002441406</ele>
        <time>2019-10-05T13:19:23.000Z</time>
      </trkpt>
      <trkpt lat="46.34023" lon="6.05714">
        <ele>662.79998779297</ele>
        <time>2019-10-05T13:19:31.000Z</time>
      </trkpt>
      <trkpt lat="46.34032" lon="6.05709">
        <ele>663.20001220703</ele>
        <time>2019-10-05T13:19:34.000Z</time>
      </trkpt>
      <trkpt lat="46.34048" lon="6.05697">
        <ele>664.59997558594</ele>
        <time>2019-10-05T13:19:40.000Z</time>
      </trkpt>
      <trkpt lat="46.34054" lon="6.05692">
        <ele>665.20001220703</ele>
        <time>2019-10-05T13:19:42.000Z</time>
      </trkpt>
      <trkpt lat="46.3406" lon="6.05688">
        <ele>666</ele>
        <time>2019-10-05T13:19:44.000Z</time>
      </trkpt>
      <trkpt lat="46.34073" lon="6.05683">
        <ele>667.20001220703</ele>
        <time>2019-10-05T13:19:48.000Z</time>
      </trkpt>
      <trkpt lat="46.3408" lon="6.05683">
        <ele>667.59997558594</ele>
        <time>2019-10-05T13:19:50.000Z</time>
      </trkpt>
      <trkpt lat="46.3409" lon="6.05683">
        <ele>668.20001220703</ele>
        <time>2019-10-05T13:19:53.000Z</time>
      </trkpt>
      <trkpt lat="46.34106" lon="6.05675">
        <ele>670.59997558594</ele>
        <time>2019-10-05T13:19:58.000Z</time>
      </trkpt>
      <trkpt lat="46.34117" lon="6.05673">
        <ele>671.79998779297</ele>
        <time>2019-10-05T13:20:01.000Z</time>
      </trkpt>
      <trkpt lat="46.34121" lon="6.05674">
        <ele>671.79998779297</ele>
        <time>2019-10-05T13:20:02.000Z</time>
      </trkpt>
      <trkpt lat="46.34128" lon="6.05676">
        <ele>672</ele>
        <time>2019-10-05T13:20:04.000Z</time>
      </trkpt>
      <trkpt lat="46.34135" lon="6.05678">
        <ele>672.20001220703</ele>
        <time>2019-10-05T13:20:06.000Z</time>
      </trkpt>
      <trkpt lat="46.34145" lon="6.05681">
        <ele>672.40002441406</ele>
        <time>2019-10-05T13:20:09.000Z</time>
      </trkpt>
      <trkpt lat="46.34154" lon="6.05686">
        <ele>672.59997558594</ele>
        <time>2019-10-05T13:20:12.000Z</time>
      </trkpt>
      <trkpt lat="46.34163" lon="6.05691">
        <ele>672.79998779297</ele>
        <time>2019-10-05T13:20:15.000Z</time>
      </trkpt>
      <trkpt lat="46.34172" lon="6.05696">
        <ele>673</ele>
        <time>2019-10-05T13:20:18.000Z</time>
      </trkpt>
      <trkpt lat="46.34178" lon="6.05699">
        <ele>673</ele>
        <time>2019-10-05T13:20:20.000Z</time>
      </trkpt>
      <trkpt lat="46.34189" lon="6.05706">
        <ele>673.40002441406</ele>
        <time>2019-10-05T13:20:24.000Z</time>
      </trkpt>
      <trkpt lat="46.34198" lon="6.05711">
        <ele>673.59997558594</ele>
        <time>2019-10-05T13:20:27.000Z</time>
      </trkpt>
      <trkpt lat="46.34204" lon="6.05715">
        <ele>673.59997558594</ele>
        <time>2019-10-05T13:20:29.000Z</time>
      </trkpt>
      <trkpt lat="46.34221" lon="6.05721">
        <ele>674.59997558594</ele>
        <time>2019-10-05T13:20:35.000Z</time>
      </trkpt>
      <trkpt lat="46.34228" lon="6.05722">
        <ele>675.20001220703</ele>
        <time>2019-10-05T13:20:37.000Z</time>
      </trkpt>
      <trkpt lat="46.34234" lon="6.05723">
        <ele>675.40002441406</ele>
        <time>2019-10-05T13:20:39.000Z</time>
      </trkpt>
      <trkpt lat="46.34255" lon="6.05718">
        <ele>676.59997558594</ele>
        <time>2019-10-05T13:20:46.000Z</time>
      </trkpt>
      <trkpt lat="46.34261" lon="6.05715">
        <ele>677.20001220703</ele>
        <time>2019-10-05T13:20:48.000Z</time>
      </trkpt>
      <trkpt lat="46.34273" lon="6.057">
        <ele>679</ele>
        <time>2019-10-05T13:20:53.000Z</time>
      </trkpt>
      <trkpt lat="46.34277" lon="6.05694">
        <ele>679.79998779297</ele>
        <time>2019-10-05T13:20:55.000Z</time>
      </trkpt>
      <trkpt lat="46.34287" lon="6.05672">
        <ele>681.79998779297</ele>
        <time>2019-10-05T13:21:01.000Z</time>
      </trkpt>
      <trkpt lat="46.34289" lon="6.05669">
        <ele>682.20001220703</ele>
        <time>2019-10-05T13:21:02.000Z</time>
      </trkpt>
      <trkpt lat="46.34299" lon="6.0564">
        <ele>685</ele>
        <time>2019-10-05T13:21:09.000Z</time>
      </trkpt>
      <trkpt lat="46.343" lon="6.05636">
        <ele>685.40002441406</ele>
        <time>2019-10-05T13:21:10.000Z</time>
      </trkpt>
      <trkpt lat="46.34305" lon="6.05625">
        <ele>686.59997558594</ele>
        <time>2019-10-05T13:21:13.000Z</time>
      </trkpt>
      <trkpt lat="46.34313" lon="6.05617">
        <ele>687.40002441406</ele>
        <time>2019-10-05T13:21:16.000Z</time>
      </trkpt>
      <trkpt lat="46.34322" lon="6.05611">
        <ele>688.40002441406</ele>
        <time>2019-10-05T13:21:19.000Z</time>
      </trkpt>
      <trkpt lat="46.34331" lon="6.05608">
        <ele>689.40002441406</ele>
        <time>2019-10-05T13:21:22.000Z</time>
      </trkpt>
      <trkpt lat="46.34346" lon="6.05606">
        <ele>690.40002441406</ele>
        <time>2019-10-05T13:21:27.000Z</time>
      </trkpt>
      <trkpt lat="46.34355" lon="6.05607">
        <ele>690.79998779297</ele>
        <time>2019-10-05T13:21:30.000Z</time>
      </trkpt>
      <trkpt lat="46.34361" lon="6.05609">
        <ele>691</ele>
        <time>2019-10-05T13:21:32.000Z</time>
      </trkpt>
      <trkpt lat="46.3437" lon="6.05612">
        <ele>691.20001220703</ele>
        <time>2019-10-05T13:21:35.000Z</time>
      </trkpt>
      <trkpt lat="46.34378" lon="6.05616">
        <ele>691.40002441406</ele>
        <time>2019-10-05T13:21:38.000Z</time>
      </trkpt>
      <trkpt lat="46.34392" lon="6.05621">
        <ele>691.79998779297</ele>
        <time>2019-10-05T13:21:43.000Z</time>
      </trkpt>
      <trkpt lat="46.34401" lon="6.05623">
        <ele>691.79998779297</ele>
        <time>2019-10-05T13:21:46.000Z</time>
      </trkpt>
      <trkpt lat="46.34411" lon="6.05623">
        <ele>691.20001220703</ele>
        <time>2019-10-05T13:21:49.000Z</time>
      </trkpt>
      <trkpt lat="46.34426" lon="6.05619">
        <ele>691</ele>
        <time>2019-10-05T13:21:54.000Z</time>
      </trkpt>
      <trkpt lat="46.34451" lon="6.05609">
        <ele>690.79998779297</ele>
        <time>2019-10-05T13:22:02.000Z</time>
      </trkpt>
      <trkpt lat="46.34457" lon="6.05607">
        <ele>691.20001220703</ele>
        <time>2019-10-05T13:22:04.000Z</time>
      </trkpt>
      <trkpt lat="46.34469" lon="6.05601">
        <ele>692</ele>
        <time>2019-10-05T13:22:08.000Z</time>
      </trkpt>
      <trkpt lat="46.3448" lon="6.05595">
        <ele>692.79998779297</ele>
        <time>2019-10-05T13:22:12.000Z</time>
      </trkpt>
      <trkpt lat="46.3449" lon="6.05586">
        <ele>694.40002441406</ele>
        <time>2019-10-05T13:22:16.000Z</time>
      </trkpt>
      <trkpt lat="46.34497" lon="6.05578">
        <ele>695.79998779297</ele>
        <time>2019-10-05T13:22:19.000Z</time>
      </trkpt>
      <trkpt lat="46.34502" lon="6.05572">
        <ele>696.40002441406</ele>
        <time>2019-10-05T13:22:21.000Z</time>
      </trkpt>
      <trkpt lat="46.34517" lon="6.05555">
        <ele>698.40002441406</ele>
        <time>2019-10-05T13:22:27.000Z</time>
      </trkpt>
      <trkpt lat="46.34525" lon="6.05547">
        <ele>699.20001220703</ele>
        <time>2019-10-05T13:22:30.000Z</time>
      </trkpt>
      <trkpt lat="46.34527" lon="6.05545">
        <ele>699.40002441406</ele>
        <time>2019-10-05T13:22:31.000Z</time>
      </trkpt>
      <trkpt lat="46.34544" lon="6.05536">
        <ele>700.40002441406</ele>
        <time>2019-10-05T13:22:37.000Z</time>
      </trkpt>
      <trkpt lat="46.34547" lon="6.05535">
        <ele>700.59997558594</ele>
        <time>2019-10-05T13:22:38.000Z</time>
      </trkpt>
      <trkpt lat="46.3456" lon="6.05531">
        <ele>701.79998779297</ele>
        <time>2019-10-05T13:22:42.000Z</time>
      </trkpt>
      <trkpt lat="46.34569" lon="6.05529">
        <ele>702.40002441406</ele>
        <time>2019-10-05T13:22:45.000Z</time>
      </trkpt>
      <trkpt lat="46.34574" lon="6.05528">
        <ele>702.79998779297</ele>
        <time>2019-10-05T13:22:47.000Z</time>
      </trkpt>
      <trkpt lat="46.34583" lon="6.05526">
        <ele>703.40002441406</ele>
        <time>2019-10-05T13:22:50.000Z</time>
      </trkpt>
      <trkpt lat="46.34597" lon="6.05523">
        <ele>704.40002441406</ele>
        <time>2019-10-05T13:22:55.000Z</time>
      </trkpt>
      <trkpt lat="46.34615" lon="6.0552">
        <ele>705.79998779297</ele>
        <time>2019-10-05T13:23:01.000Z</time>
      </trkpt>
      <trkpt lat="46.3463" lon="6.05516">
        <ele>707.40002441406</ele>
        <time>2019-10-05T13:23:06.000Z</time>
      </trkpt>
      <trkpt lat="46.34654" lon="6.05513">
        <ele>710</ele>
        <time>2019-10-05T13:23:14.000Z</time>
      </trkpt>
      <trkpt lat="46.34657" lon="6.05513">
        <ele>710.40002441406</ele>
        <time>2019-10-05T13:23:15.000Z</time>
      </trkpt>
      <trkpt lat="46.34668" lon="6.05518">
        <ele>711</ele>
        <time>2019-10-05T13:23:19.000Z</time>
      </trkpt>
      <trkpt lat="46.34674" lon="6.05521">
        <ele>711</ele>
        <time>2019-10-05T13:23:21.000Z</time>
      </trkpt>
      <trkpt lat="46.34681" lon="6.05526">
        <ele>711</ele>
        <time>2019-10-05T13:23:24.000Z</time>
      </trkpt>
      <trkpt lat="46.34697" lon="6.05535">
        <ele>711.40002441406</ele>
        <time>2019-10-05T13:23:30.000Z</time>
      </trkpt>
      <trkpt lat="46.347" lon="6.05537">
        <ele>711.40002441406</ele>
        <time>2019-10-05T13:23:31.000Z</time>
      </trkpt>
      <trkpt lat="46.34718" lon="6.05543">
        <ele>712.40002441406</ele>
        <time>2019-10-05T13:23:38.000Z</time>
      </trkpt>
      <trkpt lat="46.34732" lon="6.05546">
        <ele>713.20001220703</ele>
        <time>2019-10-05T13:23:43.000Z</time>
      </trkpt>
      <trkpt lat="46.3474" lon="6.05549">
        <ele>714.40002441406</ele>
        <time>2019-10-05T13:23:46.000Z</time>
      </trkpt>
      <trkpt lat="46.34757" lon="6.05558">
        <ele>716.59997558594</ele>
        <time>2019-10-05T13:23:53.000Z</time>
      </trkpt>
      <trkpt lat="46.34775" lon="6.05568">
        <ele>718.79998779297</ele>
        <time>2019-10-05T13:24:00.000Z</time>
      </trkpt>
      <trkpt lat="46.3479" lon="6.05576">
        <ele>720.79998779297</ele>
        <time>2019-10-05T13:24:06.000Z</time>
      </trkpt>
      <trkpt lat="46.34806" lon="6.05585">
        <ele>723</ele>
        <time>2019-10-05T13:24:12.000Z</time>
      </trkpt>
      <trkpt lat="46.34809" lon="6.05587">
        <ele>723.20001220703</ele>
        <time>2019-10-05T13:24:13.000Z</time>
      </trkpt>
      <trkpt lat="46.34816" lon="6.05593">
        <ele>723.79998779297</ele>
        <time>2019-10-05T13:24:16.000Z</time>
      </trkpt>
      <trkpt lat="46.34824" lon="6.05598">
        <ele>724</ele>
        <time>2019-10-05T13:24:19.000Z</time>
      </trkpt>
      <trkpt lat="46.34828" lon="6.05602">
        <ele>724.20001220703</ele>
        <time>2019-10-05T13:24:21.000Z</time>
      </trkpt>
      <trkpt lat="46.34833" lon="6.05606">
        <ele>724.40002441406</ele>
        <time>2019-10-05T13:24:23.000Z</time>
      </trkpt>
      <trkpt lat="46.34839" lon="6.05609">
        <ele>724.59997558594</ele>
        <time>2019-10-05T13:24:25.000Z</time>
      </trkpt>
      <trkpt lat="46.34847" lon="6.05612">
        <ele>725.40002441406</ele>
        <time>2019-10-05T13:24:28.000Z</time>
      </trkpt>
      <trkpt lat="46.34859" lon="6.05612">
        <ele>727</ele>
        <time>2019-10-05T13:24:32.000Z</time>
      </trkpt>
      <trkpt lat="46.3488" lon="6.05603">
        <ele>729.79998779297</ele>
        <time>2019-10-05T13:24:39.000Z</time>
      </trkpt>
      <trkpt lat="46.34893" lon="6.05596">
        <ele>731.59997558594</ele>
        <time>2019-10-05T13:24:44.000Z</time>
      </trkpt>
      <trkpt lat="46.34898" lon="6.05593">
        <ele>732.20001220703</ele>
        <time>2019-10-05T13:24:46.000Z</time>
      </trkpt>
      <trkpt lat="46.34916" lon="6.05579">
        <ele>736.20001220703</ele>
        <time>2019-10-05T13:24:53.000Z</time>
      </trkpt>
      <trkpt lat="46.34921" lon="6.05575">
        <ele>737.20001220703</ele>
        <time>2019-10-05T13:24:55.000Z</time>
      </trkpt>
      <trkpt lat="46.34927" lon="6.05571">
        <ele>738.40002441406</ele>
        <time>2019-10-05T13:24:58.000Z</time>
      </trkpt>
      <trkpt lat="46.34929" lon="6.05569">
        <ele>738.79998779297</ele>
        <time>2019-10-05T13:24:59.000Z</time>
      </trkpt>
      <trkpt lat="46.34932" lon="6.05568">
        <ele>739.20001220703</ele>
        <time>2019-10-05T13:25:00.000Z</time>
      </trkpt>
      <trkpt lat="46.34936" lon="6.05566">
        <ele>740</ele>
        <time>2019-10-05T13:25:02.000Z</time>
      </trkpt>
      <trkpt lat="46.34941" lon="6.05565">
        <ele>740.79998779297</ele>
        <time>2019-10-05T13:25:04.000Z</time>
      </trkpt>
      <trkpt lat="46.34951" lon="6.05567">
        <ele>742.20001220703</ele>
        <time>2019-10-05T13:25:09.000Z</time>
      </trkpt>
      <trkpt lat="46.34964" lon="6.05576">
        <ele>743.40002441406</ele>
        <time>2019-10-05T13:25:15.000Z</time>
      </trkpt>
      <trkpt lat="46.34975" lon="6.05593">
        <ele>743.79998779297</ele>
        <time>2019-10-05T13:25:21.000Z</time>
      </trkpt>
      <trkpt lat="46.34977" lon="6.05604">
        <ele>743.20001220703</ele>
        <time>2019-10-05T13:25:24.000Z</time>
      </trkpt>
      <trkpt lat="46.34976" lon="6.05607">
        <ele>743</ele>
        <time>2019-10-05T13:25:25.000Z</time>
      </trkpt>
      <trkpt lat="46.34976" lon="6.05611">
        <ele>742.59997558594</ele>
        <time>2019-10-05T13:25:26.000Z</time>
      </trkpt>
      <trkpt lat="46.34974" lon="6.05618">
        <ele>741.79998779297</ele>
        <time>2019-10-05T13:25:28.000Z</time>
      </trkpt>
      <trkpt lat="46.34972" lon="6.05625">
        <ele>741</ele>
        <time>2019-10-05T13:25:30.000Z</time>
      </trkpt>
      <trkpt lat="46.34969" lon="6.05632">
        <ele>740</ele>
        <time>2019-10-05T13:25:32.000Z</time>
      </trkpt>
      <trkpt lat="46.34968" lon="6.05636">
        <ele>739.59997558594</ele>
        <time>2019-10-05T13:25:33.000Z</time>
      </trkpt>
      <trkpt lat="46.34966" lon="6.05644">
        <ele>738.59997558594</ele>
        <time>2019-10-05T13:25:35.000Z</time>
      </trkpt>
      <trkpt lat="46.34963" lon="6.05655">
        <ele>737.20001220703</ele>
        <time>2019-10-05T13:25:38.000Z</time>
      </trkpt>
      <trkpt lat="46.34962" lon="6.05663">
        <ele>736.40002441406</ele>
        <time>2019-10-05T13:25:40.000Z</time>
      </trkpt>
      <trkpt lat="46.34963" lon="6.05666">
        <ele>736.20001220703</ele>
        <time>2019-10-05T13:25:41.000Z</time>
      </trkpt>
      <trkpt lat="46.34963" lon="6.0567">
        <ele>736</ele>
        <time>2019-10-05T13:25:42.000Z</time>
      </trkpt>
      <trkpt lat="46.34966" lon="6.05678">
        <ele>735.59997558594</ele>
        <time>2019-10-05T13:25:44.000Z</time>
      </trkpt>
      <trkpt lat="46.3497" lon="6.05685">
        <ele>735.79998779297</ele>
        <time>2019-10-05T13:25:46.000Z</time>
      </trkpt>
      <trkpt lat="46.34973" lon="6.05688">
        <ele>736</ele>
        <time>2019-10-05T13:25:47.000Z</time>
      </trkpt>
      <trkpt lat="46.34979" lon="6.05692">
        <ele>736.59997558594</ele>
        <time>2019-10-05T13:25:49.000Z</time>
      </trkpt>
      <trkpt lat="46.34986" lon="6.05694">
        <ele>737.59997558594</ele>
        <time>2019-10-05T13:25:51.000Z</time>
      </trkpt>
      <trkpt lat="46.34992" lon="6.05695">
        <ele>738.79998779297</ele>
        <time>2019-10-05T13:25:53.000Z</time>
      </trkpt>
      <trkpt lat="46.34999" lon="6.05696">
        <ele>740.20001220703</ele>
        <time>2019-10-05T13:25:55.000Z</time>
      </trkpt>
      <trkpt lat="46.35008" lon="6.05696">
        <ele>742</ele>
        <time>2019-10-05T13:25:58.000Z</time>
      </trkpt>
      <trkpt lat="46.35011" lon="6.05696">
        <ele>742.79998779297</ele>
        <time>2019-10-05T13:25:59.000Z</time>
      </trkpt>
      <trkpt lat="46.35021" lon="6.05697">
        <ele>744.59997558594</ele>
        <time>2019-10-05T13:26:02.000Z</time>
      </trkpt>
      <trkpt lat="46.35027" lon="6.05697">
        <ele>745.79998779297</ele>
        <time>2019-10-05T13:26:04.000Z</time>
      </trkpt>
      <trkpt lat="46.3503" lon="6.05697">
        <ele>746.40002441406</ele>
        <time>2019-10-05T13:26:05.000Z</time>
      </trkpt>
      <trkpt lat="46.35039" lon="6.05699">
        <ele>748.20001220703</ele>
        <time>2019-10-05T13:26:08.000Z</time>
      </trkpt>
      <trkpt lat="46.35053" lon="6.05707">
        <ele>750.40002441406</ele>
        <time>2019-10-05T13:26:13.000Z</time>
      </trkpt>
      <trkpt lat="46.35056" lon="6.05709">
        <ele>750.59997558594</ele>
        <time>2019-10-05T13:26:14.000Z</time>
      </trkpt>
      <trkpt lat="46.35066" lon="6.05719">
        <ele>751.79998779297</ele>
        <time>2019-10-05T13:26:18.000Z</time>
      </trkpt>
      <trkpt lat="46.35068" lon="6.05723">
        <ele>751.79998779297</ele>
        <time>2019-10-05T13:26:19.000Z</time>
      </trkpt>
      <trkpt lat="46.35073" lon="6.05732">
        <ele>750.79998779297</ele>
        <time>2019-10-05T13:26:22.000Z</time>
      </trkpt>
      <trkpt lat="46.35076" lon="6.0574">
        <ele>749.79998779297</ele>
        <time>2019-10-05T13:26:24.000Z</time>
      </trkpt>
      <trkpt lat="46.35077" lon="6.05743">
        <ele>749.40002441406</ele>
        <time>2019-10-05T13:26:25.000Z</time>
      </trkpt>
      <trkpt lat="46.35082" lon="6.05753">
        <ele>748.40002441406</ele>
        <time>2019-10-05T13:26:28.000Z</time>
      </trkpt>
      <trkpt lat="46.35087" lon="6.05763">
        <ele>747.40002441406</ele>
        <time>2019-10-05T13:26:31.000Z</time>
      </trkpt>
      <trkpt lat="46.35092" lon="6.05772">
        <ele>746.59997558594</ele>
        <time>2019-10-05T13:26:34.000Z</time>
      </trkpt>
      <trkpt lat="46.351" lon="6.05784">
        <ele>745.40002441406</ele>
        <time>2019-10-05T13:26:38.000Z</time>
      </trkpt>
      <trkpt lat="46.35114" lon="6.05797">
        <ele>744.20001220703</ele>
        <time>2019-10-05T13:26:44.000Z</time>
      </trkpt>
      <trkpt lat="46.35116" lon="6.05799">
        <ele>744</ele>
        <time>2019-10-05T13:26:45.000Z</time>
      </trkpt>
      <trkpt lat="46.35127" lon="6.05801">
        <ele>743.79998779297</ele>
        <time>2019-10-05T13:26:49.000Z</time>
      </trkpt>
      <trkpt lat="46.35133" lon="6.05799">
        <ele>744</ele>
        <time>2019-10-05T13:26:51.000Z</time>
      </trkpt>
      <trkpt lat="46.35145" lon="6.05784">
        <ele>749.40002441406</ele>
        <time>2019-10-05T13:26:57.000Z</time>
      </trkpt>
      <trkpt lat="46.35146" lon="6.05767">
        <ele>754.40002441406</ele>
        <time>2019-10-05T13:27:01.000Z</time>
      </trkpt>
      <trkpt lat="46.35145" lon="6.05758">
        <ele>756.59997558594</ele>
        <time>2019-10-05T13:27:03.000Z</time>
      </trkpt>
      <trkpt lat="46.35141" lon="6.05746">
        <ele>759.20001220703</ele>
        <time>2019-10-05T13:27:06.000Z</time>
      </trkpt>
      <trkpt lat="46.35139" lon="6.05742">
        <ele>760</ele>
        <time>2019-10-05T13:27:07.000Z</time>
      </trkpt>
      <trkpt lat="46.35137" lon="6.05734">
        <ele>761.79998779297</ele>
        <time>2019-10-05T13:27:09.000Z</time>
      </trkpt>
      <trkpt lat="46.35133" lon="6.05722">
        <ele>763.59997558594</ele>
        <time>2019-10-05T13:27:12.000Z</time>
      </trkpt>
      <trkpt lat="46.35127" lon="6.05705">
        <ele>763.79998779297</ele>
        <time>2019-10-05T13:27:16.000Z</time>
      </trkpt>
      <trkpt lat="46.35123" lon="6.05695">
        <ele>763.79998779297</ele>
        <time>2019-10-05T13:27:19.000Z</time>
      </trkpt>
      <trkpt lat="46.35116" lon="6.05681">
        <ele>763.59997558594</ele>
        <time>2019-10-05T13:27:23.000Z</time>
      </trkpt>
      <trkpt lat="46.35114" lon="6.05678">
        <ele>763.59997558594</ele>
        <time>2019-10-05T13:27:24.000Z</time>
      </trkpt>
      <trkpt lat="46.35112" lon="6.05675">
        <ele>763.59997558594</ele>
        <time>2019-10-05T13:27:25.000Z</time>
      </trkpt>
      <trkpt lat="46.35103" lon="6.05658">
        <ele>763.20001220703</ele>
        <time>2019-10-05T13:27:30.000Z</time>
      </trkpt>
      <trkpt lat="46.35097" lon="6.05646">
        <ele>763</ele>
        <time>2019-10-05T13:27:33.000Z</time>
      </trkpt>
      <trkpt lat="46.3509" lon="6.05626">
        <ele>763.20001220703</ele>
        <time>2019-10-05T13:27:38.000Z</time>
      </trkpt>
      <trkpt lat="46.35086" lon="6.05609">
        <ele>764</ele>
        <time>2019-10-05T13:27:42.000Z</time>
      </trkpt>
      <trkpt lat="46.35084" lon="6.05601">
        <ele>764.20001220703</ele>
        <time>2019-10-05T13:27:44.000Z</time>
      </trkpt>
      <trkpt lat="46.35082" lon="6.05572">
        <ele>766.59997558594</ele>
        <time>2019-10-05T13:27:51.000Z</time>
      </trkpt>
      <trkpt lat="46.35083" lon="6.05561">
        <ele>768.20001220703</ele>
        <time>2019-10-05T13:27:54.000Z</time>
      </trkpt>
      <trkpt lat="46.35085" lon="6.05537">
        <ele>770.40002441406</ele>
        <time>2019-10-05T13:28:00.000Z</time>
      </trkpt>
      <trkpt lat="46.35088" lon="6.05508">
        <ele>773.40002441406</ele>
        <time>2019-10-05T13:28:08.000Z</time>
      </trkpt>
      <trkpt lat="46.35089" lon="6.0548">
        <ele>776.40002441406</ele>
        <time>2019-10-05T13:28:15.000Z</time>
      </trkpt>
      <trkpt lat="46.35086" lon="6.05464">
        <ele>777</ele>
        <time>2019-10-05T13:28:19.000Z</time>
      </trkpt>
      <trkpt lat="46.35083" lon="6.05453">
        <ele>776.79998779297</ele>
        <time>2019-10-05T13:28:22.000Z</time>
      </trkpt>
      <trkpt lat="46.35078" lon="6.05437">
        <ele>776.40002441406</ele>
        <time>2019-10-05T13:28:26.000Z</time>
      </trkpt>
      <trkpt lat="46.35074" lon="6.05426">
        <ele>776.20001220703</ele>
        <time>2019-10-05T13:28:29.000Z</time>
      </trkpt>
      <trkpt lat="46.35072" lon="6.05422">
        <ele>776</ele>
        <time>2019-10-05T13:28:30.000Z</time>
      </trkpt>
      <trkpt lat="46.35064" lon="6.054">
        <ele>775.40002441406</ele>
        <time>2019-10-05T13:28:36.000Z</time>
      </trkpt>
      <trkpt lat="46.35063" lon="6.05396">
        <ele>775.59997558594</ele>
        <time>2019-10-05T13:28:37.000Z</time>
      </trkpt>
      <trkpt lat="46.35058" lon="6.05382">
        <ele>776.20001220703</ele>
        <time>2019-10-05T13:28:41.000Z</time>
      </trkpt>
      <trkpt lat="46.35054" lon="6.05371">
        <ele>776.79998779297</ele>
        <time>2019-10-05T13:28:44.000Z</time>
      </trkpt>
      <trkpt lat="46.35051" lon="6.05364">
        <ele>777</ele>
        <time>2019-10-05T13:28:46.000Z</time>
      </trkpt>
      <trkpt lat="46.35044" lon="6.05351">
        <ele>777.20001220703</ele>
        <time>2019-10-05T13:28:50.000Z</time>
      </trkpt>
      <trkpt lat="46.3504" lon="6.05345">
        <ele>777.40002441406</ele>
        <time>2019-10-05T13:28:52.000Z</time>
      </trkpt>
      <trkpt lat="46.35038" lon="6.05342">
        <ele>777.40002441406</ele>
        <time>2019-10-05T13:28:53.000Z</time>
      </trkpt>
      <trkpt lat="46.3503" lon="6.05331">
        <ele>777.59997558594</ele>
        <time>2019-10-05T13:28:57.000Z</time>
      </trkpt>
      <trkpt lat="46.35026" lon="6.05326">
        <ele>777.59997558594</ele>
        <time>2019-10-05T13:28:59.000Z</time>
      </trkpt>
      <trkpt lat="46.3502" lon="6.05317">
        <ele>777.79998779297</ele>
        <time>2019-10-05T13:29:02.000Z</time>
      </trkpt>
      <trkpt lat="46.35017" lon="6.05311">
        <ele>778</ele>
        <time>2019-10-05T13:29:04.000Z</time>
      </trkpt>
      <trkpt lat="46.35013" lon="6.05304">
        <ele>778.20001220703</ele>
        <time>2019-10-05T13:29:06.000Z</time>
      </trkpt>
      <trkpt lat="46.35011" lon="6.05301">
        <ele>778.40002441406</ele>
        <time>2019-10-05T13:29:07.000Z</time>
      </trkpt>
      <trkpt lat="46.35002" lon="6.05279">
        <ele>779.59997558594</ele>
        <time>2019-10-05T13:29:13.000Z</time>
      </trkpt>
      <trkpt lat="46.35" lon="6.05272">
        <ele>780.20001220703</ele>
        <time>2019-10-05T13:29:15.000Z</time>
      </trkpt>
      <trkpt lat="46.34992" lon="6.05249">
        <ele>781.79998779297</ele>
        <time>2019-10-05T13:29:21.000Z</time>
      </trkpt>
      <trkpt lat="46.34987" lon="6.05229">
        <ele>783.20001220703</ele>
        <time>2019-10-05T13:29:26.000Z</time>
      </trkpt>
      <trkpt lat="46.34984" lon="6.05217">
        <ele>783.59997558594</ele>
        <time>2019-10-05T13:29:29.000Z</time>
      </trkpt>
      <trkpt lat="46.34974" lon="6.05191">
        <ele>783.79998779297</ele>
        <time>2019-10-05T13:29:36.000Z</time>
      </trkpt>
      <trkpt lat="46.34965" lon="6.05175">
        <ele>783.79998779297</ele>
        <time>2019-10-05T13:29:41.000Z</time>
      </trkpt>
      <trkpt lat="46.3496" lon="6.05165">
        <ele>783.59997558594</ele>
        <time>2019-10-05T13:29:44.000Z</time>
      </trkpt>
      <trkpt lat="46.34958" lon="6.05162">
        <ele>783.59997558594</ele>
        <time>2019-10-05T13:29:45.000Z</time>
      </trkpt>
      <trkpt lat="46.3495" lon="6.0515">
        <ele>783.59997558594</ele>
        <time>2019-10-05T13:29:49.000Z</time>
      </trkpt>
      <trkpt lat="46.3494" lon="6.05134">
        <ele>783.59997558594</ele>
        <time>2019-10-05T13:29:54.000Z</time>
      </trkpt>
      <trkpt lat="46.3493" lon="6.05118">
        <ele>783.79998779297</ele>
        <time>2019-10-05T13:29:59.000Z</time>
      </trkpt>
      <trkpt lat="46.34924" lon="6.05109">
        <ele>783.79998779297</ele>
        <time>2019-10-05T13:30:02.000Z</time>
      </trkpt>
      <trkpt lat="46.34922" lon="6.05106">
        <ele>784</ele>
        <time>2019-10-05T13:30:03.000Z</time>
      </trkpt>
      <trkpt lat="46.34909" lon="6.05088">
        <ele>784</ele>
        <time>2019-10-05T13:30:09.000Z</time>
      </trkpt>
      <trkpt lat="46.34899" lon="6.05073">
        <ele>784.20001220703</ele>
        <time>2019-10-05T13:30:14.000Z</time>
      </trkpt>
      <trkpt lat="46.34891" lon="6.05061">
        <ele>784.20001220703</ele>
        <time>2019-10-05T13:30:18.000Z</time>
      </trkpt>
      <trkpt lat="46.34885" lon="6.05053">
        <ele>784.59997558594</ele>
        <time>2019-10-05T13:30:21.000Z</time>
      </trkpt>
      <trkpt lat="46.34876" lon="6.05039">
        <ele>785.40002441406</ele>
        <time>2019-10-05T13:30:26.000Z</time>
      </trkpt>
      <trkpt lat="46.34874" lon="6.05037">
        <ele>785.59997558594</ele>
        <time>2019-10-05T13:30:27.000Z</time>
      </trkpt>
      <trkpt lat="46.34863" lon="6.05019">
        <ele>787</ele>
        <time>2019-10-05T13:30:33.000Z</time>
      </trkpt>
      <trkpt lat="46.34861" lon="6.05015">
        <ele>787.59997558594</ele>
        <time>2019-10-05T13:30:34.000Z</time>
      </trkpt>
      <trkpt lat="46.34862" lon="6.04994">
        <ele>790.79998779297</ele>
        <time>2019-10-05T13:30:39.000Z</time>
      </trkpt>
      <trkpt lat="46.34864" lon="6.04991">
        <ele>791.59997558594</ele>
        <time>2019-10-05T13:30:40.000Z</time>
      </trkpt>
      <trkpt lat="46.34872" lon="6.04987">
        <ele>793.20001220703</ele>
        <time>2019-10-05T13:30:43.000Z</time>
      </trkpt>
      <trkpt lat="46.34886" lon="6.04992">
        <ele>794.20001220703</ele>
        <time>2019-10-05T13:30:48.000Z</time>
      </trkpt>
      <trkpt lat="46.34895" lon="6.04998">
        <ele>794.20001220703</ele>
        <time>2019-10-05T13:30:51.000Z</time>
      </trkpt>
      <trkpt lat="46.34908" lon="6.05007">
        <ele>794.40002441406</ele>
        <time>2019-10-05T13:30:56.000Z</time>
      </trkpt>
      <trkpt lat="46.34911" lon="6.05008">
        <ele>794.40002441406</ele>
        <time>2019-10-05T13:30:57.000Z</time>
      </trkpt>
      <trkpt lat="46.34928" lon="6.05017">
        <ele>794.79998779297</ele>
        <time>2019-10-05T13:31:03.000Z</time>
      </trkpt>
      <trkpt lat="46.34937" lon="6.05021">
        <ele>795.20001220703</ele>
        <time>2019-10-05T13:31:06.000Z</time>
      </trkpt>
      <trkpt lat="46.34948" lon="6.05025">
        <ele>795.79998779297</ele>
        <time>2019-10-05T13:31:10.000Z</time>
      </trkpt>
      <trkpt lat="46.34952" lon="6.05026">
        <ele>796.20001220703</ele>
        <time>2019-10-05T13:31:11.000Z</time>
      </trkpt>
      <trkpt lat="46.34969" lon="6.05029">
        <ele>797.59997558594</ele>
        <time>2019-10-05T13:31:17.000Z</time>
      </trkpt>
      <trkpt lat="46.34977" lon="6.0503">
        <ele>798.40002441406</ele>
        <time>2019-10-05T13:31:20.000Z</time>
      </trkpt>
      <trkpt lat="46.3498" lon="6.0503">
        <ele>798.79998779297</ele>
        <time>2019-10-05T13:31:21.000Z</time>
      </trkpt>
      <trkpt lat="46.35001" lon="6.05034">
        <ele>800.40002441406</ele>
        <time>2019-10-05T13:31:29.000Z</time>
      </trkpt>
      <trkpt lat="46.35004" lon="6.05035">
        <ele>800.59997558594</ele>
        <time>2019-10-05T13:31:30.000Z</time>
      </trkpt>
      <trkpt lat="46.35013" lon="6.05037">
        <ele>801</ele>
        <time>2019-10-05T13:31:34.000Z</time>
      </trkpt>
      <trkpt lat="46.35034" lon="6.05041">
        <ele>802.79998779297</ele>
        <time>2019-10-05T13:31:42.000Z</time>
      </trkpt>
      <trkpt lat="46.3505" lon="6.05044">
        <ele>804.20001220703</ele>
        <time>2019-10-05T13:31:48.000Z</time>
      </trkpt>
      <trkpt lat="46.35053" lon="6.05044">
        <ele>804.59997558594</ele>
        <time>2019-10-05T13:31:49.000Z</time>
      </trkpt>
      <trkpt lat="46.35067" lon="6.05046">
        <ele>806.40002441406</ele>
        <time>2019-10-05T13:31:54.000Z</time>
      </trkpt>
      <trkpt lat="46.35074" lon="6.05047">
        <ele>807.40002441406</ele>
        <time>2019-10-05T13:31:57.000Z</time>
      </trkpt>
      <trkpt lat="46.35093" lon="6.0505">
        <ele>809.59997558594</ele>
        <time>2019-10-05T13:32:04.000Z</time>
      </trkpt>
      <trkpt lat="46.35112" lon="6.05056">
        <ele>811.79998779297</ele>
        <time>2019-10-05T13:32:11.000Z</time>
      </trkpt>
      <trkpt lat="46.35127" lon="6.05063">
        <ele>813</ele>
        <time>2019-10-05T13:32:16.000Z</time>
      </trkpt>
      <trkpt lat="46.35132" lon="6.05067">
        <ele>813.59997558594</ele>
        <time>2019-10-05T13:32:18.000Z</time>
      </trkpt>
      <trkpt lat="46.35137" lon="6.05071">
        <ele>814</ele>
        <time>2019-10-05T13:32:20.000Z</time>
      </trkpt>
      <trkpt lat="46.35144" lon="6.05078">
        <ele>814.40002441406</ele>
        <time>2019-10-05T13:32:23.000Z</time>
      </trkpt>
      <trkpt lat="46.35149" lon="6.05082">
        <ele>814.79998779297</ele>
        <time>2019-10-05T13:32:25.000Z</time>
      </trkpt>
      <trkpt lat="46.35151" lon="6.05084">
        <ele>815.20001220703</ele>
        <time>2019-10-05T13:32:26.000Z</time>
      </trkpt>
      <trkpt lat="46.3516" lon="6.05094">
        <ele>816.59997558594</ele>
        <time>2019-10-05T13:32:30.000Z</time>
      </trkpt>
      <trkpt lat="46.35167" lon="6.051">
        <ele>817.79998779297</ele>
        <time>2019-10-05T13:32:33.000Z</time>
      </trkpt>
      <trkpt lat="46.35175" lon="6.05109">
        <ele>819.20001220703</ele>
        <time>2019-10-05T13:32:37.000Z</time>
      </trkpt>
      <trkpt lat="46.35182" lon="6.05117">
        <ele>820.20001220703</ele>
        <time>2019-10-05T13:32:40.000Z</time>
      </trkpt>
      <trkpt lat="46.35191" lon="6.05128">
        <ele>821.59997558594</ele>
        <time>2019-10-05T13:32:44.000Z</time>
      </trkpt>
      <trkpt lat="46.35199" lon="6.05139">
        <ele>822.40002441406</ele>
        <time>2019-10-05T13:32:48.000Z</time>
      </trkpt>
      <trkpt lat="46.352" lon="6.05141">
        <ele>822.59997558594</ele>
        <time>2019-10-05T13:32:49.000Z</time>
      </trkpt>
      <trkpt lat="46.35212" lon="6.05157">
        <ele>823.79998779297</ele>
        <time>2019-10-05T13:32:55.000Z</time>
      </trkpt>
      <trkpt lat="46.35216" lon="6.05162">
        <ele>824.20001220703</ele>
        <time>2019-10-05T13:32:57.000Z</time>
      </trkpt>
      <trkpt lat="46.35221" lon="6.0517">
        <ele>824.59997558594</ele>
        <time>2019-10-05T13:33:00.000Z</time>
      </trkpt>
      <trkpt lat="46.35234" lon="6.05187">
        <ele>825.59997558594</ele>
        <time>2019-10-05T13:33:06.000Z</time>
      </trkpt>
      <trkpt lat="46.35236" lon="6.05189">
        <ele>825.79998779297</ele>
        <time>2019-10-05T13:33:07.000Z</time>
      </trkpt>
      <trkpt lat="46.35246" lon="6.05202">
        <ele>825.79998779297</ele>
        <time>2019-10-05T13:33:12.000Z</time>
      </trkpt>
      <trkpt lat="46.3525" lon="6.05206">
        <ele>826</ele>
        <time>2019-10-05T13:33:14.000Z</time>
      </trkpt>
      <trkpt lat="46.35256" lon="6.05214">
        <ele>826.20001220703</ele>
        <time>2019-10-05T13:33:17.000Z</time>
      </trkpt>
      <trkpt lat="46.35265" lon="6.05222">
        <ele>826.59997558594</ele>
        <time>2019-10-05T13:33:21.000Z</time>
      </trkpt>
      <trkpt lat="46.35268" lon="6.05224">
        <ele>826.79998779297</ele>
        <time>2019-10-05T13:33:22.000Z</time>
      </trkpt>
      <trkpt lat="46.35274" lon="6.0523">
        <ele>827.79998779297</ele>
        <time>2019-10-05T13:33:25.000Z</time>
      </trkpt>
      <trkpt lat="46.35285" lon="6.05242">
        <ele>829.79998779297</ele>
        <time>2019-10-05T13:33:30.000Z</time>
      </trkpt>
      <trkpt lat="46.35288" lon="6.05244">
        <ele>830.20001220703</ele>
        <time>2019-10-05T13:33:31.000Z</time>
      </trkpt>
      <trkpt lat="46.35295" lon="6.05251">
        <ele>831.59997558594</ele>
        <time>2019-10-05T13:33:34.000Z</time>
      </trkpt>
      <trkpt lat="46.35306" lon="6.05264">
        <ele>833.59997558594</ele>
        <time>2019-10-05T13:33:39.000Z</time>
      </trkpt>
      <trkpt lat="46.35318" lon="6.05281">
        <ele>835.59997558594</ele>
        <time>2019-10-05T13:33:45.000Z</time>
      </trkpt>
      <trkpt lat="46.3532" lon="6.05283">
        <ele>835.79998779297</ele>
        <time>2019-10-05T13:33:46.000Z</time>
      </trkpt>
      <trkpt lat="46.35325" lon="6.05293">
        <ele>836.59997558594</ele>
        <time>2019-10-05T13:33:49.000Z</time>
      </trkpt>
      <trkpt lat="46.35331" lon="6.05307">
        <ele>837.59997558594</ele>
        <time>2019-10-05T13:33:53.000Z</time>
      </trkpt>
      <trkpt lat="46.35335" lon="6.05322">
        <ele>837.20001220703</ele>
        <time>2019-10-05T13:33:57.000Z</time>
      </trkpt>
      <trkpt lat="46.35337" lon="6.0533">
        <ele>836.79998779297</ele>
        <time>2019-10-05T13:33:59.000Z</time>
      </trkpt>
      <trkpt lat="46.3534" lon="6.05342">
        <ele>836.79998779297</ele>
        <time>2019-10-05T13:34:02.000Z</time>
      </trkpt>
      <trkpt lat="46.35345" lon="6.05358">
        <ele>837</ele>
        <time>2019-10-05T13:34:06.000Z</time>
      </trkpt>
      <trkpt lat="46.35347" lon="6.05365">
        <ele>837</ele>
        <time>2019-10-05T13:34:08.000Z</time>
      </trkpt>
      <trkpt lat="46.35354" lon="6.05387">
        <ele>837.40002441406</ele>
        <time>2019-10-05T13:34:14.000Z</time>
      </trkpt>
      <trkpt lat="46.35355" lon="6.05391">
        <ele>837.40002441406</ele>
        <time>2019-10-05T13:34:15.000Z</time>
      </trkpt>
      <trkpt lat="46.35363" lon="6.05407">
        <ele>837</ele>
        <time>2019-10-05T13:34:20.000Z</time>
      </trkpt>
      <trkpt lat="46.35376" lon="6.05421">
        <ele>837.20001220703</ele>
        <time>2019-10-05T13:34:26.000Z</time>
      </trkpt>
      <trkpt lat="46.35379" lon="6.05423">
        <ele>837.20001220703</ele>
        <time>2019-10-05T13:34:27.000Z</time>
      </trkpt>
      <trkpt lat="46.35392" lon="6.05428">
        <ele>838</ele>
        <time>2019-10-05T13:34:32.000Z</time>
      </trkpt>
      <trkpt lat="46.35408" lon="6.05426">
        <ele>837.40002441406</ele>
        <time>2019-10-05T13:34:38.000Z</time>
      </trkpt>
      <trkpt lat="46.35411" lon="6.05425">
        <ele>837.20001220703</ele>
        <time>2019-10-05T13:34:39.000Z</time>
      </trkpt>
      <trkpt lat="46.35417" lon="6.05423">
        <ele>836.79998779297</ele>
        <time>2019-10-05T13:34:41.000Z</time>
      </trkpt>
      <trkpt lat="46.35427" lon="6.05416">
        <ele>836.40002441406</ele>
        <time>2019-10-05T13:34:45.000Z</time>
      </trkpt>
      <trkpt lat="46.3543" lon="6.05414">
        <ele>836.59997558594</ele>
        <time>2019-10-05T13:34:46.000Z</time>
      </trkpt>
      <trkpt lat="46.35447" lon="6.05399">
        <ele>837.79998779297</ele>
        <time>2019-10-05T13:34:53.000Z</time>
      </trkpt>
      <trkpt lat="46.35458" lon="6.05388">
        <ele>838.59997558594</ele>
        <time>2019-10-05T13:34:58.000Z</time>
      </trkpt>
      <trkpt lat="46.35465" lon="6.05382">
        <ele>838.59997558594</ele>
        <time>2019-10-05T13:35:01.000Z</time>
      </trkpt>
      <trkpt lat="46.35481" lon="6.05373">
        <ele>841.40002441406</ele>
        <time>2019-10-05T13:35:07.000Z</time>
      </trkpt>
      <trkpt lat="46.35486" lon="6.0537">
        <ele>842.59997558594</ele>
        <time>2019-10-05T13:35:09.000Z</time>
      </trkpt>
      <trkpt lat="46.35502" lon="6.05365">
        <ele>845.59997558594</ele>
        <time>2019-10-05T13:35:15.000Z</time>
      </trkpt>
      <trkpt lat="46.35508" lon="6.05364">
        <ele>846.40002441406</ele>
        <time>2019-10-05T13:35:17.000Z</time>
      </trkpt>
      <trkpt lat="46.35526" lon="6.05363">
        <ele>848.59997558594</ele>
        <time>2019-10-05T13:35:24.000Z</time>
      </trkpt>
      <trkpt lat="46.35528" lon="6.05364">
        <ele>848.79998779297</ele>
        <time>2019-10-05T13:35:25.000Z</time>
      </trkpt>
      <trkpt lat="46.35539" lon="6.05365">
        <ele>849.59997558594</ele>
        <time>2019-10-05T13:35:29.000Z</time>
      </trkpt>
      <trkpt lat="46.35547" lon="6.05367">
        <ele>850.79998779297</ele>
        <time>2019-10-05T13:35:32.000Z</time>
      </trkpt>
      <trkpt lat="46.3555" lon="6.05367">
        <ele>851.20001220703</ele>
        <time>2019-10-05T13:35:33.000Z</time>
      </trkpt>
      <trkpt lat="46.3556" lon="6.05371">
        <ele>852.20001220703</ele>
        <time>2019-10-05T13:35:37.000Z</time>
      </trkpt>
      <trkpt lat="46.35571" lon="6.05375">
        <ele>854</ele>
        <time>2019-10-05T13:35:41.000Z</time>
      </trkpt>
      <trkpt lat="46.35574" lon="6.05376">
        <ele>854.59997558594</ele>
        <time>2019-10-05T13:35:42.000Z</time>
      </trkpt>
      <trkpt lat="46.35584" lon="6.0538">
        <ele>856.59997558594</ele>
        <time>2019-10-05T13:35:46.000Z</time>
      </trkpt>
      <trkpt lat="46.35591" lon="6.05385">
        <ele>857.59997558594</ele>
        <time>2019-10-05T13:35:49.000Z</time>
      </trkpt>
      <trkpt lat="46.35594" lon="6.05386">
        <ele>858</ele>
        <time>2019-10-05T13:35:50.000Z</time>
      </trkpt>
      <trkpt lat="46.35606" lon="6.05394">
        <ele>859.59997558594</ele>
        <time>2019-10-05T13:35:55.000Z</time>
      </trkpt>
      <trkpt lat="46.35608" lon="6.05396">
        <ele>860</ele>
        <time>2019-10-05T13:35:56.000Z</time>
      </trkpt>
      <trkpt lat="46.35612" lon="6.05399">
        <ele>860.79998779297</ele>
        <time>2019-10-05T13:35:58.000Z</time>
      </trkpt>
      <trkpt lat="46.35622" lon="6.05407">
        <ele>862.79998779297</ele>
        <time>2019-10-05T13:36:02.000Z</time>
      </trkpt>
      <trkpt lat="46.35625" lon="6.05409">
        <ele>863</ele>
        <time>2019-10-05T13:36:03.000Z</time>
      </trkpt>
      <trkpt lat="46.35632" lon="6.05416">
        <ele>864</ele>
        <time>2019-10-05T13:36:06.000Z</time>
      </trkpt>
      <trkpt lat="46.35641" lon="6.05432">
        <ele>864.40002441406</ele>
        <time>2019-10-05T13:36:11.000Z</time>
      </trkpt>
      <trkpt lat="46.35643" lon="6.05435">
        <ele>864.40002441406</ele>
        <time>2019-10-05T13:36:12.000Z</time>
      </trkpt>
      <trkpt lat="46.3566" lon="6.05457">
        <ele>863.40002441406</ele>
        <time>2019-10-05T13:36:20.000Z</time>
      </trkpt>
      <trkpt lat="46.35677" lon="6.05462">
        <ele>864.79998779297</ele>
        <time>2019-10-05T13:36:26.000Z</time>
      </trkpt>
      <trkpt lat="46.35693" lon="6.05459">
        <ele>867.79998779297</ele>
        <time>2019-10-05T13:36:32.000Z</time>
      </trkpt>
      <trkpt lat="46.35715" lon="6.05451">
        <ele>872</ele>
        <time>2019-10-05T13:36:40.000Z</time>
      </trkpt>
      <trkpt lat="46.35725" lon="6.05447">
        <ele>873.59997558594</ele>
        <time>2019-10-05T13:36:44.000Z</time>
      </trkpt>
      <trkpt lat="46.35737" lon="6.05441">
        <ele>873.79998779297</ele>
        <time>2019-10-05T13:36:49.000Z</time>
      </trkpt>
      <trkpt lat="46.35752" lon="6.0543">
        <ele>872.79998779297</ele>
        <time>2019-10-05T13:36:55.000Z</time>
      </trkpt>
      <trkpt lat="46.35757" lon="6.05426">
        <ele>872.59997558594</ele>
        <time>2019-10-05T13:36:57.000Z</time>
      </trkpt>
      <trkpt lat="46.35777" lon="6.05412">
        <ele>871.40002441406</ele>
        <time>2019-10-05T13:37:05.000Z</time>
      </trkpt>
      <trkpt lat="46.35789" lon="6.05404">
        <ele>870.40002441406</ele>
        <time>2019-10-05T13:37:10.000Z</time>
      </trkpt>
      <trkpt lat="46.35809" lon="6.05389">
        <ele>869.79998779297</ele>
        <time>2019-10-05T13:37:18.000Z</time>
      </trkpt>
      <trkpt lat="46.35826" lon="6.05368">
        <ele>872</ele>
        <time>2019-10-05T13:37:26.000Z</time>
      </trkpt>
      <trkpt lat="46.35838" lon="6.05345">
        <ele>875.40002441406</ele>
        <time>2019-10-05T13:37:33.000Z</time>
      </trkpt>
      <trkpt lat="46.3584" lon="6.05341">
        <ele>876</ele>
        <time>2019-10-05T13:37:34.000Z</time>
      </trkpt>
      <trkpt lat="46.35853" lon="6.05313">
        <ele>880.59997558594</ele>
        <time>2019-10-05T13:37:42.000Z</time>
      </trkpt>
      <trkpt lat="46.35869" lon="6.05287">
        <ele>883.79998779297</ele>
        <time>2019-10-05T13:37:50.000Z</time>
      </trkpt>
      <trkpt lat="46.3588" lon="6.05273">
        <ele>884.40002441406</ele>
        <time>2019-10-05T13:37:55.000Z</time>
      </trkpt>
      <trkpt lat="46.35887" lon="6.05265">
        <ele>884.40002441406</ele>
        <time>2019-10-05T13:37:58.000Z</time>
      </trkpt>
      <trkpt lat="46.3589" lon="6.0526">
        <ele>884.59997558594</ele>
        <time>2019-10-05T13:38:00.000Z</time>
      </trkpt>
      <trkpt lat="46.35894" lon="6.05254">
        <ele>884.79998779297</ele>
        <time>2019-10-05T13:38:03.000Z</time>
      </trkpt>
      <trkpt lat="46.35896" lon="6.05247">
        <ele>885.40002441406</ele>
        <time>2019-10-05T13:38:05.000Z</time>
      </trkpt>
      <trkpt lat="46.35896" lon="6.05244">
        <ele>885.79998779297</ele>
        <time>2019-10-05T13:38:06.000Z</time>
      </trkpt>
      <trkpt lat="46.35897" lon="6.05239">
        <ele>886.40002441406</ele>
        <time>2019-10-05T13:38:07.000Z</time>
      </trkpt>
      <trkpt lat="46.35897" lon="6.05235">
        <ele>887</ele>
        <time>2019-10-05T13:38:08.000Z</time>
      </trkpt>
      <trkpt lat="46.35897" lon="6.0523">
        <ele>887.59997558594</ele>
        <time>2019-10-05T13:38:09.000Z</time>
      </trkpt>
      <trkpt lat="46.35896" lon="6.05226">
        <ele>888.20001220703</ele>
        <time>2019-10-05T13:38:10.000Z</time>
      </trkpt>
      <trkpt lat="46.35894" lon="6.05217">
        <ele>890.40002441406</ele>
        <time>2019-10-05T13:38:12.000Z</time>
      </trkpt>
      <trkpt lat="46.35893" lon="6.05212">
        <ele>891.59997558594</ele>
        <time>2019-10-05T13:38:13.000Z</time>
      </trkpt>
      <trkpt lat="46.35892" lon="6.05208">
        <ele>892.59997558594</ele>
        <time>2019-10-05T13:38:14.000Z</time>
      </trkpt>
      <trkpt lat="46.35888" lon="6.052">
        <ele>895</ele>
        <time>2019-10-05T13:38:16.000Z</time>
      </trkpt>
      <trkpt lat="46.35883" lon="6.05195">
        <ele>897</ele>
        <time>2019-10-05T13:38:18.000Z</time>
      </trkpt>
      <trkpt lat="46.35877" lon="6.05194">
        <ele>898.59997558594</ele>
        <time>2019-10-05T13:38:20.000Z</time>
      </trkpt>
      <trkpt lat="46.3587" lon="6.05196">
        <ele>899.59997558594</ele>
        <time>2019-10-05T13:38:22.000Z</time>
      </trkpt>
      <trkpt lat="46.35866" lon="6.05199">
        <ele>899.59997558594</ele>
        <time>2019-10-05T13:38:23.000Z</time>
      </trkpt>
      <trkpt lat="46.35859" lon="6.05206">
        <ele>898.40002441406</ele>
        <time>2019-10-05T13:38:25.000Z</time>
      </trkpt>
      <trkpt lat="46.35857" lon="6.05211">
        <ele>897.59997558594</ele>
        <time>2019-10-05T13:38:26.000Z</time>
      </trkpt>
      <trkpt lat="46.35855" lon="6.05215">
        <ele>896.79998779297</ele>
        <time>2019-10-05T13:38:27.000Z</time>
      </trkpt>
      <trkpt lat="46.35849" lon="6.05242">
        <ele>893</ele>
        <time>2019-10-05T13:38:32.000Z</time>
      </trkpt>
      <trkpt lat="46.35842" lon="6.05265">
        <ele>890.20001220703</ele>
        <time>2019-10-05T13:38:37.000Z</time>
      </trkpt>
      <trkpt lat="46.35839" lon="6.05274">
        <ele>889</ele>
        <time>2019-10-05T13:38:39.000Z</time>
      </trkpt>
      <trkpt lat="46.35831" lon="6.05289">
        <ele>887</ele>
        <time>2019-10-05T13:38:43.000Z</time>
      </trkpt>
      <trkpt lat="46.35823" lon="6.05296">
        <ele>886.40002441406</ele>
        <time>2019-10-05T13:38:46.000Z</time>
      </trkpt>
      <trkpt lat="46.35819" lon="6.053">
        <ele>886.20001220703</ele>
        <time>2019-10-05T13:38:48.000Z</time>
      </trkpt>
      <trkpt lat="46.35811" lon="6.05306">
        <ele>887</ele>
        <time>2019-10-05T13:38:52.000Z</time>
      </trkpt>
      <trkpt lat="46.35803" lon="6.05311">
        <ele>887</ele>
        <time>2019-10-05T13:38:55.000Z</time>
      </trkpt>
      <trkpt lat="46.35801" lon="6.05312">
        <ele>887.40002441406</ele>
        <time>2019-10-05T13:38:56.000Z</time>
      </trkpt>
      <trkpt lat="46.35798" lon="6.05313">
        <ele>887.59997558594</ele>
        <time>2019-10-05T13:38:57.000Z</time>
      </trkpt>
      <trkpt lat="46.35786" lon="6.05322">
        <ele>888.79998779297</ele>
        <time>2019-10-05T13:39:02.000Z</time>
      </trkpt>
      <trkpt lat="46.35783" lon="6.05323">
        <ele>889</ele>
        <time>2019-10-05T13:39:03.000Z</time>
      </trkpt>
      <trkpt lat="46.35779" lon="6.05325">
        <ele>889.40002441406</ele>
        <time>2019-10-05T13:39:05.000Z</time>
      </trkpt>
      <trkpt lat="46.3577" lon="6.05331">
        <ele>890.40002441406</ele>
        <time>2019-10-05T13:39:09.000Z</time>
      </trkpt>
      <trkpt lat="46.35767" lon="6.05332">
        <ele>890.59997558594</ele>
        <time>2019-10-05T13:39:10.000Z</time>
      </trkpt>
      <trkpt lat="46.35758" lon="6.0534">
        <ele>890.79998779297</ele>
        <time>2019-10-05T13:39:14.000Z</time>
      </trkpt>
      <trkpt lat="46.3575" lon="6.05345">
        <ele>890.79998779297</ele>
        <time>2019-10-05T13:39:18.000Z</time>
      </trkpt>
      <trkpt lat="46.35743" lon="6.05348">
        <ele>891.20001220703</ele>
        <time>2019-10-05T13:39:21.000Z</time>
      </trkpt>
      <trkpt lat="46.35734" lon="6.05351">
        <ele>892</ele>
        <time>2019-10-05T13:39:25.000Z</time>
      </trkpt>
      <trkpt lat="46.35716" lon="6.05352">
        <ele>891</ele>
        <time>2019-10-05T13:39:32.000Z</time>
      </trkpt>
      <trkpt lat="46.357" lon="6.05344">
        <ele>891.79998779297</ele>
        <time>2019-10-05T13:39:38.000Z</time>
      </trkpt>
      <trkpt lat="46.35692" lon="6.05337">
        <ele>892.59997558594</ele>
        <time>2019-10-05T13:39:41.000Z</time>
      </trkpt>
      <trkpt lat="46.35688" lon="6.05333">
        <ele>893.40002441406</ele>
        <time>2019-10-05T13:39:43.000Z</time>
      </trkpt>
      <trkpt lat="46.35683" lon="6.05328">
        <ele>894.20001220703</ele>
        <time>2019-10-05T13:39:45.000Z</time>
      </trkpt>
      <trkpt lat="46.35677" lon="6.0532">
        <ele>895.79998779297</ele>
        <time>2019-10-05T13:39:48.000Z</time>
      </trkpt>
      <trkpt lat="46.3567" lon="6.05312">
        <ele>897.40002441406</ele>
        <time>2019-10-05T13:39:51.000Z</time>
      </trkpt>
      <trkpt lat="46.35666" lon="6.05306">
        <ele>899</ele>
        <time>2019-10-05T13:39:53.000Z</time>
      </trkpt>
      <trkpt lat="46.35664" lon="6.05303">
        <ele>899.79998779297</ele>
        <time>2019-10-05T13:39:54.000Z</time>
      </trkpt>
      <trkpt lat="46.35658" lon="6.05295">
        <ele>902.20001220703</ele>
        <time>2019-10-05T13:39:57.000Z</time>
      </trkpt>
      <trkpt lat="46.35649" lon="6.05284">
        <ele>905.79998779297</ele>
        <time>2019-10-05T13:40:01.000Z</time>
      </trkpt>
      <trkpt lat="46.35645" lon="6.05279">
        <ele>907</ele>
        <time>2019-10-05T13:40:03.000Z</time>
      </trkpt>
      <trkpt lat="46.35635" lon="6.05266">
        <ele>908.79998779297</ele>
        <time>2019-10-05T13:40:08.000Z</time>
      </trkpt>
      <trkpt lat="46.35633" lon="6.05263">
        <ele>909</ele>
        <time>2019-10-05T13:40:09.000Z</time>
      </trkpt>
      <trkpt lat="46.35617" lon="6.05242">
        <ele>912.20001220703</ele>
        <time>2019-10-05T13:40:17.000Z</time>
      </trkpt>
      <trkpt lat="46.35605" lon="6.05226">
        <ele>914.79998779297</ele>
        <time>2019-10-05T13:40:23.000Z</time>
      </trkpt>
      <trkpt lat="46.35603" lon="6.05223">
        <ele>915.20001220703</ele>
        <time>2019-10-05T13:40:24.000Z</time>
      </trkpt>
      <trkpt lat="46.35592" lon="6.05208">
        <ele>918</ele>
        <time>2019-10-05T13:40:30.000Z</time>
      </trkpt>
      <trkpt lat="46.3559" lon="6.05205">
        <ele>918.40002441406</ele>
        <time>2019-10-05T13:40:31.000Z</time>
      </trkpt>
      <trkpt lat="46.35583" lon="6.05196">
        <ele>920</ele>
        <time>2019-10-05T13:40:35.000Z</time>
      </trkpt>
      <trkpt lat="46.35579" lon="6.05191">
        <ele>920.79998779297</ele>
        <time>2019-10-05T13:40:37.000Z</time>
      </trkpt>
      <trkpt lat="46.3557" lon="6.05178">
        <ele>923.20001220703</ele>
        <time>2019-10-05T13:40:42.000Z</time>
      </trkpt>
      <trkpt lat="46.35564" lon="6.05171">
        <ele>924.40002441406</ele>
        <time>2019-10-05T13:40:45.000Z</time>
      </trkpt>
      <trkpt lat="46.3556" lon="6.05165">
        <ele>925.40002441406</ele>
        <time>2019-10-05T13:40:47.000Z</time>
      </trkpt>
      <trkpt lat="46.35557" lon="6.05158">
        <ele>926.79998779297</ele>
        <time>2019-10-05T13:40:49.000Z</time>
      </trkpt>
      <trkpt lat="46.35555" lon="6.05155">
        <ele>927.40002441406</ele>
        <time>2019-10-05T13:40:50.000Z</time>
      </trkpt>
      <trkpt lat="46.35548" lon="6.05143">
        <ele>929</ele>
        <time>2019-10-05T13:40:54.000Z</time>
      </trkpt>
      <trkpt lat="46.35541" lon="6.05135">
        <ele>929.59997558594</ele>
        <time>2019-10-05T13:40:57.000Z</time>
      </trkpt>
      <trkpt lat="46.35534" lon="6.05123">
        <ele>930.59997558594</ele>
        <time>2019-10-05T13:41:01.000Z</time>
      </trkpt>
      <trkpt lat="46.35524" lon="6.05108">
        <ele>931.40002441406</ele>
        <time>2019-10-05T13:41:06.000Z</time>
      </trkpt>
      <trkpt lat="46.35514" lon="6.05098">
        <ele>931.20001220703</ele>
        <time>2019-10-05T13:41:10.000Z</time>
      </trkpt>
      <trkpt lat="46.3551" lon="6.05093">
        <ele>931.20001220703</ele>
        <time>2019-10-05T13:41:12.000Z</time>
      </trkpt>
      <trkpt lat="46.35508" lon="6.0509">
        <ele>931</ele>
        <time>2019-10-05T13:41:13.000Z</time>
      </trkpt>
      <trkpt lat="46.35505" lon="6.05088">
        <ele>931</ele>
        <time>2019-10-05T13:41:14.000Z</time>
      </trkpt>
      <trkpt lat="46.35501" lon="6.05083">
        <ele>931</ele>
        <time>2019-10-05T13:41:16.000Z</time>
      </trkpt>
      <trkpt lat="46.35496" lon="6.05078">
        <ele>930.59997558594</ele>
        <time>2019-10-05T13:41:18.000Z</time>
      </trkpt>
      <trkpt lat="46.35491" lon="6.05073">
        <ele>930.20001220703</ele>
        <time>2019-10-05T13:41:20.000Z</time>
      </trkpt>
      <trkpt lat="46.35486" lon="6.05068">
        <ele>930.20001220703</ele>
        <time>2019-10-05T13:41:22.000Z</time>
      </trkpt>
      <trkpt lat="46.35484" lon="6.05066">
        <ele>929.79998779297</ele>
        <time>2019-10-05T13:41:23.000Z</time>
      </trkpt>
      <trkpt lat="46.35482" lon="6.05063">
        <ele>929.79998779297</ele>
        <time>2019-10-05T13:41:24.000Z</time>
      </trkpt>
      <trkpt lat="46.35479" lon="6.05061">
        <ele>929.59997558594</ele>
        <time>2019-10-05T13:41:25.000Z</time>
      </trkpt>
      <trkpt lat="46.35474" lon="6.05055">
        <ele>929.40002441406</ele>
        <time>2019-10-05T13:41:27.000Z</time>
      </trkpt>
      <trkpt lat="46.35472" lon="6.05052">
        <ele>929.20001220703</ele>
        <time>2019-10-05T13:41:28.000Z</time>
      </trkpt>
      <trkpt lat="46.3547" lon="6.05049">
        <ele>928.79998779297</ele>
        <time>2019-10-05T13:41:29.000Z</time>
      </trkpt>
      <trkpt lat="46.35467" lon="6.05047">
        <ele>928.40002441406</ele>
        <time>2019-10-05T13:41:30.000Z</time>
      </trkpt>
      <trkpt lat="46.35465" lon="6.05044">
        <ele>928.40002441406</ele>
        <time>2019-10-05T13:41:31.000Z</time>
      </trkpt>
      <trkpt lat="46.35463" lon="6.05041">
        <ele>928.20001220703</ele>
        <time>2019-10-05T13:41:32.000Z</time>
      </trkpt>
      <trkpt lat="46.35461" lon="6.05038">
        <ele>928.40002441406</ele>
        <time>2019-10-05T13:41:33.000Z</time>
      </trkpt>
      <trkpt lat="46.35459" lon="6.05035">
        <ele>928.20001220703</ele>
        <time>2019-10-05T13:41:34.000Z</time>
      </trkpt>
      <trkpt lat="46.35457" lon="6.05033">
        <ele>928</ele>
        <time>2019-10-05T13:41:35.000Z</time>
      </trkpt>
      <trkpt lat="46.35454" lon="6.0503">
        <ele>927.59997558594</ele>
        <time>2019-10-05T13:41:36.000Z</time>
      </trkpt>
      <trkpt lat="46.35452" lon="6.05027">
        <ele>927.20001220703</ele>
        <time>2019-10-05T13:41:37.000Z</time>
      </trkpt>
      <trkpt lat="46.35447" lon="6.05022">
        <ele>926.59997558594</ele>
        <time>2019-10-05T13:41:39.000Z</time>
      </trkpt>
      <trkpt lat="46.35445" lon="6.05019">
        <ele>926.40002441406</ele>
        <time>2019-10-05T13:41:40.000Z</time>
      </trkpt>
      <trkpt lat="46.35441" lon="6.05013">
        <ele>926.40002441406</ele>
        <time>2019-10-05T13:41:42.000Z</time>
      </trkpt>
      <trkpt lat="46.35437" lon="6.05007">
        <ele>926.40002441406</ele>
        <time>2019-10-05T13:41:44.000Z</time>
      </trkpt>
      <trkpt lat="46.35435" lon="6.05004">
        <ele>926.40002441406</ele>
        <time>2019-10-05T13:41:45.000Z</time>
      </trkpt>
      <trkpt lat="46.35433" lon="6.05">
        <ele>926.59997558594</ele>
        <time>2019-10-05T13:41:46.000Z</time>
      </trkpt>
      <trkpt lat="46.35429" lon="6.04994">
        <ele>926.40002441406</ele>
        <time>2019-10-05T13:41:48.000Z</time>
      </trkpt>
      <trkpt lat="46.35424" lon="6.04988">
        <ele>926.40002441406</ele>
        <time>2019-10-05T13:41:50.000Z</time>
      </trkpt>
      <trkpt lat="46.35419" lon="6.04978">
        <ele>926.59997558594</ele>
        <time>2019-10-05T13:41:53.000Z</time>
      </trkpt>
      <trkpt lat="46.35414" lon="6.04968">
        <ele>926.79998779297</ele>
        <time>2019-10-05T13:41:56.000Z</time>
      </trkpt>
      <trkpt lat="46.3541" lon="6.04962">
        <ele>926.59997558594</ele>
        <time>2019-10-05T13:41:58.000Z</time>
      </trkpt>
      <trkpt lat="46.35407" lon="6.04955">
        <ele>926.59997558594</ele>
        <time>2019-10-05T13:42:00.000Z</time>
      </trkpt>
      <trkpt lat="46.35401" lon="6.04945">
        <ele>926.40002441406</ele>
        <time>2019-10-05T13:42:03.000Z</time>
      </trkpt>
      <trkpt lat="46.35395" lon="6.04937">
        <ele>926.20001220703</ele>
        <time>2019-10-05T13:42:06.000Z</time>
      </trkpt>
      <trkpt lat="46.35393" lon="6.04934">
        <ele>926.20001220703</ele>
        <time>2019-10-05T13:42:07.000Z</time>
      </trkpt>
      <trkpt lat="46.35389" lon="6.04929">
        <ele>926.40002441406</ele>
        <time>2019-10-05T13:42:09.000Z</time>
      </trkpt>
      <trkpt lat="46.35382" lon="6.04921">
        <ele>926.20001220703</ele>
        <time>2019-10-05T13:42:12.000Z</time>
      </trkpt>
      <trkpt lat="46.35377" lon="6.04916">
        <ele>926</ele>
        <time>2019-10-05T13:42:14.000Z</time>
      </trkpt>
      <trkpt lat="46.3537" lon="6.0491">
        <ele>925.40002441406</ele>
        <time>2019-10-05T13:42:17.000Z</time>
      </trkpt>
      <trkpt lat="46.35361" lon="6.049">
        <ele>925.20001220703</ele>
        <time>2019-10-05T13:42:21.000Z</time>
      </trkpt>
      <trkpt lat="46.35357" lon="6.04894">
        <ele>925.40002441406</ele>
        <time>2019-10-05T13:42:23.000Z</time>
      </trkpt>
      <trkpt lat="46.35351" lon="6.04877">
        <ele>927.40002441406</ele>
        <time>2019-10-05T13:42:28.000Z</time>
      </trkpt>
      <trkpt lat="46.35348" lon="6.04865">
        <ele>929.20001220703</ele>
        <time>2019-10-05T13:42:31.000Z</time>
      </trkpt>
      <trkpt lat="46.35342" lon="6.04847">
        <ele>931.59997558594</ele>
        <time>2019-10-05T13:42:36.000Z</time>
      </trkpt>
      <trkpt lat="46.35341" lon="6.04844">
        <ele>932</ele>
        <time>2019-10-05T13:42:37.000Z</time>
      </trkpt>
      <trkpt lat="46.35337" lon="6.04834">
        <ele>932.59997558594</ele>
        <time>2019-10-05T13:42:40.000Z</time>
      </trkpt>
      <trkpt lat="46.35334" lon="6.04828">
        <ele>933.20001220703</ele>
        <time>2019-10-05T13:42:42.000Z</time>
      </trkpt>
      <trkpt lat="46.35332" lon="6.04825">
        <ele>933.40002441406</ele>
        <time>2019-10-05T13:42:43.000Z</time>
      </trkpt>
      <trkpt lat="46.35323" lon="6.04814">
        <ele>933.40002441406</ele>
        <time>2019-10-05T13:42:47.000Z</time>
      </trkpt>
      <trkpt lat="46.35321" lon="6.04811">
        <ele>933.40002441406</ele>
        <time>2019-10-05T13:42:48.000Z</time>
      </trkpt>
      <trkpt lat="46.35309" lon="6.04797">
        <ele>933.59997558594</ele>
        <time>2019-10-05T13:42:54.000Z</time>
      </trkpt>
      <trkpt lat="46.35306" lon="6.04795">
        <ele>933.40002441406</ele>
        <time>2019-10-05T13:42:55.000Z</time>
      </trkpt>
      <trkpt lat="46.35295" lon="6.04787">
        <ele>933.20001220703</ele>
        <time>2019-10-05T13:42:59.000Z</time>
      </trkpt>
      <trkpt lat="46.35291" lon="6.04782">
        <ele>933.20001220703</ele>
        <time>2019-10-05T13:43:01.000Z</time>
      </trkpt>
      <trkpt lat="46.35284" lon="6.04776">
        <ele>933.40002441406</ele>
        <time>2019-10-05T13:43:04.000Z</time>
      </trkpt>
      <trkpt lat="46.35276" lon="6.04769">
        <ele>933.40002441406</ele>
        <time>2019-10-05T13:43:07.000Z</time>
      </trkpt>
      <trkpt lat="46.35272" lon="6.04764">
        <ele>933.59997558594</ele>
        <time>2019-10-05T13:43:09.000Z</time>
      </trkpt>
      <trkpt lat="46.35267" lon="6.04759">
        <ele>933.59997558594</ele>
        <time>2019-10-05T13:43:11.000Z</time>
      </trkpt>
      <trkpt lat="46.3526" lon="6.04751">
        <ele>934</ele>
        <time>2019-10-05T13:43:14.000Z</time>
      </trkpt>
      <trkpt lat="46.35253" lon="6.04743">
        <ele>934.59997558594</ele>
        <time>2019-10-05T13:43:17.000Z</time>
      </trkpt>
      <trkpt lat="46.35249" lon="6.04738">
        <ele>934.79998779297</ele>
        <time>2019-10-05T13:43:19.000Z</time>
      </trkpt>
      <trkpt lat="46.35242" lon="6.0473">
        <ele>935.20001220703</ele>
        <time>2019-10-05T13:43:22.000Z</time>
      </trkpt>
      <trkpt lat="46.35232" lon="6.04715">
        <ele>936.40002441406</ele>
        <time>2019-10-05T13:43:27.000Z</time>
      </trkpt>
      <trkpt lat="46.35225" lon="6.04703">
        <ele>937.20001220703</ele>
        <time>2019-10-05T13:43:31.000Z</time>
      </trkpt>
      <trkpt lat="46.3522" lon="6.04691">
        <ele>938.40002441406</ele>
        <time>2019-10-05T13:43:34.000Z</time>
      </trkpt>
      <trkpt lat="46.35217" lon="6.04684">
        <ele>939.40002441406</ele>
        <time>2019-10-05T13:43:36.000Z</time>
      </trkpt>
      <trkpt lat="46.35209" lon="6.04667">
        <ele>941</ele>
        <time>2019-10-05T13:43:41.000Z</time>
      </trkpt>
      <trkpt lat="46.35207" lon="6.04664">
        <ele>941.40002441406</ele>
        <time>2019-10-05T13:43:42.000Z</time>
      </trkpt>
      <trkpt lat="46.35198" lon="6.04648">
        <ele>942.40002441406</ele>
        <time>2019-10-05T13:43:47.000Z</time>
      </trkpt>
      <trkpt lat="46.35194" lon="6.04642">
        <ele>942.59997558594</ele>
        <time>2019-10-05T13:43:49.000Z</time>
      </trkpt>
      <trkpt lat="46.35188" lon="6.04633">
        <ele>942.79998779297</ele>
        <time>2019-10-05T13:43:52.000Z</time>
      </trkpt>
      <trkpt lat="46.35181" lon="6.04619">
        <ele>943.20001220703</ele>
        <time>2019-10-05T13:43:56.000Z</time>
      </trkpt>
      <trkpt lat="46.35176" lon="6.04609">
        <ele>943.79998779297</ele>
        <time>2019-10-05T13:43:59.000Z</time>
      </trkpt>
      <trkpt lat="46.3517" lon="6.04591">
        <ele>945.20001220703</ele>
        <time>2019-10-05T13:44:04.000Z</time>
      </trkpt>
      <trkpt lat="46.35162" lon="6.04568">
        <ele>947.20001220703</ele>
        <time>2019-10-05T13:44:10.000Z</time>
      </trkpt>
      <trkpt lat="46.35152" lon="6.04538">
        <ele>949.40002441406</ele>
        <time>2019-10-05T13:44:18.000Z</time>
      </trkpt>
      <trkpt lat="46.35145" lon="6.04525">
        <ele>949.79998779297</ele>
        <time>2019-10-05T13:44:22.000Z</time>
      </trkpt>
      <trkpt lat="46.35139" lon="6.04512">
        <ele>950.40002441406</ele>
        <time>2019-10-05T13:44:26.000Z</time>
      </trkpt>
      <trkpt lat="46.35133" lon="6.04499">
        <ele>951.20001220703</ele>
        <time>2019-10-05T13:44:30.000Z</time>
      </trkpt>
      <trkpt lat="46.35127" lon="6.04484">
        <ele>952.20001220703</ele>
        <time>2019-10-05T13:44:34.000Z</time>
      </trkpt>
      <trkpt lat="46.35113" lon="6.04457">
        <ele>953</ele>
        <time>2019-10-05T13:44:42.000Z</time>
      </trkpt>
      <trkpt lat="46.35111" lon="6.04454">
        <ele>953</ele>
        <time>2019-10-05T13:44:43.000Z</time>
      </trkpt>
      <trkpt lat="46.35103" lon="6.04433">
        <ele>954</ele>
        <time>2019-10-05T13:44:49.000Z</time>
      </trkpt>
      <trkpt lat="46.35094" lon="6.04418">
        <ele>953.59997558594</ele>
        <time>2019-10-05T13:44:54.000Z</time>
      </trkpt>
      <trkpt lat="46.3509" lon="6.04412">
        <ele>953.40002441406</ele>
        <time>2019-10-05T13:44:56.000Z</time>
      </trkpt>
      <trkpt lat="46.35088" lon="6.04409">
        <ele>953.40002441406</ele>
        <time>2019-10-05T13:44:57.000Z</time>
      </trkpt>
      <trkpt lat="46.35071" lon="6.04381">
        <ele>952</ele>
        <time>2019-10-05T13:45:06.000Z</time>
      </trkpt>
      <trkpt lat="46.35068" lon="6.0436">
        <ele>952</ele>
        <time>2019-10-05T13:45:11.000Z</time>
      </trkpt>
      <trkpt lat="46.3507" lon="6.04357">
        <ele>952.20001220703</ele>
        <time>2019-10-05T13:45:12.000Z</time>
      </trkpt>
      <trkpt lat="46.35072" lon="6.04355">
        <ele>952.40002441406</ele>
        <time>2019-10-05T13:45:13.000Z</time>
      </trkpt>
      <trkpt lat="46.35077" lon="6.04352">
        <ele>953.20001220703</ele>
        <time>2019-10-05T13:45:15.000Z</time>
      </trkpt>
      <trkpt lat="46.35089" lon="6.04355">
        <ele>954.59997558594</ele>
        <time>2019-10-05T13:45:19.000Z</time>
      </trkpt>
      <trkpt lat="46.35094" lon="6.04359">
        <ele>955.40002441406</ele>
        <time>2019-10-05T13:45:21.000Z</time>
      </trkpt>
      <trkpt lat="46.35107" lon="6.04373">
        <ele>957</ele>
        <time>2019-10-05T13:45:27.000Z</time>
      </trkpt>
      <trkpt lat="46.35114" lon="6.04382">
        <ele>957.59997558594</ele>
        <time>2019-10-05T13:45:30.000Z</time>
      </trkpt>
      <trkpt lat="46.35119" lon="6.04391">
        <ele>958.20001220703</ele>
        <time>2019-10-05T13:45:33.000Z</time>
      </trkpt>
      <trkpt lat="46.35123" lon="6.04397">
        <ele>958.59997558594</ele>
        <time>2019-10-05T13:45:35.000Z</time>
      </trkpt>
      <trkpt lat="46.35129" lon="6.04411">
        <ele>958.59997558594</ele>
        <time>2019-10-05T13:45:39.000Z</time>
      </trkpt>
      <trkpt lat="46.35131" lon="6.04415">
        <ele>958.79998779297</ele>
        <time>2019-10-05T13:45:40.000Z</time>
      </trkpt>
      <trkpt lat="46.35143" lon="6.04443">
        <ele>959</ele>
        <time>2019-10-05T13:45:48.000Z</time>
      </trkpt>
      <trkpt lat="46.35145" lon="6.04446">
        <ele>959</ele>
        <time>2019-10-05T13:45:49.000Z</time>
      </trkpt>
      <trkpt lat="46.3515" lon="6.04455">
        <ele>959.40002441406</ele>
        <time>2019-10-05T13:45:52.000Z</time>
      </trkpt>
      <trkpt lat="46.35159" lon="6.04463">
        <ele>960.40002441406</ele>
        <time>2019-10-05T13:45:56.000Z</time>
      </trkpt>
      <trkpt lat="46.35178" lon="6.04474">
        <ele>962.79998779297</ele>
        <time>2019-10-05T13:46:03.000Z</time>
      </trkpt>
      <trkpt lat="46.35201" lon="6.04482">
        <ele>965.79998779297</ele>
        <time>2019-10-05T13:46:11.000Z</time>
      </trkpt>
      <trkpt lat="46.35218" lon="6.04496">
        <ele>967.79998779297</ele>
        <time>2019-10-05T13:46:18.000Z</time>
      </trkpt>
      <trkpt lat="46.35222" lon="6.04502">
        <ele>968.20001220703</ele>
        <time>2019-10-05T13:46:20.000Z</time>
      </trkpt>
      <trkpt lat="46.35229" lon="6.04515">
        <ele>968.40002441406</ele>
        <time>2019-10-05T13:46:24.000Z</time>
      </trkpt>
      <trkpt lat="46.35232" lon="6.04522">
        <ele>968.40002441406</ele>
        <time>2019-10-05T13:46:26.000Z</time>
      </trkpt>
      <trkpt lat="46.35237" lon="6.04531">
        <ele>968.79998779297</ele>
        <time>2019-10-05T13:46:29.000Z</time>
      </trkpt>
      <trkpt lat="46.35246" lon="6.04548">
        <ele>969.20001220703</ele>
        <time>2019-10-05T13:46:34.000Z</time>
      </trkpt>
      <trkpt lat="46.35256" lon="6.04561">
        <ele>969.79998779297</ele>
        <time>2019-10-05T13:46:39.000Z</time>
      </trkpt>
      <trkpt lat="46.3526" lon="6.04566">
        <ele>969.79998779297</ele>
        <time>2019-10-05T13:46:41.000Z</time>
      </trkpt>
      <trkpt lat="46.35265" lon="6.04571">
        <ele>969.79998779297</ele>
        <time>2019-10-05T13:46:43.000Z</time>
      </trkpt>
      <trkpt lat="46.35276" lon="6.04581">
        <ele>970.20001220703</ele>
        <time>2019-10-05T13:46:48.000Z</time>
      </trkpt>
      <trkpt lat="46.35279" lon="6.04582">
        <ele>970.40002441406</ele>
        <time>2019-10-05T13:46:49.000Z</time>
      </trkpt>
      <trkpt lat="46.35293" lon="6.04592">
        <ele>971.20001220703</ele>
        <time>2019-10-05T13:46:55.000Z</time>
      </trkpt>
      <trkpt lat="46.35305" lon="6.04601">
        <ele>972</ele>
        <time>2019-10-05T13:47:00.000Z</time>
      </trkpt>
      <trkpt lat="46.35317" lon="6.04607">
        <ele>972.79998779297</ele>
        <time>2019-10-05T13:47:05.000Z</time>
      </trkpt>
      <trkpt lat="46.35322" lon="6.04608">
        <ele>973.40002441406</ele>
        <time>2019-10-05T13:47:07.000Z</time>
      </trkpt>
      <trkpt lat="46.35339" lon="6.04609">
        <ele>975.79998779297</ele>
        <time>2019-10-05T13:47:13.000Z</time>
      </trkpt>
      <trkpt lat="46.35341" lon="6.04608">
        <ele>976.20001220703</ele>
        <time>2019-10-05T13:47:14.000Z</time>
      </trkpt>
      <trkpt lat="46.35358" lon="6.04604">
        <ele>979.40002441406</ele>
        <time>2019-10-05T13:47:20.000Z</time>
      </trkpt>
      <trkpt lat="46.3537" lon="6.04604">
        <ele>980.59997558594</ele>
        <time>2019-10-05T13:47:24.000Z</time>
      </trkpt>
      <trkpt lat="46.35378" lon="6.04605">
        <ele>981.20001220703</ele>
        <time>2019-10-05T13:47:27.000Z</time>
      </trkpt>
      <trkpt lat="46.35402" lon="6.04614">
        <ele>983.20001220703</ele>
        <time>2019-10-05T13:47:36.000Z</time>
      </trkpt>
      <trkpt lat="46.35407" lon="6.04617">
        <ele>983.79998779297</ele>
        <time>2019-10-05T13:47:38.000Z</time>
      </trkpt>
      <trkpt lat="46.35414" lon="6.04624">
        <ele>984.20001220703</ele>
        <time>2019-10-05T13:47:41.000Z</time>
      </trkpt>
      <trkpt lat="46.3542" lon="6.04632">
        <ele>984.59997558594</ele>
        <time>2019-10-05T13:47:44.000Z</time>
      </trkpt>
      <trkpt lat="46.35422" lon="6.04635">
        <ele>984.59997558594</ele>
        <time>2019-10-05T13:47:45.000Z</time>
      </trkpt>
      <trkpt lat="46.35428" lon="6.04644">
        <ele>984.79998779297</ele>
        <time>2019-10-05T13:47:48.000Z</time>
      </trkpt>
      <trkpt lat="46.35434" lon="6.04652">
        <ele>984.79998779297</ele>
        <time>2019-10-05T13:47:51.000Z</time>
      </trkpt>
      <trkpt lat="46.35438" lon="6.04656">
        <ele>985</ele>
        <time>2019-10-05T13:47:53.000Z</time>
      </trkpt>
      <trkpt lat="46.35444" lon="6.04664">
        <ele>985.40002441406</ele>
        <time>2019-10-05T13:47:56.000Z</time>
      </trkpt>
      <trkpt lat="46.3545" lon="6.04671">
        <ele>985.79998779297</ele>
        <time>2019-10-05T13:47:59.000Z</time>
      </trkpt>
      <trkpt lat="46.35455" lon="6.04674">
        <ele>986.20001220703</ele>
        <time>2019-10-05T13:48:01.000Z</time>
      </trkpt>
      <trkpt lat="46.35465" lon="6.04682">
        <ele>987.20001220703</ele>
        <time>2019-10-05T13:48:05.000Z</time>
      </trkpt>
      <trkpt lat="46.35467" lon="6.04684">
        <ele>987.40002441406</ele>
        <time>2019-10-05T13:48:06.000Z</time>
      </trkpt>
      <trkpt lat="46.35479" lon="6.04697">
        <ele>988.20001220703</ele>
        <time>2019-10-05T13:48:11.000Z</time>
      </trkpt>
      <trkpt lat="46.35483" lon="6.04703">
        <ele>988.79998779297</ele>
        <time>2019-10-05T13:48:13.000Z</time>
      </trkpt>
      <trkpt lat="46.35487" lon="6.04709">
        <ele>990</ele>
        <time>2019-10-05T13:48:15.000Z</time>
      </trkpt>
      <trkpt lat="46.35496" lon="6.04725">
        <ele>991.79998779297</ele>
        <time>2019-10-05T13:48:20.000Z</time>
      </trkpt>
      <trkpt lat="46.35497" lon="6.04728">
        <ele>992.20001220703</ele>
        <time>2019-10-05T13:48:21.000Z</time>
      </trkpt>
      <trkpt lat="46.35504" lon="6.04746">
        <ele>994</ele>
        <time>2019-10-05T13:48:26.000Z</time>
      </trkpt>
      <trkpt lat="46.35507" lon="6.04753">
        <ele>994.79998779297</ele>
        <time>2019-10-05T13:48:28.000Z</time>
      </trkpt>
      <trkpt lat="46.35511" lon="6.04768">
        <ele>995.79998779297</ele>
        <time>2019-10-05T13:48:32.000Z</time>
      </trkpt>
      <trkpt lat="46.35516" lon="6.04783">
        <ele>996.59997558594</ele>
        <time>2019-10-05T13:48:36.000Z</time>
      </trkpt>
      <trkpt lat="46.35517" lon="6.04787">
        <ele>997</ele>
        <time>2019-10-05T13:48:37.000Z</time>
      </trkpt>
      <trkpt lat="46.35523" lon="6.04809">
        <ele>998.20001220703</ele>
        <time>2019-10-05T13:48:43.000Z</time>
      </trkpt>
      <trkpt lat="46.35526" lon="6.04821">
        <ele>997.59997558594</ele>
        <time>2019-10-05T13:48:46.000Z</time>
      </trkpt>
      <trkpt lat="46.35529" lon="6.04828">
        <ele>997.40002441406</ele>
        <time>2019-10-05T13:48:48.000Z</time>
      </trkpt>
      <trkpt lat="46.35534" lon="6.04842">
        <ele>997.20001220703</ele>
        <time>2019-10-05T13:48:52.000Z</time>
      </trkpt>
      <trkpt lat="46.3554" lon="6.04856">
        <ele>997.40002441406</ele>
        <time>2019-10-05T13:48:56.000Z</time>
      </trkpt>
      <trkpt lat="46.35542" lon="6.04859">
        <ele>997.59997558594</ele>
        <time>2019-10-05T13:48:57.000Z</time>
      </trkpt>
      <trkpt lat="46.35551" lon="6.04874">
        <ele>999.20001220703</ele>
        <time>2019-10-05T13:49:02.000Z</time>
      </trkpt>
      <trkpt lat="46.35555" lon="6.0488">
        <ele>1000</ele>
        <time>2019-10-05T13:49:04.000Z</time>
      </trkpt>
      <trkpt lat="46.35567" lon="6.04899">
        <ele>1001.5999755859</ele>
        <time>2019-10-05T13:49:10.000Z</time>
      </trkpt>
      <trkpt lat="46.35571" lon="6.04905">
        <ele>1001.4000244141</ele>
        <time>2019-10-05T13:49:12.000Z</time>
      </trkpt>
      <trkpt lat="46.35585" lon="6.04925">
        <ele>1001</ele>
        <time>2019-10-05T13:49:19.000Z</time>
      </trkpt>
      <trkpt lat="46.35587" lon="6.04929">
        <ele>1001</ele>
        <time>2019-10-05T13:49:20.000Z</time>
      </trkpt>
      <trkpt lat="46.35594" lon="6.0494">
        <ele>1000.799987793</ele>
        <time>2019-10-05T13:49:24.000Z</time>
      </trkpt>
      <trkpt lat="46.35602" lon="6.0495">
        <ele>1000.799987793</ele>
        <time>2019-10-05T13:49:28.000Z</time>
      </trkpt>
      <trkpt lat="46.35606" lon="6.04956">
        <ele>1000.799987793</ele>
        <time>2019-10-05T13:49:30.000Z</time>
      </trkpt>
      <trkpt lat="46.35615" lon="6.04969">
        <ele>1000.799987793</ele>
        <time>2019-10-05T13:49:35.000Z</time>
      </trkpt>
      <trkpt lat="46.35617" lon="6.04971">
        <ele>1000.799987793</ele>
        <time>2019-10-05T13:49:36.000Z</time>
      </trkpt>
      <trkpt lat="46.35632" lon="6.04989">
        <ele>1001.4000244141</ele>
        <time>2019-10-05T13:49:43.000Z</time>
      </trkpt>
      <trkpt lat="46.35634" lon="6.04991">
        <ele>1001.4000244141</ele>
        <time>2019-10-05T13:49:44.000Z</time>
      </trkpt>
      <trkpt lat="46.35645" lon="6.05002">
        <ele>1002.4000244141</ele>
        <time>2019-10-05T13:49:49.000Z</time>
      </trkpt>
      <trkpt lat="46.3565" lon="6.05006">
        <ele>1002</ele>
        <time>2019-10-05T13:49:51.000Z</time>
      </trkpt>
      <trkpt lat="46.35662" lon="6.05015">
        <ele>999.40002441406</ele>
        <time>2019-10-05T13:49:56.000Z</time>
      </trkpt>
      <trkpt lat="46.35675" lon="6.05022">
        <ele>997.20001220703</ele>
        <time>2019-10-05T13:50:01.000Z</time>
      </trkpt>
      <trkpt lat="46.35686" lon="6.05026">
        <ele>995.59997558594</ele>
        <time>2019-10-05T13:50:05.000Z</time>
      </trkpt>
      <trkpt lat="46.35694" lon="6.05027">
        <ele>994.79998779297</ele>
        <time>2019-10-05T13:50:08.000Z</time>
      </trkpt>
      <trkpt lat="46.3571" lon="6.05023">
        <ele>995.40002441406</ele>
        <time>2019-10-05T13:50:14.000Z</time>
      </trkpt>
      <trkpt lat="46.35725" lon="6.05008">
        <ele>999</ele>
        <time>2019-10-05T13:50:21.000Z</time>
      </trkpt>
      <trkpt lat="46.35732" lon="6.04989">
        <ele>1003</ele>
        <time>2019-10-05T13:50:26.000Z</time>
      </trkpt>
      <trkpt lat="46.35738" lon="6.04967">
        <ele>1004.799987793</ele>
        <time>2019-10-05T13:50:32.000Z</time>
      </trkpt>
      <trkpt lat="46.3574" lon="6.0496">
        <ele>1005.4000244141</ele>
        <time>2019-10-05T13:50:34.000Z</time>
      </trkpt>
      <trkpt lat="46.35741" lon="6.04956">
        <ele>1005.5999755859</ele>
        <time>2019-10-05T13:50:35.000Z</time>
      </trkpt>
      <trkpt lat="46.35744" lon="6.0495">
        <ele>1005.4000244141</ele>
        <time>2019-10-05T13:50:37.000Z</time>
      </trkpt>
      <trkpt lat="46.35746" lon="6.04944">
        <ele>1005.200012207</ele>
        <time>2019-10-05T13:50:39.000Z</time>
      </trkpt>
      <trkpt lat="46.35749" lon="6.04938">
        <ele>1004.799987793</ele>
        <time>2019-10-05T13:50:41.000Z</time>
      </trkpt>
      <trkpt lat="46.35751" lon="6.04935">
        <ele>1004.799987793</ele>
        <time>2019-10-05T13:50:42.000Z</time>
      </trkpt>
      <trkpt lat="46.35752" lon="6.04932">
        <ele>1004.5999755859</ele>
        <time>2019-10-05T13:50:43.000Z</time>
      </trkpt>
      <trkpt lat="46.35755" lon="6.04926">
        <ele>1004.200012207</ele>
        <time>2019-10-05T13:50:45.000Z</time>
      </trkpt>
      <trkpt lat="46.35758" lon="6.04919">
        <ele>1004</ele>
        <time>2019-10-05T13:50:47.000Z</time>
      </trkpt>
      <trkpt lat="46.35761" lon="6.04913">
        <ele>1004</ele>
        <time>2019-10-05T13:50:49.000Z</time>
      </trkpt>
      <trkpt lat="46.35765" lon="6.04907">
        <ele>1004.4000244141</ele>
        <time>2019-10-05T13:50:51.000Z</time>
      </trkpt>
      <trkpt lat="46.35768" lon="6.04902">
        <ele>1004.4000244141</ele>
        <time>2019-10-05T13:50:53.000Z</time>
      </trkpt>
      <trkpt lat="46.3577" lon="6.04896">
        <ele>1004.799987793</ele>
        <time>2019-10-05T13:50:55.000Z</time>
      </trkpt>
      <trkpt lat="46.35772" lon="6.04893">
        <ele>1005</ele>
        <time>2019-10-05T13:50:56.000Z</time>
      </trkpt>
      <trkpt lat="46.35773" lon="6.04889">
        <ele>1005.200012207</ele>
        <time>2019-10-05T13:50:57.000Z</time>
      </trkpt>
      <trkpt lat="46.35776" lon="6.04882">
        <ele>1005.4000244141</ele>
        <time>2019-10-05T13:50:59.000Z</time>
      </trkpt>
      <trkpt lat="46.35777" lon="6.04879">
        <ele>1005.200012207</ele>
        <time>2019-10-05T13:51:00.000Z</time>
      </trkpt>
      <trkpt lat="46.3578" lon="6.04873">
        <ele>1005.200012207</ele>
        <time>2019-10-05T13:51:02.000Z</time>
      </trkpt>
      <trkpt lat="46.35781" lon="6.0487">
        <ele>1005</ele>
        <time>2019-10-05T13:51:03.000Z</time>
      </trkpt>
      <trkpt lat="46.35782" lon="6.04868">
        <ele>1005.200012207</ele>
        <time>2019-10-05T13:51:04.000Z</time>
      </trkpt>
      <trkpt lat="46.35784" lon="6.04864">
        <ele>1005.4000244141</ele>
        <time>2019-10-05T13:51:05.000Z</time>
      </trkpt>
      <trkpt lat="46.35786" lon="6.04856">
        <ele>1006.200012207</ele>
        <time>2019-10-05T13:51:07.000Z</time>
      </trkpt>
      <trkpt lat="46.3579" lon="6.04841">
        <ele>1008.4000244141</ele>
        <time>2019-10-05T13:51:11.000Z</time>
      </trkpt>
      <trkpt lat="46.35797" lon="6.04817">
        <ele>1010.799987793</ele>
        <time>2019-10-05T13:51:18.000Z</time>
      </trkpt>
      <trkpt lat="46.35799" lon="6.04813">
        <ele>1011.200012207</ele>
        <time>2019-10-05T13:51:19.000Z</time>
      </trkpt>
      <trkpt lat="46.35799" lon="6.04809">
        <ele>1011.799987793</ele>
        <time>2019-10-05T13:51:20.000Z</time>
      </trkpt>
      <trkpt lat="46.358" lon="6.04805">
        <ele>1011.5999755859</ele>
        <time>2019-10-05T13:51:21.000Z</time>
      </trkpt>
      <trkpt lat="46.35801" lon="6.04801">
        <ele>1011.4000244141</ele>
        <time>2019-10-05T13:51:22.000Z</time>
      </trkpt>
      <trkpt lat="46.35802" lon="6.04794">
        <ele>1011.5999755859</ele>
        <time>2019-10-05T13:51:24.000Z</time>
      </trkpt>
      <trkpt lat="46.35802" lon="6.04789">
        <ele>1012.5999755859</ele>
        <time>2019-10-05T13:51:25.000Z</time>
      </trkpt>
      <trkpt lat="46.35803" lon="6.04784">
        <ele>1013.4000244141</ele>
        <time>2019-10-05T13:51:26.000Z</time>
      </trkpt>
      <trkpt lat="46.35803" lon="6.0478">
        <ele>1014.200012207</ele>
        <time>2019-10-05T13:51:27.000Z</time>
      </trkpt>
      <trkpt lat="46.35804" lon="6.04775">
        <ele>1015.200012207</ele>
        <time>2019-10-05T13:51:28.000Z</time>
      </trkpt>
      <trkpt lat="46.35804" lon="6.0477">
        <ele>1016.200012207</ele>
        <time>2019-10-05T13:51:29.000Z</time>
      </trkpt>
      <trkpt lat="46.35805" lon="6.04765">
        <ele>1017</ele>
        <time>2019-10-05T13:51:30.000Z</time>
      </trkpt>
      <trkpt lat="46.35805" lon="6.04761">
        <ele>1018</ele>
        <time>2019-10-05T13:51:31.000Z</time>
      </trkpt>
      <trkpt lat="46.35806" lon="6.04756">
        <ele>1018.799987793</ele>
        <time>2019-10-05T13:51:32.000Z</time>
      </trkpt>
      <trkpt lat="46.35807" lon="6.04749">
        <ele>1020</ele>
        <time>2019-10-05T13:51:34.000Z</time>
      </trkpt>
      <trkpt lat="46.35809" lon="6.04741">
        <ele>1021.200012207</ele>
        <time>2019-10-05T13:51:36.000Z</time>
      </trkpt>
      <trkpt lat="46.3581" lon="6.0473">
        <ele>1023.200012207</ele>
        <time>2019-10-05T13:51:39.000Z</time>
      </trkpt>
      <trkpt lat="46.35813" lon="6.04722">
        <ele>1023.5999755859</ele>
        <time>2019-10-05T13:51:41.000Z</time>
      </trkpt>
      <trkpt lat="46.35815" lon="6.04715">
        <ele>1024.1999511719</ele>
        <time>2019-10-05T13:51:43.000Z</time>
      </trkpt>
      <trkpt lat="46.35817" lon="6.04705">
        <ele>1025</ele>
        <time>2019-10-05T13:51:45.000Z</time>
      </trkpt>
      <trkpt lat="46.3582" lon="6.04688">
        <ele>1026</ele>
        <time>2019-10-05T13:51:49.000Z</time>
      </trkpt>
      <trkpt lat="46.35821" lon="6.04685">
        <ele>1026.4000244141</ele>
        <time>2019-10-05T13:51:50.000Z</time>
      </trkpt>
      <trkpt lat="46.35823" lon="6.04673">
        <ele>1027.4000244141</ele>
        <time>2019-10-05T13:51:53.000Z</time>
      </trkpt>
      <trkpt lat="46.35824" lon="6.04664">
        <ele>1028.1999511719</ele>
        <time>2019-10-05T13:51:55.000Z</time>
      </trkpt>
      <trkpt lat="46.35825" lon="6.04656">
        <ele>1028.8000488281</ele>
        <time>2019-10-05T13:51:57.000Z</time>
      </trkpt>
      <trkpt lat="46.35826" lon="6.04651">
        <ele>1029.5999755859</ele>
        <time>2019-10-05T13:51:58.000Z</time>
      </trkpt>
      <trkpt lat="46.35829" lon="6.04635">
        <ele>1030.8000488281</ele>
        <time>2019-10-05T13:52:02.000Z</time>
      </trkpt>
      <trkpt lat="46.35831" lon="6.04627">
        <ele>1030.1999511719</ele>
        <time>2019-10-05T13:52:04.000Z</time>
      </trkpt>
      <trkpt lat="46.35834" lon="6.04618">
        <ele>1029.5999755859</ele>
        <time>2019-10-05T13:52:06.000Z</time>
      </trkpt>
      <trkpt lat="46.35838" lon="6.04608">
        <ele>1028.5999755859</ele>
        <time>2019-10-05T13:52:09.000Z</time>
      </trkpt>
      <trkpt lat="46.35842" lon="6.04602">
        <ele>1027.8000488281</ele>
        <time>2019-10-05T13:52:11.000Z</time>
      </trkpt>
      <trkpt lat="46.35848" lon="6.04594">
        <ele>1026.8000488281</ele>
        <time>2019-10-05T13:52:14.000Z</time>
      </trkpt>
      <trkpt lat="46.35856" lon="6.04586">
        <ele>1029.5999755859</ele>
        <time>2019-10-05T13:52:18.000Z</time>
      </trkpt>
      <trkpt lat="46.35865" lon="6.04579">
        <ele>1032.4000244141</ele>
        <time>2019-10-05T13:52:22.000Z</time>
      </trkpt>
      <trkpt lat="46.35867" lon="6.04578">
        <ele>1033.1999511719</ele>
        <time>2019-10-05T13:52:23.000Z</time>
      </trkpt>
      <trkpt lat="46.35878" lon="6.04571">
        <ele>1036.1999511719</ele>
        <time>2019-10-05T13:52:28.000Z</time>
      </trkpt>
      <trkpt lat="46.35883" lon="6.04569">
        <ele>1037.4000244141</ele>
        <time>2019-10-05T13:52:30.000Z</time>
      </trkpt>
      <trkpt lat="46.35885" lon="6.04568">
        <ele>1038</ele>
        <time>2019-10-05T13:52:31.000Z</time>
      </trkpt>
      <trkpt lat="46.35887" lon="6.04567">
        <ele>1038.5999755859</ele>
        <time>2019-10-05T13:52:32.000Z</time>
      </trkpt>
      <trkpt lat="46.359" lon="6.04562">
        <ele>1041.5999755859</ele>
        <time>2019-10-05T13:52:37.000Z</time>
      </trkpt>
      <trkpt lat="46.35902" lon="6.04562">
        <ele>1042.1999511719</ele>
        <time>2019-10-05T13:52:38.000Z</time>
      </trkpt>
      <trkpt lat="46.35913" lon="6.0456">
        <ele>1045.1999511719</ele>
        <time>2019-10-05T13:52:43.000Z</time>
      </trkpt>
      <trkpt lat="46.35916" lon="6.04559">
        <ele>1046</ele>
        <time>2019-10-05T13:52:44.000Z</time>
      </trkpt>
      <trkpt lat="46.35927" lon="6.04557">
        <ele>1049</ele>
        <time>2019-10-05T13:52:49.000Z</time>
      </trkpt>
      <trkpt lat="46.35936" lon="6.04556">
        <ele>1051.1999511719</ele>
        <time>2019-10-05T13:52:53.000Z</time>
      </trkpt>
      <trkpt lat="46.3594" lon="6.04556">
        <ele>1052.1999511719</ele>
        <time>2019-10-05T13:52:55.000Z</time>
      </trkpt>
      <trkpt lat="46.3595" lon="6.04559">
        <ele>1054</ele>
        <time>2019-10-05T13:52:59.000Z</time>
      </trkpt>
      <trkpt lat="46.35956" lon="6.04563">
        <ele>1054.4000244141</ele>
        <time>2019-10-05T13:53:02.000Z</time>
      </trkpt>
      <trkpt lat="46.3596" lon="6.04566">
        <ele>1054.4000244141</ele>
        <time>2019-10-05T13:53:04.000Z</time>
      </trkpt>
      <trkpt lat="46.35965" lon="6.04568">
        <ele>1054.8000488281</ele>
        <time>2019-10-05T13:53:06.000Z</time>
      </trkpt>
      <trkpt lat="46.35972" lon="6.04572">
        <ele>1055.5999755859</ele>
        <time>2019-10-05T13:53:09.000Z</time>
      </trkpt>
      <trkpt lat="46.35979" lon="6.04572">
        <ele>1057</ele>
        <time>2019-10-05T13:53:12.000Z</time>
      </trkpt>
      <trkpt lat="46.35986" lon="6.04568">
        <ele>1059.8000488281</ele>
        <time>2019-10-05T13:53:15.000Z</time>
      </trkpt>
      <trkpt lat="46.3599" lon="6.04558">
        <ele>1064.5999755859</ele>
        <time>2019-10-05T13:53:19.000Z</time>
      </trkpt>
      <trkpt lat="46.3599" lon="6.04554">
        <ele>1066.1999511719</ele>
        <time>2019-10-05T13:53:20.000Z</time>
      </trkpt>
      <trkpt lat="46.35988" lon="6.0454">
        <ele>1071</ele>
        <time>2019-10-05T13:53:24.000Z</time>
      </trkpt>
      <trkpt lat="46.35986" lon="6.04537">
        <ele>1071.8000488281</ele>
        <time>2019-10-05T13:53:25.000Z</time>
      </trkpt>
      <trkpt lat="46.35983" lon="6.04532">
        <ele>1072.4000244141</ele>
        <time>2019-10-05T13:53:27.000Z</time>
      </trkpt>
      <trkpt lat="46.35973" lon="6.04527">
        <ele>1070.4000244141</ele>
        <time>2019-10-05T13:53:31.000Z</time>
      </trkpt>
      <trkpt lat="46.35961" lon="6.04522">
        <ele>1066.4000244141</ele>
        <time>2019-10-05T13:53:37.000Z</time>
      </trkpt>
      <trkpt lat="46.35954" lon="6.04517">
        <ele>1065.4000244141</ele>
        <time>2019-10-05T13:53:40.000Z</time>
      </trkpt>
      <trkpt lat="46.35946" lon="6.04512">
        <ele>1063.5999755859</ele>
        <time>2019-10-05T13:53:44.000Z</time>
      </trkpt>
      <trkpt lat="46.35944" lon="6.0451">
        <ele>1063.1999511719</ele>
        <time>2019-10-05T13:53:45.000Z</time>
      </trkpt>
      <trkpt lat="46.35936" lon="6.04502">
        <ele>1062.5999755859</ele>
        <time>2019-10-05T13:53:49.000Z</time>
      </trkpt>
      <trkpt lat="46.35933" lon="6.045">
        <ele>1062.1999511719</ele>
        <time>2019-10-05T13:53:50.000Z</time>
      </trkpt>
      <trkpt lat="46.35932" lon="6.04498">
        <ele>1062.5999755859</ele>
        <time>2019-10-05T13:53:51.000Z</time>
      </trkpt>
      <trkpt lat="46.35929" lon="6.04493">
        <ele>1063</ele>
        <time>2019-10-05T13:53:53.000Z</time>
      </trkpt>
      <trkpt lat="46.35928" lon="6.0449">
        <ele>1063.5999755859</ele>
        <time>2019-10-05T13:53:54.000Z</time>
      </trkpt>
      <trkpt lat="46.35926" lon="6.04482">
        <ele>1066</ele>
        <time>2019-10-05T13:53:57.000Z</time>
      </trkpt>
      <trkpt lat="46.35925" lon="6.04473">
        <ele>1068.4000244141</ele>
        <time>2019-10-05T13:54:00.000Z</time>
      </trkpt>
      <trkpt lat="46.35925" lon="6.0447">
        <ele>1068.5999755859</ele>
        <time>2019-10-05T13:54:01.000Z</time>
      </trkpt>
      <trkpt lat="46.35925" lon="6.04463">
        <ele>1069.1999511719</ele>
        <time>2019-10-05T13:54:03.000Z</time>
      </trkpt>
      <trkpt lat="46.35926" lon="6.04447">
        <ele>1071.1999511719</ele>
        <time>2019-10-05T13:54:08.000Z</time>
      </trkpt>
      <trkpt lat="46.35927" lon="6.04438">
        <ele>1072.1999511719</ele>
        <time>2019-10-05T13:54:11.000Z</time>
      </trkpt>
      <trkpt lat="46.35927" lon="6.04424">
        <ele>1073.1999511719</ele>
        <time>2019-10-05T13:54:15.000Z</time>
      </trkpt>
      <trkpt lat="46.35927" lon="6.04411">
        <ele>1076.8000488281</ele>
        <time>2019-10-05T13:54:19.000Z</time>
      </trkpt>
      <trkpt lat="46.35927" lon="6.044">
        <ele>1079.5999755859</ele>
        <time>2019-10-05T13:54:22.000Z</time>
      </trkpt>
      <trkpt lat="46.35927" lon="6.04394">
        <ele>1081.8000488281</ele>
        <time>2019-10-05T13:54:24.000Z</time>
      </trkpt>
      <trkpt lat="46.35927" lon="6.04381">
        <ele>1082.1999511719</ele>
        <time>2019-10-05T13:54:28.000Z</time>
      </trkpt>
      <trkpt lat="46.35929" lon="6.04372">
        <ele>1083.4000244141</ele>
        <time>2019-10-05T13:54:31.000Z</time>
      </trkpt>
      <trkpt lat="46.3593" lon="6.04366">
        <ele>1084.5999755859</ele>
        <time>2019-10-05T13:54:33.000Z</time>
      </trkpt>
      <trkpt lat="46.35935" lon="6.04355">
        <ele>1088</ele>
        <time>2019-10-05T13:54:37.000Z</time>
      </trkpt>
      <trkpt lat="46.35937" lon="6.04352">
        <ele>1089</ele>
        <time>2019-10-05T13:54:38.000Z</time>
      </trkpt>
      <trkpt lat="46.3595" lon="6.04334">
        <ele>1097.4000244141</ele>
        <time>2019-10-05T13:54:46.000Z</time>
      </trkpt>
      <trkpt lat="46.35956" lon="6.04325">
        <ele>1101.4000244141</ele>
        <time>2019-10-05T13:54:50.000Z</time>
      </trkpt>
      <trkpt lat="46.35962" lon="6.04316">
        <ele>1104.5999755859</ele>
        <time>2019-10-05T13:54:54.000Z</time>
      </trkpt>
      <trkpt lat="46.35966" lon="6.04301">
        <ele>1106.4000244141</ele>
        <time>2019-10-05T13:55:00.000Z</time>
      </trkpt>
      <trkpt lat="46.35967" lon="6.04298">
        <ele>1106.1999511719</ele>
        <time>2019-10-05T13:55:01.000Z</time>
      </trkpt>
      <trkpt lat="46.35968" lon="6.04295">
        <ele>1106.5999755859</ele>
        <time>2019-10-05T13:55:02.000Z</time>
      </trkpt>
      <trkpt lat="46.3597" lon="6.04286">
        <ele>1106.5999755859</ele>
        <time>2019-10-05T13:55:05.000Z</time>
      </trkpt>
      <trkpt lat="46.35975" lon="6.04262">
        <ele>1106.8000488281</ele>
        <time>2019-10-05T13:55:12.000Z</time>
      </trkpt>
      <trkpt lat="46.35975" lon="6.04259">
        <ele>1106.5999755859</ele>
        <time>2019-10-05T13:55:13.000Z</time>
      </trkpt>
      <trkpt lat="46.35975" lon="6.04255">
        <ele>1106.1999511719</ele>
        <time>2019-10-05T13:55:14.000Z</time>
      </trkpt>
      <trkpt lat="46.35977" lon="6.04242">
        <ele>1105.8000488281</ele>
        <time>2019-10-05T13:55:18.000Z</time>
      </trkpt>
      <trkpt lat="46.35978" lon="6.04236">
        <ele>1105.4000244141</ele>
        <time>2019-10-05T13:55:20.000Z</time>
      </trkpt>
      <trkpt lat="46.35978" lon="6.04233">
        <ele>1105</ele>
        <time>2019-10-05T13:55:21.000Z</time>
      </trkpt>
      <trkpt lat="46.35977" lon="6.04228">
        <ele>1104</ele>
        <time>2019-10-05T13:55:23.000Z</time>
      </trkpt>
      <trkpt lat="46.35978" lon="6.04224">
        <ele>1104</ele>
        <time>2019-10-05T13:55:24.000Z</time>
      </trkpt>
      <trkpt lat="46.35978" lon="6.0422">
        <ele>1104.1999511719</ele>
        <time>2019-10-05T13:55:25.000Z</time>
      </trkpt>
      <trkpt lat="46.35978" lon="6.04213">
        <ele>1105.1999511719</ele>
        <time>2019-10-05T13:55:27.000Z</time>
      </trkpt>
      <trkpt lat="46.35977" lon="6.04202">
        <ele>1105.8000488281</ele>
        <time>2019-10-05T13:55:30.000Z</time>
      </trkpt>
      <trkpt lat="46.35975" lon="6.04186">
        <ele>1105.4000244141</ele>
        <time>2019-10-05T13:55:35.000Z</time>
      </trkpt>
      <trkpt lat="46.35973" lon="6.04179">
        <ele>1104.8000488281</ele>
        <time>2019-10-05T13:55:37.000Z</time>
      </trkpt>
      <trkpt lat="46.35972" lon="6.04175">
        <ele>1104.8000488281</ele>
        <time>2019-10-05T13:55:38.000Z</time>
      </trkpt>
      <trkpt lat="46.35968" lon="6.04156">
        <ele>1103.8000488281</ele>
        <time>2019-10-05T13:55:44.000Z</time>
      </trkpt>
      <trkpt lat="46.35967" lon="6.04153">
        <ele>1103.4000244141</ele>
        <time>2019-10-05T13:55:45.000Z</time>
      </trkpt>
      <trkpt lat="46.35965" lon="6.04147">
        <ele>1102.8000488281</ele>
        <time>2019-10-05T13:55:47.000Z</time>
      </trkpt>
      <trkpt lat="46.35962" lon="6.04135">
        <ele>1102</ele>
        <time>2019-10-05T13:55:51.000Z</time>
      </trkpt>
      <trkpt lat="46.35959" lon="6.0413">
        <ele>1100.5999755859</ele>
        <time>2019-10-05T13:55:53.000Z</time>
      </trkpt>
      <trkpt lat="46.35957" lon="6.04124">
        <ele>1099.1999511719</ele>
        <time>2019-10-05T13:55:55.000Z</time>
      </trkpt>
      <trkpt lat="46.35952" lon="6.04116">
        <ele>1097.1999511719</ele>
        <time>2019-10-05T13:55:58.000Z</time>
      </trkpt>
      <trkpt lat="46.35949" lon="6.04111">
        <ele>1095.4000244141</ele>
        <time>2019-10-05T13:56:00.000Z</time>
      </trkpt>
      <trkpt lat="46.35942" lon="6.04098">
        <ele>1092</ele>
        <time>2019-10-05T13:56:05.000Z</time>
      </trkpt>
      <trkpt lat="46.35941" lon="6.04095">
        <ele>1091.5999755859</ele>
        <time>2019-10-05T13:56:06.000Z</time>
      </trkpt>
      <trkpt lat="46.35936" lon="6.04081">
        <ele>1089.1999511719</ele>
        <time>2019-10-05T13:56:11.000Z</time>
      </trkpt>
      <trkpt lat="46.35934" lon="6.04075">
        <ele>1088.5999755859</ele>
        <time>2019-10-05T13:56:13.000Z</time>
      </trkpt>
      <trkpt lat="46.35933" lon="6.04069">
        <ele>1088.4000244141</ele>
        <time>2019-10-05T13:56:15.000Z</time>
      </trkpt>
      <trkpt lat="46.3593" lon="6.04059">
        <ele>1087.5999755859</ele>
        <time>2019-10-05T13:56:18.000Z</time>
      </trkpt>
      <trkpt lat="46.35928" lon="6.04053">
        <ele>1086.1999511719</ele>
        <time>2019-10-05T13:56:20.000Z</time>
      </trkpt>
      <trkpt lat="46.35926" lon="6.04049">
        <ele>1085.4000244141</ele>
        <time>2019-10-05T13:56:21.000Z</time>
      </trkpt>
      <trkpt lat="46.35924" lon="6.04039">
        <ele>1084.1999511719</ele>
        <time>2019-10-05T13:56:24.000Z</time>
      </trkpt>
      <trkpt lat="46.35923" lon="6.04031">
        <ele>1084.1999511719</ele>
        <time>2019-10-05T13:56:26.000Z</time>
      </trkpt>
      <trkpt lat="46.35925" lon="6.04001">
        <ele>1086.5999755859</ele>
        <time>2019-10-05T13:56:34.000Z</time>
      </trkpt>
      <trkpt lat="46.3593" lon="6.03982">
        <ele>1090.4000244141</ele>
        <time>2019-10-05T13:56:40.000Z</time>
      </trkpt>
      <trkpt lat="46.35933" lon="6.03969">
        <ele>1092.5999755859</ele>
        <time>2019-10-05T13:56:44.000Z</time>
      </trkpt>
      <trkpt lat="46.35936" lon="6.03959">
        <ele>1094.1999511719</ele>
        <time>2019-10-05T13:56:47.000Z</time>
      </trkpt>
      <trkpt lat="46.35943" lon="6.03933">
        <ele>1098.1999511719</ele>
        <time>2019-10-05T13:56:55.000Z</time>
      </trkpt>
      <trkpt lat="46.35943" lon="6.0393">
        <ele>1098.1999511719</ele>
        <time>2019-10-05T13:56:56.000Z</time>
      </trkpt>
      <trkpt lat="46.35946" lon="6.0392">
        <ele>1098.8000488281</ele>
        <time>2019-10-05T13:56:59.000Z</time>
      </trkpt>
      <trkpt lat="46.35949" lon="6.03911">
        <ele>1099.5999755859</ele>
        <time>2019-10-05T13:57:02.000Z</time>
      </trkpt>
      <trkpt lat="46.35952" lon="6.03899">
        <ele>1100</ele>
        <time>2019-10-05T13:57:06.000Z</time>
      </trkpt>
      <trkpt lat="46.35955" lon="6.0389">
        <ele>1101</ele>
        <time>2019-10-05T13:57:09.000Z</time>
      </trkpt>
      <trkpt lat="46.3596" lon="6.03872">
        <ele>1103.8000488281</ele>
        <time>2019-10-05T13:57:15.000Z</time>
      </trkpt>
      <trkpt lat="46.35961" lon="6.03869">
        <ele>1104</ele>
        <time>2019-10-05T13:57:16.000Z</time>
      </trkpt>
      <trkpt lat="46.35964" lon="6.0386">
        <ele>1105</ele>
        <time>2019-10-05T13:57:19.000Z</time>
      </trkpt>
      <trkpt lat="46.35968" lon="6.03849">
        <ele>1107</ele>
        <time>2019-10-05T13:57:23.000Z</time>
      </trkpt>
      <trkpt lat="46.35978" lon="6.03832">
        <ele>1111</ele>
        <time>2019-10-05T13:57:30.000Z</time>
      </trkpt>
      <trkpt lat="46.3598" lon="6.03827">
        <ele>1112.1999511719</ele>
        <time>2019-10-05T13:57:32.000Z</time>
      </trkpt>
      <trkpt lat="46.35993" lon="6.03813">
        <ele>1116.8000488281</ele>
        <time>2019-10-05T13:57:39.000Z</time>
      </trkpt>
      <trkpt lat="46.36004" lon="6.03804">
        <ele>1119.4000244141</ele>
        <time>2019-10-05T13:57:45.000Z</time>
      </trkpt>
      <trkpt lat="46.3601" lon="6.038">
        <ele>1121.4000244141</ele>
        <time>2019-10-05T13:57:48.000Z</time>
      </trkpt>
      <trkpt lat="46.36027" lon="6.03793">
        <ele>1126.5999755859</ele>
        <time>2019-10-05T13:57:56.000Z</time>
      </trkpt>
      <trkpt lat="46.36042" lon="6.03787">
        <ele>1131.5999755859</ele>
        <time>2019-10-05T13:58:03.000Z</time>
      </trkpt>
      <trkpt lat="46.36054" lon="6.03779">
        <ele>1136</ele>
        <time>2019-10-05T13:58:09.000Z</time>
      </trkpt>
      <trkpt lat="46.36056" lon="6.03778">
        <ele>1136.8000488281</ele>
        <time>2019-10-05T13:58:10.000Z</time>
      </trkpt>
      <trkpt lat="46.36068" lon="6.03768">
        <ele>1142.4000244141</ele>
        <time>2019-10-05T13:58:16.000Z</time>
      </trkpt>
      <trkpt lat="46.36074" lon="6.03761">
        <ele>1147.5999755859</ele>
        <time>2019-10-05T13:58:20.000Z</time>
      </trkpt>
      <trkpt lat="46.36077" lon="6.03757">
        <ele>1150.5999755859</ele>
        <time>2019-10-05T13:58:22.000Z</time>
      </trkpt>
      <trkpt lat="46.36079" lon="6.03756">
        <ele>1152.1999511719</ele>
        <time>2019-10-05T13:58:23.000Z</time>
      </trkpt>
      <trkpt lat="46.36085" lon="6.03749">
        <ele>1157</ele>
        <time>2019-10-05T13:58:27.000Z</time>
      </trkpt>
      <trkpt lat="46.36087" lon="6.03746">
        <ele>1158.8000488281</ele>
        <time>2019-10-05T13:58:29.000Z</time>
      </trkpt>
      <trkpt lat="46.36091" lon="6.03742">
        <ele>1160.4000244141</ele>
        <time>2019-10-05T13:58:32.000Z</time>
      </trkpt>
      <trkpt lat="46.36094" lon="6.03738">
        <ele>1161</ele>
        <time>2019-10-05T13:58:34.000Z</time>
      </trkpt>
      <trkpt lat="46.36097" lon="6.03734">
        <ele>1162</ele>
        <time>2019-10-05T13:58:36.000Z</time>
      </trkpt>
      <trkpt lat="46.36099" lon="6.0373">
        <ele>1162.4000244141</ele>
        <time>2019-10-05T13:58:38.000Z</time>
      </trkpt>
      <trkpt lat="46.36102" lon="6.03726">
        <ele>1163</ele>
        <time>2019-10-05T13:58:40.000Z</time>
      </trkpt>
      <trkpt lat="46.36107" lon="6.03714">
        <ele>1165.8000488281</ele>
        <time>2019-10-05T13:58:45.000Z</time>
      </trkpt>
      <trkpt lat="46.36115" lon="6.03693">
        <ele>1168.8000488281</ele>
        <time>2019-10-05T13:58:52.000Z</time>
      </trkpt>
      <trkpt lat="46.36123" lon="6.03674">
        <ele>1166.8000488281</ele>
        <time>2019-10-05T13:58:59.000Z</time>
      </trkpt>
      <trkpt lat="46.36124" lon="6.0367">
        <ele>1166.1999511719</ele>
        <time>2019-10-05T13:59:00.000Z</time>
      </trkpt>
      <trkpt lat="46.36127" lon="6.03648">
        <ele>1161.1999511719</ele>
        <time>2019-10-05T13:59:05.000Z</time>
      </trkpt>
      <trkpt lat="46.36129" lon="6.03645">
        <ele>1161</ele>
        <time>2019-10-05T13:59:06.000Z</time>
      </trkpt>
      <trkpt lat="46.36135" lon="6.03635">
        <ele>1162.5999755859</ele>
        <time>2019-10-05T13:59:10.000Z</time>
      </trkpt>
      <trkpt lat="46.36139" lon="6.03627">
        <ele>1163.1999511719</ele>
        <time>2019-10-05T13:59:13.000Z</time>
      </trkpt>
      <trkpt lat="46.36148" lon="6.03607">
        <ele>1162.5999755859</ele>
        <time>2019-10-05T13:59:20.000Z</time>
      </trkpt>
      <trkpt lat="46.36152" lon="6.03601">
        <ele>1164.1999511719</ele>
        <time>2019-10-05T13:59:22.000Z</time>
      </trkpt>
      <trkpt lat="46.36155" lon="6.03595">
        <ele>1165.8000488281</ele>
        <time>2019-10-05T13:59:24.000Z</time>
      </trkpt>
      <trkpt lat="46.36158" lon="6.0359">
        <ele>1167.5999755859</ele>
        <time>2019-10-05T13:59:26.000Z</time>
      </trkpt>
      <trkpt lat="46.36161" lon="6.03586">
        <ele>1169.5999755859</ele>
        <time>2019-10-05T13:59:28.000Z</time>
      </trkpt>
      <trkpt lat="46.36165" lon="6.03581">
        <ele>1171.8000488281</ele>
        <time>2019-10-05T13:59:30.000Z</time>
      </trkpt>
      <trkpt lat="46.36171" lon="6.03576">
        <ele>1174.8000488281</ele>
        <time>2019-10-05T13:59:33.000Z</time>
      </trkpt>
      <trkpt lat="46.36175" lon="6.03569">
        <ele>1176.5999755859</ele>
        <time>2019-10-05T13:59:36.000Z</time>
      </trkpt>
      <trkpt lat="46.36177" lon="6.03566">
        <ele>1177</ele>
        <time>2019-10-05T13:59:37.000Z</time>
      </trkpt>
      <trkpt lat="46.36179" lon="6.03561">
        <ele>1177.8000488281</ele>
        <time>2019-10-05T13:59:39.000Z</time>
      </trkpt>
      <trkpt lat="46.36181" lon="6.03558">
        <ele>1178.1999511719</ele>
        <time>2019-10-05T13:59:40.000Z</time>
      </trkpt>
      <trkpt lat="46.36182" lon="6.03555">
        <ele>1179</ele>
        <time>2019-10-05T13:59:41.000Z</time>
      </trkpt>
      <trkpt lat="46.36184" lon="6.03551">
        <ele>1179.4000244141</ele>
        <time>2019-10-05T13:59:42.000Z</time>
      </trkpt>
      <trkpt lat="46.36187" lon="6.03545">
        <ele>1180.8000488281</ele>
        <time>2019-10-05T13:59:44.000Z</time>
      </trkpt>
      <trkpt lat="46.36189" lon="6.03538">
        <ele>1181.4000244141</ele>
        <time>2019-10-05T13:59:46.000Z</time>
      </trkpt>
      <trkpt lat="46.36191" lon="6.0353">
        <ele>1181.8000488281</ele>
        <time>2019-10-05T13:59:48.000Z</time>
      </trkpt>
      <trkpt lat="46.36193" lon="6.03521">
        <ele>1182</ele>
        <time>2019-10-05T13:59:51.000Z</time>
      </trkpt>
      <trkpt lat="46.36198" lon="6.03506">
        <ele>1179.8000488281</ele>
        <time>2019-10-05T13:59:56.000Z</time>
      </trkpt>
      <trkpt lat="46.362" lon="6.035">
        <ele>1178.5999755859</ele>
        <time>2019-10-05T13:59:58.000Z</time>
      </trkpt>
      <trkpt lat="46.362" lon="6.03496">
        <ele>1178</ele>
        <time>2019-10-05T13:59:59.000Z</time>
      </trkpt>
      <trkpt lat="46.36201" lon="6.03493">
        <ele>1176.8000488281</ele>
        <time>2019-10-05T14:00:00.000Z</time>
      </trkpt>
      <trkpt lat="46.36202" lon="6.03486">
        <ele>1175</ele>
        <time>2019-10-05T14:00:02.000Z</time>
      </trkpt>
      <trkpt lat="46.36203" lon="6.03479">
        <ele>1173.8000488281</ele>
        <time>2019-10-05T14:00:04.000Z</time>
      </trkpt>
      <trkpt lat="46.36204" lon="6.03476">
        <ele>1173.1999511719</ele>
        <time>2019-10-05T14:00:05.000Z</time>
      </trkpt>
      <trkpt lat="46.36206" lon="6.0347">
        <ele>1173.4000244141</ele>
        <time>2019-10-05T14:00:07.000Z</time>
      </trkpt>
      <trkpt lat="46.36208" lon="6.03463">
        <ele>1174</ele>
        <time>2019-10-05T14:00:09.000Z</time>
      </trkpt>
      <trkpt lat="46.36209" lon="6.03457">
        <ele>1174.1999511719</ele>
        <time>2019-10-05T14:00:11.000Z</time>
      </trkpt>
      <trkpt lat="46.36211" lon="6.0345">
        <ele>1174</ele>
        <time>2019-10-05T14:00:13.000Z</time>
      </trkpt>
      <trkpt lat="46.36213" lon="6.03444">
        <ele>1173.5999755859</ele>
        <time>2019-10-05T14:00:15.000Z</time>
      </trkpt>
      <trkpt lat="46.36219" lon="6.03426">
        <ele>1173.1999511719</ele>
        <time>2019-10-05T14:00:21.000Z</time>
      </trkpt>
      <trkpt lat="46.36221" lon="6.0342">
        <ele>1173</ele>
        <time>2019-10-05T14:00:23.000Z</time>
      </trkpt>
      <trkpt lat="46.36223" lon="6.03414">
        <ele>1173</ele>
        <time>2019-10-05T14:00:25.000Z</time>
      </trkpt>
      <trkpt lat="46.36229" lon="6.03402">
        <ele>1174</ele>
        <time>2019-10-05T14:00:30.000Z</time>
      </trkpt>
      <trkpt lat="46.36239" lon="6.03382">
        <ele>1178</ele>
        <time>2019-10-05T14:00:38.000Z</time>
      </trkpt>
      <trkpt lat="46.36245" lon="6.03368">
        <ele>1179.8000488281</ele>
        <time>2019-10-05T14:00:43.000Z</time>
      </trkpt>
      <trkpt lat="46.36247" lon="6.03362">
        <ele>1180.5999755859</ele>
        <time>2019-10-05T14:00:45.000Z</time>
      </trkpt>
      <trkpt lat="46.36249" lon="6.03356">
        <ele>1180.8000488281</ele>
        <time>2019-10-05T14:00:47.000Z</time>
      </trkpt>
      <trkpt lat="46.36253" lon="6.03345">
        <ele>1181.5999755859</ele>
        <time>2019-10-05T14:00:51.000Z</time>
      </trkpt>
      <trkpt lat="46.36256" lon="6.03336">
        <ele>1182.4000244141</ele>
        <time>2019-10-05T14:00:54.000Z</time>
      </trkpt>
      <trkpt lat="46.36259" lon="6.03323">
        <ele>1182.4000244141</ele>
        <time>2019-10-05T14:00:58.000Z</time>
      </trkpt>
      <trkpt lat="46.3626" lon="6.0332">
        <ele>1182.5999755859</ele>
        <time>2019-10-05T14:00:59.000Z</time>
      </trkpt>
      <trkpt lat="46.36262" lon="6.03314">
        <ele>1183.4000244141</ele>
        <time>2019-10-05T14:01:01.000Z</time>
      </trkpt>
      <trkpt lat="46.36265" lon="6.03308">
        <ele>1184.4000244141</ele>
        <time>2019-10-05T14:01:03.000Z</time>
      </trkpt>
      <trkpt lat="46.36268" lon="6.03298">
        <ele>1185.8000488281</ele>
        <time>2019-10-05T14:01:06.000Z</time>
      </trkpt>
      <trkpt lat="46.36268" lon="6.03294">
        <ele>1185.8000488281</ele>
        <time>2019-10-05T14:01:07.000Z</time>
      </trkpt>
      <trkpt lat="46.3627" lon="6.03289">
        <ele>1186.5999755859</ele>
        <time>2019-10-05T14:01:09.000Z</time>
      </trkpt>
      <trkpt lat="46.36272" lon="6.03284">
        <ele>1187.8000488281</ele>
        <time>2019-10-05T14:01:11.000Z</time>
      </trkpt>
      <trkpt lat="46.36274" lon="6.03279">
        <ele>1188.5999755859</ele>
        <time>2019-10-05T14:01:13.000Z</time>
      </trkpt>
      <trkpt lat="46.36275" lon="6.03276">
        <ele>1189.1999511719</ele>
        <time>2019-10-05T14:01:14.000Z</time>
      </trkpt>
      <trkpt lat="46.36282" lon="6.03254">
        <ele>1190</ele>
        <time>2019-10-05T14:01:22.000Z</time>
      </trkpt>
      <trkpt lat="46.36289" lon="6.03232">
        <ele>1189.8000488281</ele>
        <time>2019-10-05T14:01:30.000Z</time>
      </trkpt>
      <trkpt lat="46.36294" lon="6.03209">
        <ele>1191.4000244141</ele>
        <time>2019-10-05T14:01:37.000Z</time>
      </trkpt>
      <trkpt lat="46.36296" lon="6.03199">
        <ele>1192.1999511719</ele>
        <time>2019-10-05T14:01:40.000Z</time>
      </trkpt>
      <trkpt lat="46.36297" lon="6.0319">
        <ele>1191.8000488281</ele>
        <time>2019-10-05T14:01:43.000Z</time>
      </trkpt>
      <trkpt lat="46.36296" lon="6.03182">
        <ele>1190.5999755859</ele>
        <time>2019-10-05T14:01:45.000Z</time>
      </trkpt>
      <trkpt lat="46.36295" lon="6.03172">
        <ele>1189.1999511719</ele>
        <time>2019-10-05T14:01:48.000Z</time>
      </trkpt>
      <trkpt lat="46.36293" lon="6.03161">
        <ele>1187.4000244141</ele>
        <time>2019-10-05T14:01:51.000Z</time>
      </trkpt>
      <trkpt lat="46.36292" lon="6.03153">
        <ele>1185.5999755859</ele>
        <time>2019-10-05T14:01:53.000Z</time>
      </trkpt>
      <trkpt lat="46.3629" lon="6.03146">
        <ele>1183.8000488281</ele>
        <time>2019-10-05T14:01:55.000Z</time>
      </trkpt>
      <trkpt lat="46.36288" lon="6.03137">
        <ele>1182.5999755859</ele>
        <time>2019-10-05T14:01:57.000Z</time>
      </trkpt>
      <trkpt lat="46.36286" lon="6.03134">
        <ele>1182</ele>
        <time>2019-10-05T14:01:58.000Z</time>
      </trkpt>
      <trkpt lat="46.36285" lon="6.03131">
        <ele>1181.8000488281</ele>
        <time>2019-10-05T14:01:59.000Z</time>
      </trkpt>
      <trkpt lat="46.36283" lon="6.0311">
        <ele>1182</ele>
        <time>2019-10-05T14:02:05.000Z</time>
      </trkpt>
      <trkpt lat="46.36283" lon="6.03106">
        <ele>1182</ele>
        <time>2019-10-05T14:02:06.000Z</time>
      </trkpt>
      <trkpt lat="46.36283" lon="6.03097">
        <ele>1181.5999755859</ele>
        <time>2019-10-05T14:02:09.000Z</time>
      </trkpt>
      <trkpt lat="46.36283" lon="6.03087">
        <ele>1182</ele>
        <time>2019-10-05T14:02:12.000Z</time>
      </trkpt>
      <trkpt lat="46.36284" lon="6.03081">
        <ele>1182.1999511719</ele>
        <time>2019-10-05T14:02:14.000Z</time>
      </trkpt>
      <trkpt lat="46.36287" lon="6.03062">
        <ele>1183.4000244141</ele>
        <time>2019-10-05T14:02:20.000Z</time>
      </trkpt>
      <trkpt lat="46.36289" lon="6.03048">
        <ele>1186</ele>
        <time>2019-10-05T14:02:24.000Z</time>
      </trkpt>
      <trkpt lat="46.36289" lon="6.03044">
        <ele>1186.5999755859</ele>
        <time>2019-10-05T14:02:25.000Z</time>
      </trkpt>
      <trkpt lat="46.3629" lon="6.03034">
        <ele>1188.1999511719</ele>
        <time>2019-10-05T14:02:28.000Z</time>
      </trkpt>
      <trkpt lat="46.3629" lon="6.03024">
        <ele>1188.4000244141</ele>
        <time>2019-10-05T14:02:31.000Z</time>
      </trkpt>
      <trkpt lat="46.36288" lon="6.03013">
        <ele>1187.8000488281</ele>
        <time>2019-10-05T14:02:34.000Z</time>
      </trkpt>
      <trkpt lat="46.36285" lon="6.02999">
        <ele>1187</ele>
        <time>2019-10-05T14:02:38.000Z</time>
      </trkpt>
      <trkpt lat="46.36284" lon="6.02989">
        <ele>1186.8000488281</ele>
        <time>2019-10-05T14:02:41.000Z</time>
      </trkpt>
      <trkpt lat="46.36281" lon="6.02978">
        <ele>1186</ele>
        <time>2019-10-05T14:02:44.000Z</time>
      </trkpt>
      <trkpt lat="46.36279" lon="6.02968">
        <ele>1186.1999511719</ele>
        <time>2019-10-05T14:02:47.000Z</time>
      </trkpt>
      <trkpt lat="46.36272" lon="6.02944">
        <ele>1187.5999755859</ele>
        <time>2019-10-05T14:02:55.000Z</time>
      </trkpt>
      <trkpt lat="46.36267" lon="6.02923">
        <ele>1188.1999511719</ele>
        <time>2019-10-05T14:03:02.000Z</time>
      </trkpt>
      <trkpt lat="46.36265" lon="6.02917">
        <ele>1188</ele>
        <time>2019-10-05T14:03:04.000Z</time>
      </trkpt>
      <trkpt lat="46.36262" lon="6.02909">
        <ele>1187.4000244141</ele>
        <time>2019-10-05T14:03:07.000Z</time>
      </trkpt>
      <trkpt lat="46.3626" lon="6.02905">
        <ele>1187.1999511719</ele>
        <time>2019-10-05T14:03:08.000Z</time>
      </trkpt>
      <trkpt lat="46.36258" lon="6.02899">
        <ele>1186.8000488281</ele>
        <time>2019-10-05T14:03:10.000Z</time>
      </trkpt>
      <trkpt lat="46.36254" lon="6.02891">
        <ele>1186</ele>
        <time>2019-10-05T14:03:13.000Z</time>
      </trkpt>
      <trkpt lat="46.3625" lon="6.02884">
        <ele>1186.1999511719</ele>
        <time>2019-10-05T14:03:15.000Z</time>
      </trkpt>
      <trkpt lat="46.36248" lon="6.02881">
        <ele>1186</ele>
        <time>2019-10-05T14:03:16.000Z</time>
      </trkpt>
      <trkpt lat="46.36238" lon="6.02872">
        <ele>1184.8000488281</ele>
        <time>2019-10-05T14:03:20.000Z</time>
      </trkpt>
      <trkpt lat="46.36233" lon="6.02868">
        <ele>1184</ele>
        <time>2019-10-05T14:03:22.000Z</time>
      </trkpt>
      <trkpt lat="46.36217" lon="6.02855">
        <ele>1182.8000488281</ele>
        <time>2019-10-05T14:03:28.000Z</time>
      </trkpt>
      <trkpt lat="46.36204" lon="6.02839">
        <ele>1183</ele>
        <time>2019-10-05T14:03:34.000Z</time>
      </trkpt>
      <trkpt lat="46.36191" lon="6.02818">
        <ele>1184.1999511719</ele>
        <time>2019-10-05T14:03:41.000Z</time>
      </trkpt>
      <trkpt lat="46.3619" lon="6.02816">
        <ele>1184.4000244141</ele>
        <time>2019-10-05T14:03:42.000Z</time>
      </trkpt>
      <trkpt lat="46.36185" lon="6.02808">
        <ele>1184.8000488281</ele>
        <time>2019-10-05T14:03:45.000Z</time>
      </trkpt>
      <trkpt lat="46.3618" lon="6.02797">
        <ele>1187</ele>
        <time>2019-10-05T14:03:49.000Z</time>
      </trkpt>
      <trkpt lat="46.36178" lon="6.02795">
        <ele>1187.5999755859</ele>
        <time>2019-10-05T14:03:50.000Z</time>
      </trkpt>
      <trkpt lat="46.36175" lon="6.0279">
        <ele>1188.5999755859</ele>
        <time>2019-10-05T14:03:52.000Z</time>
      </trkpt>
      <trkpt lat="46.36171" lon="6.02785">
        <ele>1189.1999511719</ele>
        <time>2019-10-05T14:03:54.000Z</time>
      </trkpt>
      <trkpt lat="46.36168" lon="6.02781">
        <ele>1190</ele>
        <time>2019-10-05T14:03:56.000Z</time>
      </trkpt>
      <trkpt lat="46.36164" lon="6.02776">
        <ele>1190.5999755859</ele>
        <time>2019-10-05T14:03:58.000Z</time>
      </trkpt>
      <trkpt lat="46.36159" lon="6.02769">
        <ele>1191.8000488281</ele>
        <time>2019-10-05T14:04:01.000Z</time>
      </trkpt>
      <trkpt lat="46.36153" lon="6.02762">
        <ele>1192.5999755859</ele>
        <time>2019-10-05T14:04:04.000Z</time>
      </trkpt>
      <trkpt lat="46.3615" lon="6.02758">
        <ele>1193.1999511719</ele>
        <time>2019-10-05T14:04:06.000Z</time>
      </trkpt>
      <trkpt lat="46.36141" lon="6.02745">
        <ele>1195.5999755859</ele>
        <time>2019-10-05T14:04:12.000Z</time>
      </trkpt>
      <trkpt lat="46.36139" lon="6.02742">
        <ele>1196</ele>
        <time>2019-10-05T14:04:13.000Z</time>
      </trkpt>
      <trkpt lat="46.36124" lon="6.02722">
        <ele>1199.1999511719</ele>
        <time>2019-10-05T14:04:22.000Z</time>
      </trkpt>
      <trkpt lat="46.36121" lon="6.02718">
        <ele>1199.5999755859</ele>
        <time>2019-10-05T14:04:24.000Z</time>
      </trkpt>
      <trkpt lat="46.36115" lon="6.02712">
        <ele>1200.1999511719</ele>
        <time>2019-10-05T14:04:27.000Z</time>
      </trkpt>
      <trkpt lat="46.36106" lon="6.02704">
        <ele>1200.5999755859</ele>
        <time>2019-10-05T14:04:32.000Z</time>
      </trkpt>
      <trkpt lat="46.36104" lon="6.02702">
        <ele>1200.8000488281</ele>
        <time>2019-10-05T14:04:33.000Z</time>
      </trkpt>
      <trkpt lat="46.36099" lon="6.02699">
        <ele>1200.5999755859</ele>
        <time>2019-10-05T14:04:35.000Z</time>
      </trkpt>
      <trkpt lat="46.36093" lon="6.02694">
        <ele>1200.8000488281</ele>
        <time>2019-10-05T14:04:38.000Z</time>
      </trkpt>
      <trkpt lat="46.3609" lon="6.02691">
        <ele>1201.1999511719</ele>
        <time>2019-10-05T14:04:40.000Z</time>
      </trkpt>
      <trkpt lat="46.36077" lon="6.02678">
        <ele>1202.1999511719</ele>
        <time>2019-10-05T14:04:47.000Z</time>
      </trkpt>
      <trkpt lat="46.36067" lon="6.02668">
        <ele>1203.1999511719</ele>
        <time>2019-10-05T14:04:53.000Z</time>
      </trkpt>
      <trkpt lat="46.36054" lon="6.02659">
        <ele>1204</ele>
        <time>2019-10-05T14:04:59.000Z</time>
      </trkpt>
      <trkpt lat="46.36052" lon="6.02657">
        <ele>1204.4000244141</ele>
        <time>2019-10-05T14:05:00.000Z</time>
      </trkpt>
      <trkpt lat="46.36034" lon="6.02649">
        <ele>1204.5999755859</ele>
        <time>2019-10-05T14:05:08.000Z</time>
      </trkpt>
      <trkpt lat="46.3602" lon="6.02642">
        <ele>1205.4000244141</ele>
        <time>2019-10-05T14:05:15.000Z</time>
      </trkpt>
      <trkpt lat="46.36008" lon="6.02636">
        <ele>1205.8000488281</ele>
        <time>2019-10-05T14:05:21.000Z</time>
      </trkpt>
      <trkpt lat="46.36006" lon="6.02635">
        <ele>1206</ele>
        <time>2019-10-05T14:05:22.000Z</time>
      </trkpt>
      <trkpt lat="46.36003" lon="6.02633">
        <ele>1206.4000244141</ele>
        <time>2019-10-05T14:05:24.000Z</time>
      </trkpt>
      <trkpt lat="46.35992" lon="6.02628">
        <ele>1206.8000488281</ele>
        <time>2019-10-05T14:05:29.000Z</time>
      </trkpt>
      <trkpt lat="46.3599" lon="6.02627">
        <ele>1207</ele>
        <time>2019-10-05T14:05:30.000Z</time>
      </trkpt>
      <trkpt lat="46.35983" lon="6.02623">
        <ele>1207.1999511719</ele>
        <time>2019-10-05T14:05:33.000Z</time>
      </trkpt>
      <trkpt lat="46.35976" lon="6.0262">
        <ele>1207.5999755859</ele>
        <time>2019-10-05T14:05:36.000Z</time>
      </trkpt>
      <trkpt lat="46.35959" lon="6.02614">
        <ele>1207.1999511719</ele>
        <time>2019-10-05T14:05:43.000Z</time>
      </trkpt>
      <trkpt lat="46.35948" lon="6.02608">
        <ele>1207.4000244141</ele>
        <time>2019-10-05T14:05:48.000Z</time>
      </trkpt>
      <trkpt lat="46.35944" lon="6.02605">
        <ele>1207.5999755859</ele>
        <time>2019-10-05T14:05:50.000Z</time>
      </trkpt>
      <trkpt lat="46.35931" lon="6.02598">
        <ele>1208.4000244141</ele>
        <time>2019-10-05T14:05:56.000Z</time>
      </trkpt>
      <trkpt lat="46.35926" lon="6.02597">
        <ele>1208.1999511719</ele>
        <time>2019-10-05T14:05:58.000Z</time>
      </trkpt>
      <trkpt lat="46.35924" lon="6.02596">
        <ele>1208.1999511719</ele>
        <time>2019-10-05T14:05:59.000Z</time>
      </trkpt>
      <trkpt lat="46.35917" lon="6.02592">
        <ele>1208.4000244141</ele>
        <time>2019-10-05T14:06:02.000Z</time>
      </trkpt>
      <trkpt lat="46.35909" lon="6.02586">
        <ele>1209.4000244141</ele>
        <time>2019-10-05T14:06:06.000Z</time>
      </trkpt>
      <trkpt lat="46.35906" lon="6.02581">
        <ele>1210.5999755859</ele>
        <time>2019-10-05T14:06:08.000Z</time>
      </trkpt>
      <trkpt lat="46.35906" lon="6.02575">
        <ele>1212.1999511719</ele>
        <time>2019-10-05T14:06:10.000Z</time>
      </trkpt>
      <trkpt lat="46.35907" lon="6.02573">
        <ele>1213</ele>
        <time>2019-10-05T14:06:11.000Z</time>
      </trkpt>
      <trkpt lat="46.35917" lon="6.0257">
        <ele>1215.1999511719</ele>
        <time>2019-10-05T14:06:16.000Z</time>
      </trkpt>
      <trkpt lat="46.35925" lon="6.02572">
        <ele>1215.5999755859</ele>
        <time>2019-10-05T14:06:19.000Z</time>
      </trkpt>
      <trkpt lat="46.35934" lon="6.02575">
        <ele>1216.1999511719</ele>
        <time>2019-10-05T14:06:23.000Z</time>
      </trkpt>
      <trkpt lat="46.35937" lon="6.02576">
        <ele>1216.1999511719</ele>
        <time>2019-10-05T14:06:24.000Z</time>
      </trkpt>
      <trkpt lat="46.35951" lon="6.02581">
        <ele>1216.5999755859</ele>
        <time>2019-10-05T14:06:30.000Z</time>
      </trkpt>
      <trkpt lat="46.35953" lon="6.02581">
        <ele>1216.8000488281</ele>
        <time>2019-10-05T14:06:31.000Z</time>
      </trkpt>
      <trkpt lat="46.35968" lon="6.02586">
        <ele>1217.4000244141</ele>
        <time>2019-10-05T14:06:37.000Z</time>
      </trkpt>
      <trkpt lat="46.35975" lon="6.02588">
        <ele>1217.5999755859</ele>
        <time>2019-10-05T14:06:40.000Z</time>
      </trkpt>
      <trkpt lat="46.35982" lon="6.02589">
        <ele>1218.4000244141</ele>
        <time>2019-10-05T14:06:43.000Z</time>
      </trkpt>
      <trkpt lat="46.35988" lon="6.0259">
        <ele>1218.5999755859</ele>
        <time>2019-10-05T14:06:46.000Z</time>
      </trkpt>
      <trkpt lat="46.35995" lon="6.0259">
        <ele>1219.4000244141</ele>
        <time>2019-10-05T14:06:49.000Z</time>
      </trkpt>
      <trkpt lat="46.36001" lon="6.02589">
        <ele>1220.4000244141</ele>
        <time>2019-10-05T14:06:52.000Z</time>
      </trkpt>
      <trkpt lat="46.3601" lon="6.02588">
        <ele>1221.5999755859</ele>
        <time>2019-10-05T14:06:56.000Z</time>
      </trkpt>
      <trkpt lat="46.36024" lon="6.02585">
        <ele>1226</ele>
        <time>2019-10-05T14:07:02.000Z</time>
      </trkpt>
      <trkpt lat="46.36038" lon="6.02584">
        <ele>1229.5999755859</ele>
        <time>2019-10-05T14:07:08.000Z</time>
      </trkpt>
      <trkpt lat="46.36056" lon="6.02584">
        <ele>1233.4000244141</ele>
        <time>2019-10-05T14:07:15.000Z</time>
      </trkpt>
      <trkpt lat="46.36064" lon="6.02584">
        <ele>1235</ele>
        <time>2019-10-05T14:07:18.000Z</time>
      </trkpt>
      <trkpt lat="46.36074" lon="6.02588">
        <ele>1236</ele>
        <time>2019-10-05T14:07:22.000Z</time>
      </trkpt>
      <trkpt lat="46.36087" lon="6.02596">
        <ele>1235.4000244141</ele>
        <time>2019-10-05T14:07:28.000Z</time>
      </trkpt>
      <trkpt lat="46.36091" lon="6.02599">
        <ele>1235.1999511719</ele>
        <time>2019-10-05T14:07:30.000Z</time>
      </trkpt>
      <trkpt lat="46.36093" lon="6.02601">
        <ele>1235</ele>
        <time>2019-10-05T14:07:31.000Z</time>
      </trkpt>
      <trkpt lat="46.36099" lon="6.02606">
        <ele>1234.4000244141</ele>
        <time>2019-10-05T14:07:34.000Z</time>
      </trkpt>
      <trkpt lat="46.36103" lon="6.0261">
        <ele>1233.5999755859</ele>
        <time>2019-10-05T14:07:36.000Z</time>
      </trkpt>
      <trkpt lat="46.36105" lon="6.02612">
        <ele>1233</ele>
        <time>2019-10-05T14:07:37.000Z</time>
      </trkpt>
      <trkpt lat="46.36106" lon="6.02614">
        <ele>1232.5999755859</ele>
        <time>2019-10-05T14:07:38.000Z</time>
      </trkpt>
      <trkpt lat="46.36109" lon="6.02619">
        <ele>1231.4000244141</ele>
        <time>2019-10-05T14:07:40.000Z</time>
      </trkpt>
      <trkpt lat="46.36113" lon="6.02623">
        <ele>1230.5999755859</ele>
        <time>2019-10-05T14:07:42.000Z</time>
      </trkpt>
      <trkpt lat="46.36116" lon="6.02627">
        <ele>1229.5999755859</ele>
        <time>2019-10-05T14:07:44.000Z</time>
      </trkpt>
      <trkpt lat="46.36118" lon="6.02629">
        <ele>1229.4000244141</ele>
        <time>2019-10-05T14:07:45.000Z</time>
      </trkpt>
      <trkpt lat="46.3612" lon="6.02631">
        <ele>1229</ele>
        <time>2019-10-05T14:07:46.000Z</time>
      </trkpt>
      <trkpt lat="46.36124" lon="6.02634">
        <ele>1228.4000244141</ele>
        <time>2019-10-05T14:07:48.000Z</time>
      </trkpt>
      <trkpt lat="46.36132" lon="6.02641">
        <ele>1227.5999755859</ele>
        <time>2019-10-05T14:07:52.000Z</time>
      </trkpt>
      <trkpt lat="46.36137" lon="6.02646">
        <ele>1227</ele>
        <time>2019-10-05T14:07:55.000Z</time>
      </trkpt>
      <trkpt lat="46.36139" lon="6.02647">
        <ele>1227</ele>
        <time>2019-10-05T14:07:56.000Z</time>
      </trkpt>
      <trkpt lat="46.36151" lon="6.02658">
        <ele>1226.1999511719</ele>
        <time>2019-10-05T14:08:02.000Z</time>
      </trkpt>
      <trkpt lat="46.36157" lon="6.02662">
        <ele>1226</ele>
        <time>2019-10-05T14:08:05.000Z</time>
      </trkpt>
      <trkpt lat="46.36166" lon="6.02668">
        <ele>1225.5999755859</ele>
        <time>2019-10-05T14:08:09.000Z</time>
      </trkpt>
      <trkpt lat="46.36168" lon="6.0267">
        <ele>1225.5999755859</ele>
        <time>2019-10-05T14:08:10.000Z</time>
      </trkpt>
      <trkpt lat="46.3618" lon="6.02678">
        <ele>1225.1999511719</ele>
        <time>2019-10-05T14:08:16.000Z</time>
      </trkpt>
      <trkpt lat="46.36182" lon="6.02679">
        <ele>1225</ele>
        <time>2019-10-05T14:08:17.000Z</time>
      </trkpt>
      <trkpt lat="46.36185" lon="6.02681">
        <ele>1225</ele>
        <time>2019-10-05T14:08:19.000Z</time>
      </trkpt>
      <trkpt lat="46.36196" lon="6.02684">
        <ele>1226</ele>
        <time>2019-10-05T14:08:24.000Z</time>
      </trkpt>
      <trkpt lat="46.36205" lon="6.02684">
        <ele>1227.4000244141</ele>
        <time>2019-10-05T14:08:28.000Z</time>
      </trkpt>
      <trkpt lat="46.36216" lon="6.02683">
        <ele>1229.4000244141</ele>
        <time>2019-10-05T14:08:33.000Z</time>
      </trkpt>
      <trkpt lat="46.3622" lon="6.02682">
        <ele>1230.4000244141</ele>
        <time>2019-10-05T14:08:35.000Z</time>
      </trkpt>
      <trkpt lat="46.36236" lon="6.0268">
        <ele>1233</ele>
        <time>2019-10-05T14:08:42.000Z</time>
      </trkpt>
      <trkpt lat="46.36238" lon="6.0268">
        <ele>1233</ele>
        <time>2019-10-05T14:08:43.000Z</time>
      </trkpt>
      <trkpt lat="46.36243" lon="6.02679">
        <ele>1233.5999755859</ele>
        <time>2019-10-05T14:08:45.000Z</time>
      </trkpt>
      <trkpt lat="46.36252" lon="6.02677">
        <ele>1234.5999755859</ele>
        <time>2019-10-05T14:08:49.000Z</time>
      </trkpt>
      <trkpt lat="46.36254" lon="6.02676">
        <ele>1234.8000488281</ele>
        <time>2019-10-05T14:08:50.000Z</time>
      </trkpt>
      <trkpt lat="46.36272" lon="6.0267">
        <ele>1237</ele>
        <time>2019-10-05T14:08:57.000Z</time>
      </trkpt>
      <trkpt lat="46.36282" lon="6.02666">
        <ele>1238</ele>
        <time>2019-10-05T14:09:01.000Z</time>
      </trkpt>
      <trkpt lat="46.36289" lon="6.02663">
        <ele>1238.8000488281</ele>
        <time>2019-10-05T14:09:04.000Z</time>
      </trkpt>
      <trkpt lat="46.363" lon="6.02653">
        <ele>1241.1999511719</ele>
        <time>2019-10-05T14:09:09.000Z</time>
      </trkpt>
      <trkpt lat="46.36311" lon="6.02643">
        <ele>1243.8000488281</ele>
        <time>2019-10-05T14:09:16.000Z</time>
      </trkpt>
      <trkpt lat="46.36314" lon="6.02639">
        <ele>1244.5999755859</ele>
        <time>2019-10-05T14:09:18.000Z</time>
      </trkpt>
      <trkpt lat="46.36318" lon="6.02635">
        <ele>1245.1999511719</ele>
        <time>2019-10-05T14:09:20.000Z</time>
      </trkpt>
      <trkpt lat="46.36325" lon="6.02627">
        <ele>1246.4000244141</ele>
        <time>2019-10-05T14:09:24.000Z</time>
      </trkpt>
      <trkpt lat="46.3633" lon="6.0262">
        <ele>1247.4000244141</ele>
        <time>2019-10-05T14:09:27.000Z</time>
      </trkpt>
      <trkpt lat="46.36333" lon="6.02617">
        <ele>1248</ele>
        <time>2019-10-05T14:09:29.000Z</time>
      </trkpt>
      <trkpt lat="46.36335" lon="6.02614">
        <ele>1248.4000244141</ele>
        <time>2019-10-05T14:09:30.000Z</time>
      </trkpt>
      <trkpt lat="46.36336" lon="6.02612">
        <ele>1248.8000488281</ele>
        <time>2019-10-05T14:09:31.000Z</time>
      </trkpt>
      <trkpt lat="46.36341" lon="6.02604">
        <ele>1250</ele>
        <time>2019-10-05T14:09:34.000Z</time>
      </trkpt>
      <trkpt lat="46.36343" lon="6.02599">
        <ele>1250.8000488281</ele>
        <time>2019-10-05T14:09:36.000Z</time>
      </trkpt>
      <trkpt lat="46.36347" lon="6.02594">
        <ele>1251.8000488281</ele>
        <time>2019-10-05T14:09:39.000Z</time>
      </trkpt>
      <trkpt lat="46.3635" lon="6.02589">
        <ele>1252.5999755859</ele>
        <time>2019-10-05T14:09:41.000Z</time>
      </trkpt>
      <trkpt lat="46.36352" lon="6.02584">
        <ele>1253.4000244141</ele>
        <time>2019-10-05T14:09:43.000Z</time>
      </trkpt>
      <trkpt lat="46.36357" lon="6.02576">
        <ele>1254.5999755859</ele>
        <time>2019-10-05T14:09:46.000Z</time>
      </trkpt>
      <trkpt lat="46.36359" lon="6.02572">
        <ele>1255.4000244141</ele>
        <time>2019-10-05T14:09:48.000Z</time>
      </trkpt>
      <trkpt lat="46.36361" lon="6.02567">
        <ele>1256.1999511719</ele>
        <time>2019-10-05T14:09:50.000Z</time>
      </trkpt>
      <trkpt lat="46.36363" lon="6.02564">
        <ele>1256.5999755859</ele>
        <time>2019-10-05T14:09:51.000Z</time>
      </trkpt>
      <trkpt lat="46.36364" lon="6.02562">
        <ele>1257</ele>
        <time>2019-10-05T14:09:52.000Z</time>
      </trkpt>
      <trkpt lat="46.36366" lon="6.02558">
        <ele>1257.5999755859</ele>
        <time>2019-10-05T14:09:54.000Z</time>
      </trkpt>
      <trkpt lat="46.36368" lon="6.02554">
        <ele>1257.8000488281</ele>
        <time>2019-10-05T14:09:56.000Z</time>
      </trkpt>
      <trkpt lat="46.36369" lon="6.02552">
        <ele>1257.8000488281</ele>
        <time>2019-10-05T14:09:57.000Z</time>
      </trkpt>
      <trkpt lat="46.3637" lon="6.0255">
        <ele>1257.8000488281</ele>
        <time>2019-10-05T14:09:58.000Z</time>
      </trkpt>
      <trkpt lat="46.36374" lon="6.02546">
        <ele>1258</ele>
        <time>2019-10-05T14:10:01.000Z</time>
      </trkpt>
      <trkpt lat="46.36376" lon="6.02546">
        <ele>1257.8000488281</ele>
        <time>2019-10-05T14:10:02.000Z</time>
      </trkpt>
      <trkpt lat="46.36378" lon="6.02546">
        <ele>1257.8000488281</ele>
        <time>2019-10-05T14:10:03.000Z</time>
      </trkpt>
      <trkpt lat="46.3638" lon="6.02546">
        <ele>1257.5999755859</ele>
        <time>2019-10-05T14:10:04.000Z</time>
      </trkpt>
      <trkpt lat="46.36382" lon="6.02546">
        <ele>1257.5999755859</ele>
        <time>2019-10-05T14:10:05.000Z</time>
      </trkpt>
      <trkpt lat="46.36383" lon="6.02545">
        <ele>1257.5999755859</ele>
        <time>2019-10-05T14:10:06.000Z</time>
      </trkpt>
      <trkpt lat="46.36384" lon="6.02544">
        <ele>1257.8000488281</ele>
        <time>2019-10-05T14:10:07.000Z</time>
      </trkpt>
      <trkpt lat="46.36385" lon="6.02542">
        <ele>1258.1999511719</ele>
        <time>2019-10-05T14:10:08.000Z</time>
      </trkpt>
      <trkpt lat="46.36385" lon="6.0254">
        <ele>1258.5999755859</ele>
        <time>2019-10-05T14:10:09.000Z</time>
      </trkpt>
      <trkpt lat="46.36384" lon="6.02536">
        <ele>1259.4000244141</ele>
        <time>2019-10-05T14:10:10.000Z</time>
      </trkpt>
      <trkpt lat="46.36383" lon="6.02531">
        <ele>1260.1999511719</ele>
        <time>2019-10-05T14:10:11.000Z</time>
      </trkpt>
      <trkpt lat="46.36381" lon="6.02526">
        <ele>1261.1999511719</ele>
        <time>2019-10-05T14:10:12.000Z</time>
      </trkpt>
      <trkpt lat="46.3638" lon="6.02521">
        <ele>1262</ele>
        <time>2019-10-05T14:10:13.000Z</time>
      </trkpt>
      <trkpt lat="46.36379" lon="6.02517">
        <ele>1262.8000488281</ele>
        <time>2019-10-05T14:10:14.000Z</time>
      </trkpt>
      <trkpt lat="46.36378" lon="6.02513">
        <ele>1263.4000244141</ele>
        <time>2019-10-05T14:10:15.000Z</time>
      </trkpt>
      <trkpt lat="46.36376" lon="6.02508">
        <ele>1264.4000244141</ele>
        <time>2019-10-05T14:10:16.000Z</time>
      </trkpt>
      <trkpt lat="46.36375" lon="6.02503">
        <ele>1265.1999511719</ele>
        <time>2019-10-05T14:10:17.000Z</time>
      </trkpt>
      <trkpt lat="46.36373" lon="6.02499">
        <ele>1266</ele>
        <time>2019-10-05T14:10:18.000Z</time>
      </trkpt>
      <trkpt lat="46.3637" lon="6.02492">
        <ele>1267</ele>
        <time>2019-10-05T14:10:20.000Z</time>
      </trkpt>
      <trkpt lat="46.36369" lon="6.02488">
        <ele>1267.5999755859</ele>
        <time>2019-10-05T14:10:21.000Z</time>
      </trkpt>
      <trkpt lat="46.36366" lon="6.02481">
        <ele>1268.8000488281</ele>
        <time>2019-10-05T14:10:23.000Z</time>
      </trkpt>
      <trkpt lat="46.36362" lon="6.02473">
        <ele>1269.8000488281</ele>
        <time>2019-10-05T14:10:25.000Z</time>
      </trkpt>
      <trkpt lat="46.36361" lon="6.02469">
        <ele>1269.8000488281</ele>
        <time>2019-10-05T14:10:26.000Z</time>
      </trkpt>
      <trkpt lat="46.36359" lon="6.02466">
        <ele>1269.8000488281</ele>
        <time>2019-10-05T14:10:27.000Z</time>
      </trkpt>
      <trkpt lat="46.36358" lon="6.02462">
        <ele>1269.8000488281</ele>
        <time>2019-10-05T14:10:28.000Z</time>
      </trkpt>
      <trkpt lat="46.36357" lon="6.02458">
        <ele>1270</ele>
        <time>2019-10-05T14:10:29.000Z</time>
      </trkpt>
      <trkpt lat="46.36356" lon="6.02453">
        <ele>1270</ele>
        <time>2019-10-05T14:10:30.000Z</time>
      </trkpt>
      <trkpt lat="46.36356" lon="6.02449">
        <ele>1270.1999511719</ele>
        <time>2019-10-05T14:10:31.000Z</time>
      </trkpt>
      <trkpt lat="46.36353" lon="6.02442">
        <ele>1270.4000244141</ele>
        <time>2019-10-05T14:10:33.000Z</time>
      </trkpt>
      <trkpt lat="46.36352" lon="6.02438">
        <ele>1270.4000244141</ele>
        <time>2019-10-05T14:10:34.000Z</time>
      </trkpt>
      <trkpt lat="46.36351" lon="6.02435">
        <ele>1270.4000244141</ele>
        <time>2019-10-05T14:10:35.000Z</time>
      </trkpt>
      <trkpt lat="46.36349" lon="6.02428">
        <ele>1270.5999755859</ele>
        <time>2019-10-05T14:10:37.000Z</time>
      </trkpt>
      <trkpt lat="46.36347" lon="6.02418">
        <ele>1271.5999755859</ele>
        <time>2019-10-05T14:10:40.000Z</time>
      </trkpt>
      <trkpt lat="46.36347" lon="6.02411">
        <ele>1272.8000488281</ele>
        <time>2019-10-05T14:10:42.000Z</time>
      </trkpt>
      <trkpt lat="46.36347" lon="6.02407">
        <ele>1273.4000244141</ele>
        <time>2019-10-05T14:10:43.000Z</time>
      </trkpt>
      <trkpt lat="46.36346" lon="6.02399">
        <ele>1274.4000244141</ele>
        <time>2019-10-05T14:10:45.000Z</time>
      </trkpt>
      <trkpt lat="46.36346" lon="6.02389">
        <ele>1275.8000488281</ele>
        <time>2019-10-05T14:10:48.000Z</time>
      </trkpt>
      <trkpt lat="46.36346" lon="6.02386">
        <ele>1276.1999511719</ele>
        <time>2019-10-05T14:10:49.000Z</time>
      </trkpt>
      <trkpt lat="46.36347" lon="6.02373">
        <ele>1278.1999511719</ele>
        <time>2019-10-05T14:10:53.000Z</time>
      </trkpt>
      <trkpt lat="46.36347" lon="6.02359">
        <ele>1280</ele>
        <time>2019-10-05T14:10:57.000Z</time>
      </trkpt>
      <trkpt lat="46.36351" lon="6.0234">
        <ele>1282.5999755859</ele>
        <time>2019-10-05T14:11:03.000Z</time>
      </trkpt>
      <trkpt lat="46.36359" lon="6.02326">
        <ele>1283.1999511719</ele>
        <time>2019-10-05T14:11:09.000Z</time>
      </trkpt>
      <trkpt lat="46.36371" lon="6.02322">
        <ele>1284</ele>
        <time>2019-10-05T14:11:15.000Z</time>
      </trkpt>
      <trkpt lat="46.36376" lon="6.02324">
        <ele>1284.4000244141</ele>
        <time>2019-10-05T14:11:17.000Z</time>
      </trkpt>
      <trkpt lat="46.36382" lon="6.02329">
        <ele>1284.8000488281</ele>
        <time>2019-10-05T14:11:20.000Z</time>
      </trkpt>
      <trkpt lat="46.36386" lon="6.02337">
        <ele>1285.1999511719</ele>
        <time>2019-10-05T14:11:23.000Z</time>
      </trkpt>
      <trkpt lat="46.36389" lon="6.02343">
        <ele>1285.4000244141</ele>
        <time>2019-10-05T14:11:25.000Z</time>
      </trkpt>
      <trkpt lat="46.36392" lon="6.02349">
        <ele>1285.5999755859</ele>
        <time>2019-10-05T14:11:27.000Z</time>
      </trkpt>
      <trkpt lat="46.36393" lon="6.02352">
        <ele>1285.5999755859</ele>
        <time>2019-10-05T14:11:28.000Z</time>
      </trkpt>
      <trkpt lat="46.36394" lon="6.02355">
        <ele>1285.8000488281</ele>
        <time>2019-10-05T14:11:29.000Z</time>
      </trkpt>
      <trkpt lat="46.36396" lon="6.02361">
        <ele>1285.8000488281</ele>
        <time>2019-10-05T14:11:31.000Z</time>
      </trkpt>
      <trkpt lat="46.364" lon="6.0237">
        <ele>1286.5999755859</ele>
        <time>2019-10-05T14:11:34.000Z</time>
      </trkpt>
      <trkpt lat="46.36403" lon="6.02379">
        <ele>1287.8000488281</ele>
        <time>2019-10-05T14:11:37.000Z</time>
      </trkpt>
      <trkpt lat="46.36405" lon="6.02385">
        <ele>1288.5999755859</ele>
        <time>2019-10-05T14:11:39.000Z</time>
      </trkpt>
      <trkpt lat="46.36407" lon="6.02391">
        <ele>1289.1999511719</ele>
        <time>2019-10-05T14:11:41.000Z</time>
      </trkpt>
      <trkpt lat="46.36409" lon="6.024">
        <ele>1287.8000488281</ele>
        <time>2019-10-05T14:11:44.000Z</time>
      </trkpt>
      <trkpt lat="46.36409" lon="6.02403">
        <ele>1287.1999511719</ele>
        <time>2019-10-05T14:11:45.000Z</time>
      </trkpt>
      <trkpt lat="46.3641" lon="6.02406">
        <ele>1287</ele>
        <time>2019-10-05T14:11:46.000Z</time>
      </trkpt>
      <trkpt lat="46.36413" lon="6.02415">
        <ele>1286.1999511719</ele>
        <time>2019-10-05T14:11:49.000Z</time>
      </trkpt>
      <trkpt lat="46.36416" lon="6.02422">
        <ele>1285.8000488281</ele>
        <time>2019-10-05T14:11:51.000Z</time>
      </trkpt>
      <trkpt lat="46.36417" lon="6.0243">
        <ele>1285</ele>
        <time>2019-10-05T14:11:53.000Z</time>
      </trkpt>
      <trkpt lat="46.36419" lon="6.02441">
        <ele>1283.8000488281</ele>
        <time>2019-10-05T14:11:56.000Z</time>
      </trkpt>
      <trkpt lat="46.3642" lon="6.02444">
        <ele>1283.4000244141</ele>
        <time>2019-10-05T14:11:57.000Z</time>
      </trkpt>
      <trkpt lat="46.36422" lon="6.02451">
        <ele>1283</ele>
        <time>2019-10-05T14:11:59.000Z</time>
      </trkpt>
      <trkpt lat="46.36425" lon="6.0246">
        <ele>1282.4000244141</ele>
        <time>2019-10-05T14:12:02.000Z</time>
      </trkpt>
      <trkpt lat="46.36427" lon="6.02463">
        <ele>1282.1999511719</ele>
        <time>2019-10-05T14:12:03.000Z</time>
      </trkpt>
      <trkpt lat="46.36429" lon="6.02468">
        <ele>1282.1999511719</ele>
        <time>2019-10-05T14:12:05.000Z</time>
      </trkpt>
      <trkpt lat="46.36432" lon="6.02473">
        <ele>1281.8000488281</ele>
        <time>2019-10-05T14:12:07.000Z</time>
      </trkpt>
      <trkpt lat="46.36436" lon="6.02482">
        <ele>1281</ele>
        <time>2019-10-05T14:12:10.000Z</time>
      </trkpt>
      <trkpt lat="46.36446" lon="6.02496">
        <ele>1279.8000488281</ele>
        <time>2019-10-05T14:12:16.000Z</time>
      </trkpt>
      <trkpt lat="46.36449" lon="6.02501">
        <ele>1279.5999755859</ele>
        <time>2019-10-05T14:12:18.000Z</time>
      </trkpt>
      <trkpt lat="46.36453" lon="6.02504">
        <ele>1279.8000488281</ele>
        <time>2019-10-05T14:12:20.000Z</time>
      </trkpt>
      <trkpt lat="46.36469" lon="6.02512">
        <ele>1281.8000488281</ele>
        <time>2019-10-05T14:12:27.000Z</time>
      </trkpt>
      <trkpt lat="46.36484" lon="6.02513">
        <ele>1285.4000244141</ele>
        <time>2019-10-05T14:12:33.000Z</time>
      </trkpt>
      <trkpt lat="46.36499" lon="6.02507">
        <ele>1291.5999755859</ele>
        <time>2019-10-05T14:12:40.000Z</time>
      </trkpt>
      <trkpt lat="46.36512" lon="6.025">
        <ele>1295.4000244141</ele>
        <time>2019-10-05T14:12:46.000Z</time>
      </trkpt>
      <trkpt lat="46.36524" lon="6.02494">
        <ele>1295.1999511719</ele>
        <time>2019-10-05T14:12:51.000Z</time>
      </trkpt>
      <trkpt lat="46.36541" lon="6.02484">
        <ele>1294.5999755859</ele>
        <time>2019-10-05T14:12:59.000Z</time>
      </trkpt>
      <trkpt lat="46.36556" lon="6.02475">
        <ele>1294</ele>
        <time>2019-10-05T14:13:07.000Z</time>
      </trkpt>
      <trkpt lat="46.36562" lon="6.02471">
        <ele>1295</ele>
        <time>2019-10-05T14:13:10.000Z</time>
      </trkpt>
      <trkpt lat="46.36568" lon="6.02466">
        <ele>1296.8000488281</ele>
        <time>2019-10-05T14:13:13.000Z</time>
      </trkpt>
      <trkpt lat="46.36572" lon="6.02462">
        <ele>1298.5999755859</ele>
        <time>2019-10-05T14:13:15.000Z</time>
      </trkpt>
      <trkpt lat="46.36579" lon="6.02453">
        <ele>1302.1999511719</ele>
        <time>2019-10-05T14:13:19.000Z</time>
      </trkpt>
      <trkpt lat="46.36586" lon="6.02442">
        <ele>1306.1999511719</ele>
        <time>2019-10-05T14:13:23.000Z</time>
      </trkpt>
      <trkpt lat="46.36589" lon="6.02436">
        <ele>1308</ele>
        <time>2019-10-05T14:13:25.000Z</time>
      </trkpt>
      <trkpt lat="46.36594" lon="6.02428">
        <ele>1310.8000488281</ele>
        <time>2019-10-05T14:13:28.000Z</time>
      </trkpt>
      <trkpt lat="46.36595" lon="6.02426">
        <ele>1311.5999755859</ele>
        <time>2019-10-05T14:13:29.000Z</time>
      </trkpt>
      <trkpt lat="46.36598" lon="6.0242">
        <ele>1311.8000488281</ele>
        <time>2019-10-05T14:13:31.000Z</time>
      </trkpt>
      <trkpt lat="46.36602" lon="6.02412">
        <ele>1311</ele>
        <time>2019-10-05T14:13:34.000Z</time>
      </trkpt>
      <trkpt lat="46.36606" lon="6.02404">
        <ele>1310.1999511719</ele>
        <time>2019-10-05T14:13:37.000Z</time>
      </trkpt>
      <trkpt lat="46.36608" lon="6.02399">
        <ele>1309.5999755859</ele>
        <time>2019-10-05T14:13:39.000Z</time>
      </trkpt>
      <trkpt lat="46.36612" lon="6.02393">
        <ele>1309</ele>
        <time>2019-10-05T14:13:42.000Z</time>
      </trkpt>
      <trkpt lat="46.36614" lon="6.02388">
        <ele>1309.4000244141</ele>
        <time>2019-10-05T14:13:44.000Z</time>
      </trkpt>
      <trkpt lat="46.36615" lon="6.02384">
        <ele>1309.8000488281</ele>
        <time>2019-10-05T14:13:45.000Z</time>
      </trkpt>
      <trkpt lat="46.36617" lon="6.02378">
        <ele>1310.4000244141</ele>
        <time>2019-10-05T14:13:47.000Z</time>
      </trkpt>
      <trkpt lat="46.36619" lon="6.02372">
        <ele>1311</ele>
        <time>2019-10-05T14:13:49.000Z</time>
      </trkpt>
      <trkpt lat="46.3662" lon="6.02366">
        <ele>1311.8000488281</ele>
        <time>2019-10-05T14:13:51.000Z</time>
      </trkpt>
      <trkpt lat="46.36622" lon="6.0236">
        <ele>1311.8000488281</ele>
        <time>2019-10-05T14:13:53.000Z</time>
      </trkpt>
      <trkpt lat="46.36624" lon="6.02354">
        <ele>1311.5999755859</ele>
        <time>2019-10-05T14:13:55.000Z</time>
      </trkpt>
      <trkpt lat="46.36626" lon="6.02348">
        <ele>1311.4000244141</ele>
        <time>2019-10-05T14:13:57.000Z</time>
      </trkpt>
      <trkpt lat="46.36627" lon="6.02342">
        <ele>1311.1999511719</ele>
        <time>2019-10-05T14:13:59.000Z</time>
      </trkpt>
      <trkpt lat="46.36629" lon="6.02336">
        <ele>1311.1999511719</ele>
        <time>2019-10-05T14:14:01.000Z</time>
      </trkpt>
      <trkpt lat="46.36631" lon="6.0233">
        <ele>1311</ele>
        <time>2019-10-05T14:14:03.000Z</time>
      </trkpt>
      <trkpt lat="46.36636" lon="6.0232">
        <ele>1310.4000244141</ele>
        <time>2019-10-05T14:14:06.000Z</time>
      </trkpt>
      <trkpt lat="46.36639" lon="6.02308">
        <ele>1310.1999511719</ele>
        <time>2019-10-05T14:14:09.000Z</time>
      </trkpt>
      <trkpt lat="46.36642" lon="6.02303">
        <ele>1309.8000488281</ele>
        <time>2019-10-05T14:14:11.000Z</time>
      </trkpt>
      <trkpt lat="46.36645" lon="6.02297">
        <ele>1310.1999511719</ele>
        <time>2019-10-05T14:14:13.000Z</time>
      </trkpt>
      <trkpt lat="46.36648" lon="6.02292">
        <ele>1310.8000488281</ele>
        <time>2019-10-05T14:14:15.000Z</time>
      </trkpt>
      <trkpt lat="46.36654" lon="6.02284">
        <ele>1312.8000488281</ele>
        <time>2019-10-05T14:14:18.000Z</time>
      </trkpt>
      <trkpt lat="46.36657" lon="6.02281">
        <ele>1314</ele>
        <time>2019-10-05T14:14:20.000Z</time>
      </trkpt>
      <trkpt lat="46.3666" lon="6.0228">
        <ele>1314.5999755859</ele>
        <time>2019-10-05T14:14:21.000Z</time>
      </trkpt>
      <trkpt lat="46.36674" lon="6.02274">
        <ele>1318.4000244141</ele>
        <time>2019-10-05T14:14:28.000Z</time>
      </trkpt>
      <trkpt lat="46.36684" lon="6.02271">
        <ele>1321</ele>
        <time>2019-10-05T14:14:33.000Z</time>
      </trkpt>
      <trkpt lat="46.36688" lon="6.0227">
        <ele>1321.8000488281</ele>
        <time>2019-10-05T14:14:35.000Z</time>
      </trkpt>
      <trkpt lat="46.36691" lon="6.02269">
        <ele>1322.5999755859</ele>
        <time>2019-10-05T14:14:37.000Z</time>
      </trkpt>
      <trkpt lat="46.36697" lon="6.02267">
        <ele>1323</ele>
        <time>2019-10-05T14:14:40.000Z</time>
      </trkpt>
      <trkpt lat="46.36702" lon="6.02265">
        <ele>1323.1999511719</ele>
        <time>2019-10-05T14:14:42.000Z</time>
      </trkpt>
      <trkpt lat="46.36713" lon="6.02261">
        <ele>1323.5999755859</ele>
        <time>2019-10-05T14:14:47.000Z</time>
      </trkpt>
      <trkpt lat="46.36716" lon="6.0226">
        <ele>1323.8000488281</ele>
        <time>2019-10-05T14:14:48.000Z</time>
      </trkpt>
      <trkpt lat="46.36723" lon="6.02257">
        <ele>1324</ele>
        <time>2019-10-05T14:14:51.000Z</time>
      </trkpt>
      <trkpt lat="46.36733" lon="6.02254">
        <ele>1325.1999511719</ele>
        <time>2019-10-05T14:14:54.000Z</time>
      </trkpt>
      <trkpt lat="46.3676" lon="6.02246">
        <ele>1337.5999755859</ele>
        <time>2019-10-05T14:15:02.000Z</time>
      </trkpt>
      <trkpt lat="46.36767" lon="6.02245">
        <ele>1339.8000488281</ele>
        <time>2019-10-05T14:15:04.000Z</time>
      </trkpt>
      <trkpt lat="46.36778" lon="6.0224">
        <ele>1342.8000488281</ele>
        <time>2019-10-05T14:15:07.000Z</time>
      </trkpt>
      <trkpt lat="46.368" lon="6.0222">
        <ele>1347.5999755859</ele>
        <time>2019-10-05T14:15:14.000Z</time>
      </trkpt>
      <trkpt lat="46.3681" lon="6.02204">
        <ele>1346.4000244141</ele>
        <time>2019-10-05T14:15:18.000Z</time>
      </trkpt>
      <trkpt lat="46.36814" lon="6.02195">
        <ele>1344.5999755859</ele>
        <time>2019-10-05T14:15:20.000Z</time>
      </trkpt>
      <trkpt lat="46.36827" lon="6.02167">
        <ele>1339.8000488281</ele>
        <time>2019-10-05T14:15:27.000Z</time>
      </trkpt>
      <trkpt lat="46.36841" lon="6.02134">
        <ele>1339.5999755859</ele>
        <time>2019-10-05T14:15:35.000Z</time>
      </trkpt>
      <trkpt lat="46.3685" lon="6.0211">
        <ele>1340.1999511719</ele>
        <time>2019-10-05T14:15:41.000Z</time>
      </trkpt>
      <trkpt lat="46.36857" lon="6.02091">
        <ele>1340.8000488281</ele>
        <time>2019-10-05T14:15:46.000Z</time>
      </trkpt>
      <trkpt lat="46.36865" lon="6.02075">
        <ele>1341.5999755859</ele>
        <time>2019-10-05T14:15:51.000Z</time>
      </trkpt>
      <trkpt lat="46.36868" lon="6.02069">
        <ele>1341.8000488281</ele>
        <time>2019-10-05T14:15:53.000Z</time>
      </trkpt>
      <trkpt lat="46.3687" lon="6.02062">
        <ele>1341.8000488281</ele>
        <time>2019-10-05T14:15:55.000Z</time>
      </trkpt>
      <trkpt lat="46.36875" lon="6.02049">
        <ele>1343.5999755859</ele>
        <time>2019-10-05T14:15:59.000Z</time>
      </trkpt>
      <trkpt lat="46.36876" lon="6.02046">
        <ele>1344.1999511719</ele>
        <time>2019-10-05T14:16:00.000Z</time>
      </trkpt>
      <trkpt lat="46.3688" lon="6.02033">
        <ele>1344.5999755859</ele>
        <time>2019-10-05T14:16:04.000Z</time>
      </trkpt>
      <trkpt lat="46.36884" lon="6.0202">
        <ele>1342.4000244141</ele>
        <time>2019-10-05T14:16:08.000Z</time>
      </trkpt>
      <trkpt lat="46.36888" lon="6.02009">
        <ele>1340.5999755859</ele>
        <time>2019-10-05T14:16:12.000Z</time>
      </trkpt>
      <trkpt lat="46.36892" lon="6.02002">
        <ele>1339.8000488281</ele>
        <time>2019-10-05T14:23:22.000Z</time>
      </trkpt>
      <trkpt lat="46.36901" lon="6.0199">
        <ele>1338.5999755859</ele>
        <time>2019-10-05T14:23:27.000Z</time>
      </trkpt>
      <trkpt lat="46.3691" lon="6.01975">
        <ele>1338.1999511719</ele>
        <time>2019-10-05T14:28:39.000Z</time>
      </trkpt>
      <trkpt lat="46.36912" lon="6.01971">
        <ele>1338.4000244141</ele>
        <time>2019-10-05T14:28:41.000Z</time>
      </trkpt>
      <trkpt lat="46.36917" lon="6.01959">
        <ele>1338.1999511719</ele>
        <time>2019-10-05T14:28:45.000Z</time>
      </trkpt>
      <trkpt lat="46.36921" lon="6.01952">
        <ele>1338.4000244141</ele>
        <time>2019-10-05T14:28:47.000Z</time>
      </trkpt>
      <trkpt lat="46.36929" lon="6.0194">
        <ele>1338.8000488281</ele>
        <time>2019-10-05T14:28:50.000Z</time>
      </trkpt>
      <trkpt lat="46.36931" lon="6.01936">
        <ele>1339</ele>
        <time>2019-10-05T14:28:51.000Z</time>
      </trkpt>
      <trkpt lat="46.36947" lon="6.01918">
        <ele>1338.1999511719</ele>
        <time>2019-10-05T14:28:56.000Z</time>
      </trkpt>
      <trkpt lat="46.36951" lon="6.01914">
        <ele>1337.4000244141</ele>
        <time>2019-10-05T14:28:57.000Z</time>
      </trkpt>
      <trkpt lat="46.36962" lon="6.01894">
        <ele>1334.1999511719</ele>
        <time>2019-10-05T14:29:01.000Z</time>
      </trkpt>
      <trkpt lat="46.36965" lon="6.0189">
        <ele>1333.8000488281</ele>
        <time>2019-10-05T14:29:02.000Z</time>
      </trkpt>
      <trkpt lat="46.36978" lon="6.01868">
        <ele>1329.1999511719</ele>
        <time>2019-10-05T14:29:08.000Z</time>
      </trkpt>
    </trkseg>
  </trk>
</gpx>